<?xml version="1.0" encoding="UTF-8" standalone="no" ?><gpx xmlns="http://www.topografix.com/GPX/1/1" xmlns:gpxx="http://www.garmin.com/xmlschemas/GpxExtensions/v3" xmlns:wptx1="http://www.garmin.com/xmlschemas/WaypointExtension/v1" xmlns:gpxtpx="http://www.garmin.com/xmlschemas/TrackPointExtension/v1" creator="GuideVTT.com" version="1.1" xmlns:xsi="http://www.w3.org/2001/XMLSchema-instance" xsi:schemaLocation="http://www.topografix.com/GPX/1/1 http://www.topografix.com/GPX/1/1/gpx.xsd http://www.garmin.com/xmlschemas/GpxExtensions/v3 http://www8.garmin.com/xmlschemas/GpxExtensionsv3.xsd http://www.garmin.com/xmlschemas/WaypointExtension/v1 http://www8.garmin.com/xmlschemas/WaypointExtensionv1.xsd http://www.garmin.com/xmlschemas/TrackPointExtension/v1 http://www.garmin.com/xmlschemas/TrackPointExtensionv1.xsd">
<metadata><link href="http://www.garmin.com"><text>Garmin International</text></link><time>2013-06-22T15:13:50Z</time></metadata>
<trk><name>2021-06-26_1020__20210626_1020.gpx</name><extensions><gpxx:TrackExtension><gpxx:DisplayColor>Cyan</gpxx:DisplayColor></gpxx:TrackExtension></extensions><trkseg>
<trkpt lat="47.3289420" lon="4.0952193"><ele></ele><time>2022-6-4T9:4:21Z</time></trkpt>
<trkpt lat="47.3291239" lon="4.0953267"><ele></ele><time>2022-6-4T9:4:24Z</time></trkpt>
<trkpt lat="47.3293245" lon="4.0953770"><ele></ele><time>2022-6-4T9:4:27Z</time></trkpt>
<trkpt lat="47.3294461" lon="4.0956012"><ele></ele><time>2022-6-4T9:4:30Z</time></trkpt>
<trkpt lat="47.3295564" lon="4.0958176"><ele></ele><time>2022-6-4T9:4:33Z</time></trkpt>
<trkpt lat="47.3296261" lon="4.0960914"><ele></ele><time>2022-6-4T9:4:36Z</time></trkpt>
<trkpt lat="47.3296782" lon="4.0963515"><ele></ele><time>2022-6-4T9:4:39Z</time></trkpt>
<trkpt lat="47.3298472" lon="4.0964642"><ele></ele><time>2022-6-4T9:4:42Z</time></trkpt>
<trkpt lat="47.3300307" lon="4.0964925"><ele></ele><time>2022-6-4T9:4:45Z</time></trkpt>
<trkpt lat="47.3302233" lon="4.0965042"><ele></ele><time>2022-6-4T9:4:48Z</time></trkpt>
<trkpt lat="47.3303818" lon="4.0963033"><ele></ele><time>2022-6-4T9:4:51Z</time></trkpt>
<trkpt lat="47.3305831" lon="4.0962587"><ele></ele><time>2022-6-4T9:4:54Z</time></trkpt>
<trkpt lat="47.3307766" lon="4.0962145"><ele></ele><time>2022-6-4T9:4:57Z</time></trkpt>
<trkpt lat="47.3308596" lon="4.0959518"><ele></ele><time>2022-6-4T9:5:0Z</time></trkpt>
<trkpt lat="47.3309649" lon="4.0957145"><ele></ele><time>2022-6-4T9:5:3Z</time></trkpt>
<trkpt lat="47.3311258" lon="4.0955439"><ele></ele><time>2022-6-4T9:5:6Z</time></trkpt>
<trkpt lat="47.3312741" lon="4.0953754"><ele></ele><time>2022-6-4T9:5:9Z</time></trkpt>
<trkpt lat="47.3314198" lon="4.0951836"><ele></ele><time>2022-6-4T9:5:12Z</time></trkpt>
<trkpt lat="47.3315392" lon="4.0949565"><ele></ele><time>2022-6-4T9:5:15Z</time></trkpt>
<trkpt lat="47.3317276" lon="4.0950151"><ele></ele><time>2022-6-4T9:5:18Z</time></trkpt>
<trkpt lat="47.3319140" lon="4.0950194"><ele></ele><time>2022-6-4T9:5:21Z</time></trkpt>
<trkpt lat="47.3320584" lon="4.0951893"><ele></ele><time>2022-6-4T9:5:24Z</time></trkpt>
<trkpt lat="47.3322303" lon="4.0953195"><ele></ele><time>2022-6-4T9:5:27Z</time></trkpt>
<trkpt lat="47.3323470" lon="4.0950696"><ele></ele><time>2022-6-4T9:5:30Z</time></trkpt>
<trkpt lat="47.3324508" lon="4.0948165"><ele></ele><time>2022-6-4T9:5:33Z</time></trkpt>
<trkpt lat="47.3325897" lon="4.0946166"><ele></ele><time>2022-6-4T9:5:36Z</time></trkpt>
<trkpt lat="47.3327528" lon="4.0945040"><ele></ele><time>2022-6-4T9:5:39Z</time></trkpt>
<trkpt lat="47.3329450" lon="4.0944309"><ele></ele><time>2022-6-4T9:5:42Z</time></trkpt>
<trkpt lat="47.3331349" lon="4.0943541"><ele></ele><time>2022-6-4T9:5:45Z</time></trkpt>
<trkpt lat="47.3333179" lon="4.0942851"><ele></ele><time>2022-6-4T9:5:48Z</time></trkpt>
<trkpt lat="47.3332683" lon="4.0940243"><ele></ele><time>2022-6-4T9:5:51Z</time></trkpt>
<trkpt lat="47.3334023" lon="4.0938468"><ele></ele><time>2022-6-4T9:5:54Z</time></trkpt>
<trkpt lat="47.3335187" lon="4.0936347"><ele></ele><time>2022-6-4T9:5:57Z</time></trkpt>
<trkpt lat="47.3336759" lon="4.0934071"><ele></ele><time>2022-6-4T9:6:0Z</time></trkpt>
<trkpt lat="47.3338782" lon="4.0932865"><ele></ele><time>2022-6-4T9:6:3Z</time></trkpt>
<trkpt lat="47.3340433" lon="4.0931550"><ele></ele><time>2022-6-4T9:6:6Z</time></trkpt>
<trkpt lat="47.3342137" lon="4.0930575"><ele></ele><time>2022-6-4T9:6:9Z</time></trkpt>
<trkpt lat="47.3343723" lon="4.0929312"><ele></ele><time>2022-6-4T9:6:12Z</time></trkpt>
<trkpt lat="47.3344085" lon="4.0926489"><ele></ele><time>2022-6-4T9:6:15Z</time></trkpt>
<trkpt lat="47.3344275" lon="4.0923587"><ele></ele><time>2022-6-4T9:6:18Z</time></trkpt>
<trkpt lat="47.3345459" lon="4.0921441"><ele></ele><time>2022-6-4T9:6:21Z</time></trkpt>
<trkpt lat="47.3345309" lon="4.0918467"><ele></ele><time>2022-6-4T9:6:24Z</time></trkpt>
<trkpt lat="47.3345744" lon="4.0915662"><ele></ele><time>2022-6-4T9:6:27Z</time></trkpt>
<trkpt lat="47.3346225" lon="4.0913039"><ele></ele><time>2022-6-4T9:6:30Z</time></trkpt>
<trkpt lat="47.3346455" lon="4.0910352"><ele></ele><time>2022-6-4T9:6:33Z</time></trkpt>
<trkpt lat="47.3345448" lon="4.0907909"><ele></ele><time>2022-6-4T9:6:36Z</time></trkpt>
<trkpt lat="47.3345541" lon="4.0904469"><ele></ele><time>2022-6-4T9:6:39Z</time></trkpt>
<trkpt lat="47.3345773" lon="4.0901719"><ele></ele><time>2022-6-4T9:6:42Z</time></trkpt>
<trkpt lat="47.3345962" lon="4.0898035"><ele></ele><time>2022-6-4T9:6:45Z</time></trkpt>
<trkpt lat="47.3346175" lon="4.0895209"><ele></ele><time>2022-6-4T9:6:48Z</time></trkpt>
<trkpt lat="47.3347273" lon="4.0892908"><ele></ele><time>2022-6-4T9:6:51Z</time></trkpt>
<trkpt lat="47.3348162" lon="4.0890204"><ele></ele><time>2022-6-4T9:6:54Z</time></trkpt>
<trkpt lat="47.3347666" lon="4.0887543"><ele></ele><time>2022-6-4T9:6:57Z</time></trkpt>
<trkpt lat="47.3348519" lon="4.0884636"><ele></ele><time>2022-6-4T9:7:0Z</time></trkpt>
<trkpt lat="47.3348052" lon="4.0881979"><ele></ele><time>2022-6-4T9:7:3Z</time></trkpt>
<trkpt lat="47.3346662" lon="4.0880154"><ele></ele><time>2022-6-4T9:7:6Z</time></trkpt>
<trkpt lat="47.3344904" lon="4.0878743"><ele></ele><time>2022-6-4T9:7:9Z</time></trkpt>
<trkpt lat="47.3342993" lon="4.0877351"><ele></ele><time>2022-6-4T9:7:12Z</time></trkpt>
<trkpt lat="47.3341497" lon="4.0875737"><ele></ele><time>2022-6-4T9:7:15Z</time></trkpt>
<trkpt lat="47.3339917" lon="4.0873192"><ele></ele><time>2022-6-4T9:7:18Z</time></trkpt>
<trkpt lat="47.3338404" lon="4.0871483"><ele></ele><time>2022-6-4T9:7:21Z</time></trkpt>
<trkpt lat="47.3337116" lon="4.0869553"><ele></ele><time>2022-6-4T9:7:24Z</time></trkpt>
<trkpt lat="47.3335998" lon="4.0867404"><ele></ele><time>2022-6-4T9:7:27Z</time></trkpt>
<trkpt lat="47.3335114" lon="4.0865080"><ele></ele><time>2022-6-4T9:7:30Z</time></trkpt>
<trkpt lat="47.3334036" lon="4.0862523"><ele></ele><time>2022-6-4T9:7:33Z</time></trkpt>
<trkpt lat="47.3333222" lon="4.0860081"><ele></ele><time>2022-6-4T9:7:36Z</time></trkpt>
<trkpt lat="47.3332939" lon="4.0857305"><ele></ele><time>2022-6-4T9:7:39Z</time></trkpt>
<trkpt lat="47.3332505" lon="4.0854305"><ele></ele><time>2022-6-4T9:7:42Z</time></trkpt>
<trkpt lat="47.3332576" lon="4.0851179"><ele></ele><time>2022-6-4T9:7:45Z</time></trkpt>
<trkpt lat="47.3333019" lon="4.0848292"><ele></ele><time>2022-6-4T9:7:48Z</time></trkpt>
<trkpt lat="47.3333615" lon="4.0845562"><ele></ele><time>2022-6-4T9:7:51Z</time></trkpt>
<trkpt lat="47.3334505" lon="4.0842843"><ele></ele><time>2022-6-4T9:7:54Z</time></trkpt>
<trkpt lat="47.3335292" lon="4.0840184"><ele></ele><time>2022-6-4T9:7:57Z</time></trkpt>
<trkpt lat="47.3336839" lon="4.0838213"><ele></ele><time>2022-6-4T9:8:0Z</time></trkpt>
<trkpt lat="47.3338202" lon="4.0835596"><ele></ele><time>2022-6-4T9:8:3Z</time></trkpt>
<trkpt lat="47.3338726" lon="4.0833037"><ele></ele><time>2022-6-4T9:8:6Z</time></trkpt>
<trkpt lat="47.3339880" lon="4.0830664"><ele></ele><time>2022-6-4T9:8:9Z</time></trkpt>
<trkpt lat="47.3340307" lon="4.0827827"><ele></ele><time>2022-6-4T9:8:12Z</time></trkpt>
<trkpt lat="47.3340750" lon="4.0824815"><ele></ele><time>2022-6-4T9:8:15Z</time></trkpt>
<trkpt lat="47.3341306" lon="4.0821750"><ele></ele><time>2022-6-4T9:8:18Z</time></trkpt>
<trkpt lat="47.3341936" lon="4.0818636"><ele></ele><time>2022-6-4T9:8:21Z</time></trkpt>
<trkpt lat="47.3342736" lon="4.0815742"><ele></ele><time>2022-6-4T9:8:24Z</time></trkpt>
<trkpt lat="47.3343535" lon="4.0812961"><ele></ele><time>2022-6-4T9:8:27Z</time></trkpt>
<trkpt lat="47.3344639" lon="4.0810765"><ele></ele><time>2022-6-4T9:8:30Z</time></trkpt>
<trkpt lat="47.3346214" lon="4.0808906"><ele></ele><time>2022-6-4T9:8:33Z</time></trkpt>
<trkpt lat="47.3347813" lon="4.0807486"><ele></ele><time>2022-6-4T9:8:36Z</time></trkpt>
<trkpt lat="47.3349740" lon="4.0808228"><ele></ele><time>2022-6-4T9:8:39Z</time></trkpt>
<trkpt lat="47.3352057" lon="4.0807275"><ele></ele><time>2022-6-4T9:8:42Z</time></trkpt>
<trkpt lat="47.3353291" lon="4.0805061"><ele></ele><time>2022-6-4T9:8:45Z</time></trkpt>
<trkpt lat="47.3353896" lon="4.0801660"><ele></ele><time>2022-6-4T9:8:48Z</time></trkpt>
<trkpt lat="47.3354929" lon="4.0798559"><ele></ele><time>2022-6-4T9:8:51Z</time></trkpt>
<trkpt lat="47.3356435" lon="4.0794734"><ele></ele><time>2022-6-4T9:8:54Z</time></trkpt>
<trkpt lat="47.3357821" lon="4.0792645"><ele></ele><time>2022-6-4T9:8:57Z</time></trkpt>
<trkpt lat="47.3359556" lon="4.0788866"><ele></ele><time>2022-6-4T9:9:0Z</time></trkpt>
<trkpt lat="47.3360569" lon="4.0786662"><ele></ele><time>2022-6-4T9:9:3Z</time></trkpt>
<trkpt lat="47.3362162" lon="4.0785387"><ele></ele><time>2022-6-4T9:9:6Z</time></trkpt>
<trkpt lat="47.3363815" lon="4.0783922"><ele></ele><time>2022-6-4T9:9:9Z</time></trkpt>
<trkpt lat="47.3364166" lon="4.0781008"><ele></ele><time>2022-6-4T9:9:12Z</time></trkpt>
<trkpt lat="47.3364350" lon="4.0778311"><ele></ele><time>2022-6-4T9:9:15Z</time></trkpt>
<trkpt lat="47.3364530" lon="4.0775432"><ele></ele><time>2022-6-4T9:9:18Z</time></trkpt>
<trkpt lat="47.3364802" lon="4.0772646"><ele></ele><time>2022-6-4T9:9:21Z</time></trkpt>
<trkpt lat="47.3364960" lon="4.0769884"><ele></ele><time>2022-6-4T9:9:24Z</time></trkpt>
<trkpt lat="47.3365131" lon="4.0767216"><ele></ele><time>2022-6-4T9:9:27Z</time></trkpt>
<trkpt lat="47.3365414" lon="4.0764421"><ele></ele><time>2022-6-4T9:9:30Z</time></trkpt>
<trkpt lat="47.3366100" lon="4.0761934"><ele></ele><time>2022-6-4T9:9:33Z</time></trkpt>
<trkpt lat="47.3364946" lon="4.0759633"><ele></ele><time>2022-6-4T9:9:36Z</time></trkpt>
<trkpt lat="47.3363113" lon="4.0758624"><ele></ele><time>2022-6-4T9:9:39Z</time></trkpt>
<trkpt lat="47.3361338" lon="4.0757278"><ele></ele><time>2022-6-4T9:9:42Z</time></trkpt>
<trkpt lat="47.3359769" lon="4.0755739"><ele></ele><time>2022-6-4T9:9:45Z</time></trkpt>
<trkpt lat="47.3357987" lon="4.0755217"><ele></ele><time>2022-6-4T9:9:48Z</time></trkpt>
<trkpt lat="47.3355984" lon="4.0754571"><ele></ele><time>2022-6-4T9:9:51Z</time></trkpt>
<trkpt lat="47.3354100" lon="4.0754337"><ele></ele><time>2022-6-4T9:9:54Z</time></trkpt>
<trkpt lat="47.3352389" lon="4.0755192"><ele></ele><time>2022-6-4T9:9:57Z</time></trkpt>
<trkpt lat="47.3350636" lon="4.0754314"><ele></ele><time>2022-6-4T9:10:0Z</time></trkpt>
<trkpt lat="47.3348744" lon="4.0752367"><ele></ele><time>2022-6-4T9:10:3Z</time></trkpt>
<trkpt lat="47.3346768" lon="4.0751266"><ele></ele><time>2022-6-4T9:10:6Z</time></trkpt>
<trkpt lat="47.3344817" lon="4.0750326"><ele></ele><time>2022-6-4T9:10:9Z</time></trkpt>
<trkpt lat="47.3343041" lon="4.0750967"><ele></ele><time>2022-6-4T9:10:12Z</time></trkpt>
<trkpt lat="47.3344933" lon="4.0750662"><ele></ele><time>2022-6-4T9:10:15Z</time></trkpt>
<trkpt lat="47.3345830" lon="4.0748062"><ele></ele><time>2022-6-4T9:10:18Z</time></trkpt>
<trkpt lat="47.3344767" lon="4.0745887"><ele></ele><time>2022-6-4T9:10:21Z</time></trkpt>
<trkpt lat="47.3343092" lon="4.0744581"><ele></ele><time>2022-6-4T9:10:24Z</time></trkpt>
<trkpt lat="47.3340924" lon="4.0744985"><ele></ele><time>2022-6-4T9:10:27Z</time></trkpt>
<trkpt lat="47.3338278" lon="4.0744530"><ele></ele><time>2022-6-4T9:10:30Z</time></trkpt>
<trkpt lat="47.3336434" lon="4.0743975"><ele></ele><time>2022-6-4T9:10:33Z</time></trkpt>
<trkpt lat="47.3334302" lon="4.0743765"><ele></ele><time>2022-6-4T9:10:36Z</time></trkpt>
<trkpt lat="47.3332502" lon="4.0743329"><ele></ele><time>2022-6-4T9:10:39Z</time></trkpt>
<trkpt lat="47.3330526" lon="4.0743443"><ele></ele><time>2022-6-4T9:10:42Z</time></trkpt>
<trkpt lat="47.3328656" lon="4.0744224"><ele></ele><time>2022-6-4T9:10:45Z</time></trkpt>
<trkpt lat="47.3326760" lon="4.0742459"><ele></ele><time>2022-6-4T9:10:48Z</time></trkpt>
<trkpt lat="47.3325748" lon="4.0740176"><ele></ele><time>2022-6-4T9:10:51Z</time></trkpt>
<trkpt lat="47.3324326" lon="4.0737806"><ele></ele><time>2022-6-4T9:10:54Z</time></trkpt>
<trkpt lat="47.3322203" lon="4.0736770"><ele></ele><time>2022-6-4T9:10:57Z</time></trkpt>
<trkpt lat="47.3320488" lon="4.0735882"><ele></ele><time>2022-6-4T9:11:0Z</time></trkpt>
<trkpt lat="47.3318881" lon="4.0734191"><ele></ele><time>2022-6-4T9:11:3Z</time></trkpt>
<trkpt lat="47.3317008" lon="4.0732928"><ele></ele><time>2022-6-4T9:11:6Z</time></trkpt>
<trkpt lat="47.3315436" lon="4.0734376"><ele></ele><time>2022-6-4T9:11:9Z</time></trkpt>
<trkpt lat="47.3315016" lon="4.0737035"><ele></ele><time>2022-6-4T9:11:12Z</time></trkpt>
<trkpt lat="47.3315759" lon="4.0739746"><ele></ele><time>2022-6-4T9:11:15Z</time></trkpt>
<trkpt lat="47.3316259" lon="4.0742598"><ele></ele><time>2022-6-4T9:11:18Z</time></trkpt>
<trkpt lat="47.3317139" lon="4.0745170"><ele></ele><time>2022-6-4T9:11:21Z</time></trkpt>
<trkpt lat="47.3318337" lon="4.0748072"><ele></ele><time>2022-6-4T9:11:24Z</time></trkpt>
<trkpt lat="47.3318378" lon="4.0750881"><ele></ele><time>2022-6-4T9:11:27Z</time></trkpt>
<trkpt lat="47.3319042" lon="4.0753582"><ele></ele><time>2022-6-4T9:11:30Z</time></trkpt>
<trkpt lat="47.3319979" lon="4.0756350"><ele></ele><time>2022-6-4T9:11:33Z</time></trkpt>
<trkpt lat="47.3320644" lon="4.0759293"><ele></ele><time>2022-6-4T9:11:36Z</time></trkpt>
<trkpt lat="47.3321242" lon="4.0761902"><ele></ele><time>2022-6-4T9:11:39Z</time></trkpt>
<trkpt lat="47.3320946" lon="4.0764834"><ele></ele><time>2022-6-4T9:11:42Z</time></trkpt>
<trkpt lat="47.3320720" lon="4.0767818"><ele></ele><time>2022-6-4T9:11:45Z</time></trkpt>
<trkpt lat="47.3320683" lon="4.0770519"><ele></ele><time>2022-6-4T9:11:48Z</time></trkpt>
<trkpt lat="47.3321109" lon="4.0773492"><ele></ele><time>2022-6-4T9:11:51Z</time></trkpt>
<trkpt lat="47.3321481" lon="4.0776150"><ele></ele><time>2022-6-4T9:11:54Z</time></trkpt>
<trkpt lat="47.3321284" lon="4.0778820"><ele></ele><time>2022-6-4T9:11:57Z</time></trkpt>
<trkpt lat="47.3320747" lon="4.0781550"><ele></ele><time>2022-6-4T9:12:0Z</time></trkpt>
<trkpt lat="47.3319753" lon="4.0783803"><ele></ele><time>2022-6-4T9:12:3Z</time></trkpt>
<trkpt lat="47.3318218" lon="4.0785547"><ele></ele><time>2022-6-4T9:12:6Z</time></trkpt>
<trkpt lat="47.3316477" lon="4.0784735"><ele></ele><time>2022-6-4T9:12:9Z</time></trkpt>
<trkpt lat="47.3315197" lon="4.0786875"><ele></ele><time>2022-6-4T9:12:12Z</time></trkpt>
<trkpt lat="47.3315103" lon="4.0789789"><ele></ele><time>2022-6-4T9:12:15Z</time></trkpt>
<trkpt lat="47.3314926" lon="4.0792640"><ele></ele><time>2022-6-4T9:12:18Z</time></trkpt>
<trkpt lat="47.3315330" lon="4.0795488"><ele></ele><time>2022-6-4T9:12:21Z</time></trkpt>
<trkpt lat="47.3313505" lon="4.0796560"><ele></ele><time>2022-6-4T9:12:24Z</time></trkpt>
<trkpt lat="47.3311554" lon="4.0796875"><ele></ele><time>2022-6-4T9:12:27Z</time></trkpt>
<trkpt lat="47.3309546" lon="4.0796279"><ele></ele><time>2022-6-4T9:12:30Z</time></trkpt>
<trkpt lat="47.3307587" lon="4.0795942"><ele></ele><time>2022-6-4T9:12:33Z</time></trkpt>
<trkpt lat="47.3306448" lon="4.0793468"><ele></ele><time>2022-6-4T9:12:36Z</time></trkpt>
<trkpt lat="47.3306188" lon="4.0790826"><ele></ele><time>2022-6-4T9:12:39Z</time></trkpt>
<trkpt lat="47.3305422" lon="4.0788061"><ele></ele><time>2022-6-4T9:12:42Z</time></trkpt>
<trkpt lat="47.3304716" lon="4.0785601"><ele></ele><time>2022-6-4T9:12:45Z</time></trkpt>
<trkpt lat="47.3303957" lon="4.0782865"><ele></ele><time>2022-6-4T9:12:48Z</time></trkpt>
<trkpt lat="47.3303064" lon="4.0780396"><ele></ele><time>2022-6-4T9:12:51Z</time></trkpt>
<trkpt lat="47.3302137" lon="4.0778096"><ele></ele><time>2022-6-4T9:12:54Z</time></trkpt>
<trkpt lat="47.3301398" lon="4.0775486"><ele></ele><time>2022-6-4T9:12:57Z</time></trkpt>
<trkpt lat="47.3301306" lon="4.0772753"><ele></ele><time>2022-6-4T9:13:0Z</time></trkpt>
<trkpt lat="47.3301512" lon="4.0770001"><ele></ele><time>2022-6-4T9:13:3Z</time></trkpt>
<trkpt lat="47.3300801" lon="4.0767471"><ele></ele><time>2022-6-4T9:13:6Z</time></trkpt>
<trkpt lat="47.3299482" lon="4.0765641"><ele></ele><time>2022-6-4T9:13:9Z</time></trkpt>
<trkpt lat="47.3298138" lon="4.0763746"><ele></ele><time>2022-6-4T9:13:12Z</time></trkpt>
<trkpt lat="47.3296577" lon="4.0761925"><ele></ele><time>2022-6-4T9:13:15Z</time></trkpt>
<trkpt lat="47.3294884" lon="4.0760651"><ele></ele><time>2022-6-4T9:13:18Z</time></trkpt>
<trkpt lat="47.3293285" lon="4.0759198"><ele></ele><time>2022-6-4T9:13:21Z</time></trkpt>
<trkpt lat="47.3291662" lon="4.0757618"><ele></ele><time>2022-6-4T9:13:24Z</time></trkpt>
<trkpt lat="47.3290301" lon="4.0755564"><ele></ele><time>2022-6-4T9:13:27Z</time></trkpt>
<trkpt lat="47.3289015" lon="4.0753290"><ele></ele><time>2022-6-4T9:13:30Z</time></trkpt>
<trkpt lat="47.3287641" lon="4.0751233"><ele></ele><time>2022-6-4T9:13:33Z</time></trkpt>
<trkpt lat="47.3285516" lon="4.0748647"><ele></ele><time>2022-6-4T9:13:36Z</time></trkpt>
<trkpt lat="47.3284246" lon="4.0746753"><ele></ele><time>2022-6-4T9:13:39Z</time></trkpt>
<trkpt lat="47.3282458" lon="4.0745389"><ele></ele><time>2022-6-4T9:13:42Z</time></trkpt>
<trkpt lat="47.3280651" lon="4.0744402"><ele></ele><time>2022-6-4T9:13:45Z</time></trkpt>
<trkpt lat="47.3278955" lon="4.0742910"><ele></ele><time>2022-6-4T9:13:48Z</time></trkpt>
<trkpt lat="47.3277365" lon="4.0741514"><ele></ele><time>2022-6-4T9:13:51Z</time></trkpt>
<trkpt lat="47.3275477" lon="4.0740113"><ele></ele><time>2022-6-4T9:13:54Z</time></trkpt>
<trkpt lat="47.3273835" lon="4.0738317"><ele></ele><time>2022-6-4T9:13:57Z</time></trkpt>
<trkpt lat="47.3272192" lon="4.0736579"><ele></ele><time>2022-6-4T9:14:0Z</time></trkpt>
<trkpt lat="47.3270345" lon="4.0735367"><ele></ele><time>2022-6-4T9:14:3Z</time></trkpt>
<trkpt lat="47.3268646" lon="4.0734423"><ele></ele><time>2022-6-4T9:14:6Z</time></trkpt>
<trkpt lat="47.3266814" lon="4.0733323"><ele></ele><time>2022-6-4T9:14:9Z</time></trkpt>
<trkpt lat="47.3264866" lon="4.0732010"><ele></ele><time>2022-6-4T9:14:12Z</time></trkpt>
<trkpt lat="47.3263212" lon="4.0730581"><ele></ele><time>2022-6-4T9:14:15Z</time></trkpt>
<trkpt lat="47.3261547" lon="4.0729174"><ele></ele><time>2022-6-4T9:14:18Z</time></trkpt>
<trkpt lat="47.3259418" lon="4.0728445"><ele></ele><time>2022-6-4T9:14:21Z</time></trkpt>
<trkpt lat="47.3257639" lon="4.0726860"><ele></ele><time>2022-6-4T9:14:24Z</time></trkpt>
<trkpt lat="47.3255979" lon="4.0724403"><ele></ele><time>2022-6-4T9:14:27Z</time></trkpt>
<trkpt lat="47.3254395" lon="4.0722651"><ele></ele><time>2022-6-4T9:14:30Z</time></trkpt>
<trkpt lat="47.3252327" lon="4.0722155"><ele></ele><time>2022-6-4T9:14:33Z</time></trkpt>
<trkpt lat="47.3250545" lon="4.0721226"><ele></ele><time>2022-6-4T9:14:36Z</time></trkpt>
<trkpt lat="47.3248809" lon="4.0719779"><ele></ele><time>2022-6-4T9:14:39Z</time></trkpt>
<trkpt lat="47.3246758" lon="4.0718929"><ele></ele><time>2022-6-4T9:14:42Z</time></trkpt>
<trkpt lat="47.3244777" lon="4.0718510"><ele></ele><time>2022-6-4T9:14:45Z</time></trkpt>
<trkpt lat="47.3242820" lon="4.0718561"><ele></ele><time>2022-6-4T9:14:48Z</time></trkpt>
<trkpt lat="47.3240763" lon="4.0718056"><ele></ele><time>2022-6-4T9:14:51Z</time></trkpt>
<trkpt lat="47.3238435" lon="4.0716842"><ele></ele><time>2022-6-4T9:14:54Z</time></trkpt>
<trkpt lat="47.3236646" lon="4.0715858"><ele></ele><time>2022-6-4T9:14:57Z</time></trkpt>
<trkpt lat="47.3234679" lon="4.0715414"><ele></ele><time>2022-6-4T9:15:0Z</time></trkpt>
<trkpt lat="47.3232785" lon="4.0714255"><ele></ele><time>2022-6-4T9:15:3Z</time></trkpt>
<trkpt lat="47.3231103" lon="4.0713247"><ele></ele><time>2022-6-4T9:15:6Z</time></trkpt>
<trkpt lat="47.3229344" lon="4.0712194"><ele></ele><time>2022-6-4T9:15:9Z</time></trkpt>
<trkpt lat="47.3227659" lon="4.0711131"><ele></ele><time>2022-6-4T9:15:12Z</time></trkpt>
<trkpt lat="47.3225939" lon="4.0710200"><ele></ele><time>2022-6-4T9:15:15Z</time></trkpt>
<trkpt lat="47.3224315" lon="4.0708857"><ele></ele><time>2022-6-4T9:15:18Z</time></trkpt>
<trkpt lat="47.3222748" lon="4.0707270"><ele></ele><time>2022-6-4T9:15:21Z</time></trkpt>
<trkpt lat="47.3221003" lon="4.0705718"><ele></ele><time>2022-6-4T9:15:24Z</time></trkpt>
<trkpt lat="47.3219324" lon="4.0704111"><ele></ele><time>2022-6-4T9:15:27Z</time></trkpt>
<trkpt lat="47.3217594" lon="4.0702971"><ele></ele><time>2022-6-4T9:15:30Z</time></trkpt>
<trkpt lat="47.3215658" lon="4.0702058"><ele></ele><time>2022-6-4T9:15:33Z</time></trkpt>
<trkpt lat="47.3213963" lon="4.0701147"><ele></ele><time>2022-6-4T9:15:36Z</time></trkpt>
<trkpt lat="47.3212514" lon="4.0699497"><ele></ele><time>2022-6-4T9:15:39Z</time></trkpt>
<trkpt lat="47.3211079" lon="4.0697649"><ele></ele><time>2022-6-4T9:15:42Z</time></trkpt>
<trkpt lat="47.3209054" lon="4.0697061"><ele></ele><time>2022-6-4T9:15:45Z</time></trkpt>
<trkpt lat="47.3206952" lon="4.0696789"><ele></ele><time>2022-6-4T9:15:48Z</time></trkpt>
<trkpt lat="47.3204664" lon="4.0697169"><ele></ele><time>2022-6-4T9:15:51Z</time></trkpt>
<trkpt lat="47.3202897" lon="4.0698457"><ele></ele><time>2022-6-4T9:15:54Z</time></trkpt>
<trkpt lat="47.3201084" lon="4.0699930"><ele></ele><time>2022-6-4T9:15:57Z</time></trkpt>
<trkpt lat="47.3199408" lon="4.0701225"><ele></ele><time>2022-6-4T9:16:0Z</time></trkpt>
<trkpt lat="47.3198140" lon="4.0703182"><ele></ele><time>2022-6-4T9:16:3Z</time></trkpt>
<trkpt lat="47.3197246" lon="4.0705809"><ele></ele><time>2022-6-4T9:16:6Z</time></trkpt>
<trkpt lat="47.3196741" lon="4.0708553"><ele></ele><time>2022-6-4T9:16:9Z</time></trkpt>
<trkpt lat="47.3195299" lon="4.0711081"><ele></ele><time>2022-6-4T9:16:12Z</time></trkpt>
<trkpt lat="47.3193584" lon="4.0712867"><ele></ele><time>2022-6-4T9:16:15Z</time></trkpt>
<trkpt lat="47.3192045" lon="4.0714466"><ele></ele><time>2022-6-4T9:16:18Z</time></trkpt>
<trkpt lat="47.3190475" lon="4.0716066"><ele></ele><time>2022-6-4T9:16:21Z</time></trkpt>
<trkpt lat="47.3188615" lon="4.0717574"><ele></ele><time>2022-6-4T9:16:24Z</time></trkpt>
<trkpt lat="47.3186971" lon="4.0719202"><ele></ele><time>2022-6-4T9:16:27Z</time></trkpt>
<trkpt lat="47.3185323" lon="4.0720533"><ele></ele><time>2022-6-4T9:16:30Z</time></trkpt>
<trkpt lat="47.3184038" lon="4.0718397"><ele></ele><time>2022-6-4T9:16:33Z</time></trkpt>
<trkpt lat="47.3182676" lon="4.0716380"><ele></ele><time>2022-6-4T9:16:36Z</time></trkpt>
<trkpt lat="47.3181183" lon="4.0714669"><ele></ele><time>2022-6-4T9:16:39Z</time></trkpt>
<trkpt lat="47.3179461" lon="4.0713396"><ele></ele><time>2022-6-4T9:16:42Z</time></trkpt>
<trkpt lat="47.3177758" lon="4.0711957"><ele></ele><time>2022-6-4T9:16:45Z</time></trkpt>
<trkpt lat="47.3175290" lon="4.0710944"><ele></ele><time>2022-6-4T9:16:48Z</time></trkpt>
<trkpt lat="47.3173138" lon="4.0710603"><ele></ele><time>2022-6-4T9:16:51Z</time></trkpt>
<trkpt lat="47.3170107" lon="4.0710815"><ele></ele><time>2022-6-4T9:16:54Z</time></trkpt>
<trkpt lat="47.3168109" lon="4.0711290"><ele></ele><time>2022-6-4T9:16:57Z</time></trkpt>
<trkpt lat="47.3165558" lon="4.0711820"><ele></ele><time>2022-6-4T9:17:0Z</time></trkpt>
<trkpt lat="47.3163856" lon="4.0713003"><ele></ele><time>2022-6-4T9:17:3Z</time></trkpt>
<trkpt lat="47.3162288" lon="4.0714318"><ele></ele><time>2022-6-4T9:17:6Z</time></trkpt>
<trkpt lat="47.3160976" lon="4.0716407"><ele></ele><time>2022-6-4T9:17:9Z</time></trkpt>
<trkpt lat="47.3159282" lon="4.0718101"><ele></ele><time>2022-6-4T9:17:12Z</time></trkpt>
<trkpt lat="47.3157380" lon="4.0717777"><ele></ele><time>2022-6-4T9:17:15Z</time></trkpt>
<trkpt lat="47.3156408" lon="4.0715367"><ele></ele><time>2022-6-4T9:17:18Z</time></trkpt>
<trkpt lat="47.3156014" lon="4.0712774"><ele></ele><time>2022-6-4T9:17:21Z</time></trkpt>
<trkpt lat="47.3155183" lon="4.0710084"><ele></ele><time>2022-6-4T9:17:24Z</time></trkpt>
<trkpt lat="47.3153647" lon="4.0708341"><ele></ele><time>2022-6-4T9:17:27Z</time></trkpt>
<trkpt lat="47.3151680" lon="4.0707877"><ele></ele><time>2022-6-4T9:17:30Z</time></trkpt>
<trkpt lat="47.3149749" lon="4.0707476"><ele></ele><time>2022-6-4T9:17:33Z</time></trkpt>
<trkpt lat="47.3147905" lon="4.0706995"><ele></ele><time>2022-6-4T9:17:36Z</time></trkpt>
<trkpt lat="47.3146045" lon="4.0706318"><ele></ele><time>2022-6-4T9:17:39Z</time></trkpt>
<trkpt lat="47.3144498" lon="4.0704851"><ele></ele><time>2022-6-4T9:17:42Z</time></trkpt>
<trkpt lat="47.3143071" lon="4.0703162"><ele></ele><time>2022-6-4T9:17:45Z</time></trkpt>
<trkpt lat="47.3141490" lon="4.0701681"><ele></ele><time>2022-6-4T9:17:48Z</time></trkpt>
<trkpt lat="47.3139782" lon="4.0700067"><ele></ele><time>2022-6-4T9:17:51Z</time></trkpt>
<trkpt lat="47.3138460" lon="4.0697915"><ele></ele><time>2022-6-4T9:17:54Z</time></trkpt>
<trkpt lat="47.3137255" lon="4.0695660"><ele></ele><time>2022-6-4T9:17:57Z</time></trkpt>
<trkpt lat="47.3136156" lon="4.0693297"><ele></ele><time>2022-6-4T9:18:0Z</time></trkpt>
<trkpt lat="47.3134751" lon="4.0691464"><ele></ele><time>2022-6-4T9:18:3Z</time></trkpt>
<trkpt lat="47.3133194" lon="4.0689884"><ele></ele><time>2022-6-4T9:18:6Z</time></trkpt>
<trkpt lat="47.3131664" lon="4.0688246"><ele></ele><time>2022-6-4T9:18:9Z</time></trkpt>
<trkpt lat="47.3130145" lon="4.0686685"><ele></ele><time>2022-6-4T9:18:12Z</time></trkpt>
<trkpt lat="47.3128548" lon="4.0684885"><ele></ele><time>2022-6-4T9:18:15Z</time></trkpt>
<trkpt lat="47.3127131" lon="4.0682674"><ele></ele><time>2022-6-4T9:18:18Z</time></trkpt>
<trkpt lat="47.3126063" lon="4.0680284"><ele></ele><time>2022-6-4T9:18:21Z</time></trkpt>
<trkpt lat="47.3124674" lon="4.0678206"><ele></ele><time>2022-6-4T9:18:24Z</time></trkpt>
<trkpt lat="47.3123160" lon="4.0676228"><ele></ele><time>2022-6-4T9:18:27Z</time></trkpt>
<trkpt lat="47.3121977" lon="4.0674013"><ele></ele><time>2022-6-4T9:18:30Z</time></trkpt>
<trkpt lat="47.3121041" lon="4.0671438"><ele></ele><time>2022-6-4T9:18:33Z</time></trkpt>
<trkpt lat="47.3121046" lon="4.0668391"><ele></ele><time>2022-6-4T9:18:36Z</time></trkpt>
<trkpt lat="47.3120547" lon="4.0665593"><ele></ele><time>2022-6-4T9:18:39Z</time></trkpt>
<trkpt lat="47.3120367" lon="4.0662669"><ele></ele><time>2022-6-4T9:18:42Z</time></trkpt>
<trkpt lat="47.3119699" lon="4.0660033"><ele></ele><time>2022-6-4T9:18:45Z</time></trkpt>
<trkpt lat="47.3118463" lon="4.0658029"><ele></ele><time>2022-6-4T9:18:48Z</time></trkpt>
<trkpt lat="47.3117091" lon="4.0656164"><ele></ele><time>2022-6-4T9:18:51Z</time></trkpt>
<trkpt lat="47.3115214" lon="4.0654933"><ele></ele><time>2022-6-4T9:18:54Z</time></trkpt>
<trkpt lat="47.3113418" lon="4.0654352"><ele></ele><time>2022-6-4T9:18:57Z</time></trkpt>
<trkpt lat="47.3111823" lon="4.0653087"><ele></ele><time>2022-6-4T9:19:0Z</time></trkpt>
<trkpt lat="47.3110118" lon="4.0651388"><ele></ele><time>2022-6-4T9:19:3Z</time></trkpt>
<trkpt lat="47.3108665" lon="4.0649721"><ele></ele><time>2022-6-4T9:19:6Z</time></trkpt>
<trkpt lat="47.3107091" lon="4.0648145"><ele></ele><time>2022-6-4T9:19:9Z</time></trkpt>
<trkpt lat="47.3105361" lon="4.0646857"><ele></ele><time>2022-6-4T9:19:12Z</time></trkpt>
<trkpt lat="47.3104219" lon="4.0644490"><ele></ele><time>2022-6-4T9:19:15Z</time></trkpt>
<trkpt lat="47.3103510" lon="4.0641939"><ele></ele><time>2022-6-4T9:19:18Z</time></trkpt>
<trkpt lat="47.3102549" lon="4.0639114"><ele></ele><time>2022-6-4T9:19:21Z</time></trkpt>
<trkpt lat="47.3101391" lon="4.0636996"><ele></ele><time>2022-6-4T9:19:24Z</time></trkpt>
<trkpt lat="47.3100235" lon="4.0634582"><ele></ele><time>2022-6-4T9:19:27Z</time></trkpt>
<trkpt lat="47.3099173" lon="4.0632053"><ele></ele><time>2022-6-4T9:19:30Z</time></trkpt>
<trkpt lat="47.3098401" lon="4.0629547"><ele></ele><time>2022-6-4T9:19:33Z</time></trkpt>
<trkpt lat="47.3097529" lon="4.0627222"><ele></ele><time>2022-6-4T9:19:36Z</time></trkpt>
<trkpt lat="47.3096270" lon="4.0625259"><ele></ele><time>2022-6-4T9:19:39Z</time></trkpt>
<trkpt lat="47.3095774" lon="4.0622675"><ele></ele><time>2022-6-4T9:19:42Z</time></trkpt>
<trkpt lat="47.3094832" lon="4.0620263"><ele></ele><time>2022-6-4T9:19:45Z</time></trkpt>
<trkpt lat="47.3094062" lon="4.0617471"><ele></ele><time>2022-6-4T9:19:48Z</time></trkpt>
<trkpt lat="47.3092892" lon="4.0614920"><ele></ele><time>2022-6-4T9:19:51Z</time></trkpt>
<trkpt lat="47.3091582" lon="4.0612732"><ele></ele><time>2022-6-4T9:19:54Z</time></trkpt>
<trkpt lat="47.3090011" lon="4.0611108"><ele></ele><time>2022-6-4T9:19:57Z</time></trkpt>
<trkpt lat="47.3088425" lon="4.0609242"><ele></ele><time>2022-6-4T9:20:0Z</time></trkpt>
<trkpt lat="47.3086779" lon="4.0607734"><ele></ele><time>2022-6-4T9:20:3Z</time></trkpt>
<trkpt lat="47.3084938" lon="4.0606122"><ele></ele><time>2022-6-4T9:20:6Z</time></trkpt>
<trkpt lat="47.3083024" lon="4.0605085"><ele></ele><time>2022-6-4T9:20:9Z</time></trkpt>
<trkpt lat="47.3081593" lon="4.0603227"><ele></ele><time>2022-6-4T9:20:12Z</time></trkpt>
<trkpt lat="47.3080007" lon="4.0601518"><ele></ele><time>2022-6-4T9:20:15Z</time></trkpt>
<trkpt lat="47.3078275" lon="4.0600365"><ele></ele><time>2022-6-4T9:20:18Z</time></trkpt>
<trkpt lat="47.3076658" lon="4.0597473"><ele></ele><time>2022-6-4T9:20:21Z</time></trkpt>
<trkpt lat="47.3075566" lon="4.0595018"><ele></ele><time>2022-6-4T9:20:24Z</time></trkpt>
<trkpt lat="47.3074622" lon="4.0592623"><ele></ele><time>2022-6-4T9:20:27Z</time></trkpt>
<trkpt lat="47.3073187" lon="4.0590032"><ele></ele><time>2022-6-4T9:20:30Z</time></trkpt>
<trkpt lat="47.3071823" lon="4.0587941"><ele></ele><time>2022-6-4T9:20:33Z</time></trkpt>
<trkpt lat="47.3070663" lon="4.0585599"><ele></ele><time>2022-6-4T9:20:36Z</time></trkpt>
<trkpt lat="47.3069221" lon="4.0582985"><ele></ele><time>2022-6-4T9:20:39Z</time></trkpt>
<trkpt lat="47.3067834" lon="4.0580728"><ele></ele><time>2022-6-4T9:20:42Z</time></trkpt>
<trkpt lat="47.3066464" lon="4.0578411"><ele></ele><time>2022-6-4T9:20:45Z</time></trkpt>
<trkpt lat="47.3064635" lon="4.0576361"><ele></ele><time>2022-6-4T9:20:48Z</time></trkpt>
<trkpt lat="47.3063385" lon="4.0574420"><ele></ele><time>2022-6-4T9:20:51Z</time></trkpt>
<trkpt lat="47.3061926" lon="4.0572117"><ele></ele><time>2022-6-4T9:20:54Z</time></trkpt>
<trkpt lat="47.3061019" lon="4.0569589"><ele></ele><time>2022-6-4T9:20:57Z</time></trkpt>
<trkpt lat="47.3060194" lon="4.0567052"><ele></ele><time>2022-6-4T9:21:0Z</time></trkpt>
<trkpt lat="47.3060228" lon="4.0564136"><ele></ele><time>2022-6-4T9:21:3Z</time></trkpt>
<trkpt lat="47.3059751" lon="4.0561317"><ele></ele><time>2022-6-4T9:21:6Z</time></trkpt>
<trkpt lat="47.3058724" lon="4.0558973"><ele></ele><time>2022-6-4T9:21:9Z</time></trkpt>
<trkpt lat="47.3057667" lon="4.0556599"><ele></ele><time>2022-6-4T9:21:12Z</time></trkpt>
<trkpt lat="47.3057205" lon="4.0553573"><ele></ele><time>2022-6-4T9:21:15Z</time></trkpt>
<trkpt lat="47.3056452" lon="4.0550752"><ele></ele><time>2022-6-4T9:21:18Z</time></trkpt>
<trkpt lat="47.3055685" lon="4.0548057"><ele></ele><time>2022-6-4T9:21:21Z</time></trkpt>
<trkpt lat="47.3054257" lon="4.0546210"><ele></ele><time>2022-6-4T9:21:24Z</time></trkpt>
<trkpt lat="47.3052294" lon="4.0544176"><ele></ele><time>2022-6-4T9:21:27Z</time></trkpt>
<trkpt lat="47.3050727" lon="4.0542170"><ele></ele><time>2022-6-4T9:21:30Z</time></trkpt>
<trkpt lat="47.3049863" lon="4.0539258"><ele></ele><time>2022-6-4T9:21:33Z</time></trkpt>
<trkpt lat="47.3049279" lon="4.0536183"><ele></ele><time>2022-6-4T9:21:36Z</time></trkpt>
<trkpt lat="47.3049416" lon="4.0533437"><ele></ele><time>2022-6-4T9:21:39Z</time></trkpt>
<trkpt lat="47.3050157" lon="4.0530900"><ele></ele><time>2022-6-4T9:21:42Z</time></trkpt>
<trkpt lat="47.3048494" lon="4.0528938"><ele></ele><time>2022-6-4T9:21:45Z</time></trkpt>
<trkpt lat="47.3047251" lon="4.0526375"><ele></ele><time>2022-6-4T9:21:48Z</time></trkpt>
<trkpt lat="47.3046260" lon="4.0523933"><ele></ele><time>2022-6-4T9:21:51Z</time></trkpt>
<trkpt lat="47.3045112" lon="4.0521384"><ele></ele><time>2022-6-4T9:21:54Z</time></trkpt>
<trkpt lat="47.3043728" lon="4.0519396"><ele></ele><time>2022-6-4T9:21:57Z</time></trkpt>
<trkpt lat="47.3042458" lon="4.0517405"><ele></ele><time>2022-6-4T9:22:0Z</time></trkpt>
<trkpt lat="47.3041722" lon="4.0514879"><ele></ele><time>2022-6-4T9:22:3Z</time></trkpt>
<trkpt lat="47.3040114" lon="4.0512993"><ele></ele><time>2022-6-4T9:22:6Z</time></trkpt>
<trkpt lat="47.3038254" lon="4.0511957"><ele></ele><time>2022-6-4T9:22:9Z</time></trkpt>
<trkpt lat="47.3036418" lon="4.0511636"><ele></ele><time>2022-6-4T9:22:12Z</time></trkpt>
<trkpt lat="47.3034407" lon="4.0510827"><ele></ele><time>2022-6-4T9:22:15Z</time></trkpt>
<trkpt lat="47.3032681" lon="4.0509583"><ele></ele><time>2022-6-4T9:22:18Z</time></trkpt>
<trkpt lat="47.3030834" lon="4.0507815"><ele></ele><time>2022-6-4T9:22:21Z</time></trkpt>
<trkpt lat="47.3029095" lon="4.0506348"><ele></ele><time>2022-6-4T9:22:24Z</time></trkpt>
<trkpt lat="47.3027366" lon="4.0505270"><ele></ele><time>2022-6-4T9:22:27Z</time></trkpt>
<trkpt lat="47.3025474" lon="4.0504032"><ele></ele><time>2022-6-4T9:22:30Z</time></trkpt>
<trkpt lat="47.3023374" lon="4.0504422"><ele></ele><time>2022-6-4T9:22:33Z</time></trkpt>
<trkpt lat="47.3021119" lon="4.0504482"><ele></ele><time>2022-6-4T9:22:36Z</time></trkpt>
<trkpt lat="47.3018923" lon="4.0503511"><ele></ele><time>2022-6-4T9:22:39Z</time></trkpt>
<trkpt lat="47.3016790" lon="4.0502386"><ele></ele><time>2022-6-4T9:22:42Z</time></trkpt>
<trkpt lat="47.3014876" lon="4.0501375"><ele></ele><time>2022-6-4T9:22:45Z</time></trkpt>
<trkpt lat="47.3013141" lon="4.0500378"><ele></ele><time>2022-6-4T9:22:48Z</time></trkpt>
<trkpt lat="47.3011689" lon="4.0498768"><ele></ele><time>2022-6-4T9:22:51Z</time></trkpt>
<trkpt lat="47.3010168" lon="4.0497278"><ele></ele><time>2022-6-4T9:22:54Z</time></trkpt>
<trkpt lat="47.3008399" lon="4.0496369"><ele></ele><time>2022-6-4T9:22:57Z</time></trkpt>
<trkpt lat="47.3006287" lon="4.0496567"><ele></ele><time>2022-6-4T9:23:0Z</time></trkpt>
<trkpt lat="47.3003920" lon="4.0496460"><ele></ele><time>2022-6-4T9:23:3Z</time></trkpt>
<trkpt lat="47.3001682" lon="4.0497451"><ele></ele><time>2022-6-4T9:23:6Z</time></trkpt>
<trkpt lat="47.2999853" lon="4.0498196"><ele></ele><time>2022-6-4T9:23:9Z</time></trkpt>
<trkpt lat="47.2998047" lon="4.0498911"><ele></ele><time>2022-6-4T9:23:12Z</time></trkpt>
<trkpt lat="47.2996157" lon="4.0499593"><ele></ele><time>2022-6-4T9:23:15Z</time></trkpt>
<trkpt lat="47.2994463" lon="4.0500607"><ele></ele><time>2022-6-4T9:23:18Z</time></trkpt>
<trkpt lat="47.2992570" lon="4.0501362"><ele></ele><time>2022-6-4T9:23:21Z</time></trkpt>
<trkpt lat="47.2990376" lon="4.0502240"><ele></ele><time>2022-6-4T9:23:24Z</time></trkpt>
<trkpt lat="47.2987927" lon="4.0503032"><ele></ele><time>2022-6-4T9:23:27Z</time></trkpt>
<trkpt lat="47.2985181" lon="4.0503039"><ele></ele><time>2022-6-4T9:23:30Z</time></trkpt>
<trkpt lat="47.2983277" lon="4.0503230"><ele></ele><time>2022-6-4T9:23:33Z</time></trkpt>
<trkpt lat="47.2981167" lon="4.0503652"><ele></ele><time>2022-6-4T9:23:36Z</time></trkpt>
<trkpt lat="47.2979113" lon="4.0504323"><ele></ele><time>2022-6-4T9:23:39Z</time></trkpt>
<trkpt lat="47.2977016" lon="4.0504786"><ele></ele><time>2022-6-4T9:23:42Z</time></trkpt>
<trkpt lat="47.2974787" lon="4.0504916"><ele></ele><time>2022-6-4T9:23:45Z</time></trkpt>
<trkpt lat="47.2972658" lon="4.0504824"><ele></ele><time>2022-6-4T9:23:48Z</time></trkpt>
<trkpt lat="47.2970495" lon="4.0504552"><ele></ele><time>2022-6-4T9:23:51Z</time></trkpt>
<trkpt lat="47.2968283" lon="4.0504531"><ele></ele><time>2022-6-4T9:23:54Z</time></trkpt>
<trkpt lat="47.2966158" lon="4.0504335"><ele></ele><time>2022-6-4T9:23:57Z</time></trkpt>
<trkpt lat="47.2964107" lon="4.0504335"><ele></ele><time>2022-6-4T9:24:0Z</time></trkpt>
<trkpt lat="47.2961701" lon="4.0504366"><ele></ele><time>2022-6-4T9:24:3Z</time></trkpt>
<trkpt lat="47.2959890" lon="4.0505082"><ele></ele><time>2022-6-4T9:24:6Z</time></trkpt>
<trkpt lat="47.2961555" lon="4.0503385"><ele></ele><time>2022-6-4T9:24:9Z</time></trkpt>
<trkpt lat="47.2962369" lon="4.0500961"><ele></ele><time>2022-6-4T9:24:12Z</time></trkpt>
<trkpt lat="47.2963297" lon="4.0498227"><ele></ele><time>2022-6-4T9:24:15Z</time></trkpt>
<trkpt lat="47.2964030" lon="4.0495632"><ele></ele><time>2022-6-4T9:24:18Z</time></trkpt>
<trkpt lat="47.2964760" lon="4.0492741"><ele></ele><time>2022-6-4T9:24:21Z</time></trkpt>
<trkpt lat="47.2965099" lon="4.0489490"><ele></ele><time>2022-6-4T9:24:24Z</time></trkpt>
<trkpt lat="47.2965220" lon="4.0486293"><ele></ele><time>2022-6-4T9:24:27Z</time></trkpt>
<trkpt lat="47.2964519" lon="4.0483681"><ele></ele><time>2022-6-4T9:24:30Z</time></trkpt>
<trkpt lat="47.2964207" lon="4.0480470"><ele></ele><time>2022-6-4T9:24:33Z</time></trkpt>
<trkpt lat="47.2962591" lon="4.0478450"><ele></ele><time>2022-6-4T9:24:36Z</time></trkpt>
<trkpt lat="47.2961067" lon="4.0477029"><ele></ele><time>2022-6-4T9:24:39Z</time></trkpt>
<trkpt lat="47.2959071" lon="4.0475474"><ele></ele><time>2022-6-4T9:24:42Z</time></trkpt>
<trkpt lat="47.2957124" lon="4.0473902"><ele></ele><time>2022-6-4T9:24:45Z</time></trkpt>
<trkpt lat="47.2955735" lon="4.0471920"><ele></ele><time>2022-6-4T9:24:48Z</time></trkpt>
<trkpt lat="47.2954012" lon="4.0471032"><ele></ele><time>2022-6-4T9:24:51Z</time></trkpt>
<trkpt lat="47.2952228" lon="4.0469832"><ele></ele><time>2022-6-4T9:24:54Z</time></trkpt>
<trkpt lat="47.2950090" lon="4.0468529"><ele></ele><time>2022-6-4T9:24:57Z</time></trkpt>
<trkpt lat="47.2948543" lon="4.0466310"><ele></ele><time>2022-6-4T9:25:0Z</time></trkpt>
<trkpt lat="47.2947390" lon="4.0464191"><ele></ele><time>2022-6-4T9:25:3Z</time></trkpt>
<trkpt lat="47.2947151" lon="4.0461512"><ele></ele><time>2022-6-4T9:25:6Z</time></trkpt>
<trkpt lat="47.2946121" lon="4.0459037"><ele></ele><time>2022-6-4T9:25:9Z</time></trkpt>
<trkpt lat="47.2946206" lon="4.0455980"><ele></ele><time>2022-6-4T9:25:12Z</time></trkpt>
<trkpt lat="47.2947446" lon="4.0453998"><ele></ele><time>2022-6-4T9:25:15Z</time></trkpt>
<trkpt lat="47.2947000" lon="4.0451072"><ele></ele><time>2022-6-4T9:25:18Z</time></trkpt>
<trkpt lat="47.2948286" lon="4.0448624"><ele></ele><time>2022-6-4T9:25:21Z</time></trkpt>
<trkpt lat="47.2949148" lon="4.0446195"><ele></ele><time>2022-6-4T9:25:24Z</time></trkpt>
<trkpt lat="47.2950205" lon="4.0443997"><ele></ele><time>2022-6-4T9:25:27Z</time></trkpt>
<trkpt lat="47.2950640" lon="4.0441256"><ele></ele><time>2022-6-4T9:25:30Z</time></trkpt>
<trkpt lat="47.2950401" lon="4.0438475"><ele></ele><time>2022-6-4T9:25:33Z</time></trkpt>
<trkpt lat="47.2950831" lon="4.0435621"><ele></ele><time>2022-6-4T9:25:36Z</time></trkpt>
<trkpt lat="47.2952108" lon="4.0433428"><ele></ele><time>2022-6-4T9:25:39Z</time></trkpt>
<trkpt lat="47.2951919" lon="4.0430705"><ele></ele><time>2022-6-4T9:25:42Z</time></trkpt>
<trkpt lat="47.2950963" lon="4.0428273"><ele></ele><time>2022-6-4T9:25:45Z</time></trkpt>
<trkpt lat="47.2951354" lon="4.0425146"><ele></ele><time>2022-6-4T9:25:48Z</time></trkpt>
<trkpt lat="47.2951100" lon="4.0421559"><ele></ele><time>2022-6-4T9:25:51Z</time></trkpt>
<trkpt lat="47.2950425" lon="4.0418766"><ele></ele><time>2022-6-4T9:25:54Z</time></trkpt>
<trkpt lat="47.2950871" lon="4.0415955"><ele></ele><time>2022-6-4T9:25:57Z</time></trkpt>
<trkpt lat="47.2951527" lon="4.0412593"><ele></ele><time>2022-6-4T9:26:0Z</time></trkpt>
<trkpt lat="47.2952627" lon="4.0409839"><ele></ele><time>2022-6-4T9:26:3Z</time></trkpt>
<trkpt lat="47.2953195" lon="4.0407071"><ele></ele><time>2022-6-4T9:26:6Z</time></trkpt>
<trkpt lat="47.2953618" lon="4.0404112"><ele></ele><time>2022-6-4T9:26:9Z</time></trkpt>
<trkpt lat="47.2954196" lon="4.0400697"><ele></ele><time>2022-6-4T9:26:12Z</time></trkpt>
<trkpt lat="47.2954812" lon="4.0397723"><ele></ele><time>2022-6-4T9:26:15Z</time></trkpt>
<trkpt lat="47.2954486" lon="4.0394683"><ele></ele><time>2022-6-4T9:26:18Z</time></trkpt>
<trkpt lat="47.2953875" lon="4.0392004"><ele></ele><time>2022-6-4T9:26:21Z</time></trkpt>
<trkpt lat="47.2952473" lon="4.0389738"><ele></ele><time>2022-6-4T9:26:24Z</time></trkpt>
<trkpt lat="47.2950857" lon="4.0387736"><ele></ele><time>2022-6-4T9:26:27Z</time></trkpt>
<trkpt lat="47.2949215" lon="4.0386600"><ele></ele><time>2022-6-4T9:26:30Z</time></trkpt>
<trkpt lat="47.2947581" lon="4.0385422"><ele></ele><time>2022-6-4T9:26:33Z</time></trkpt>
<trkpt lat="47.2946692" lon="4.0382907"><ele></ele><time>2022-6-4T9:26:36Z</time></trkpt>
<trkpt lat="47.2945900" lon="4.0380027"><ele></ele><time>2022-6-4T9:26:39Z</time></trkpt>
<trkpt lat="47.2945581" lon="4.0377365"><ele></ele><time>2022-6-4T9:26:42Z</time></trkpt>
<trkpt lat="47.2945898" lon="4.0374408"><ele></ele><time>2022-6-4T9:26:45Z</time></trkpt>
<trkpt lat="47.2947193" lon="4.0372239"><ele></ele><time>2022-6-4T9:26:48Z</time></trkpt>
<trkpt lat="47.2948882" lon="4.0370508"><ele></ele><time>2022-6-4T9:26:51Z</time></trkpt>
<trkpt lat="47.2950294" lon="4.0368396"><ele></ele><time>2022-6-4T9:26:54Z</time></trkpt>
<trkpt lat="47.2951811" lon="4.0366641"><ele></ele><time>2022-6-4T9:26:57Z</time></trkpt>
<trkpt lat="47.2953015" lon="4.0364615"><ele></ele><time>2022-6-4T9:27:0Z</time></trkpt>
<trkpt lat="47.2954844" lon="4.0362907"><ele></ele><time>2022-6-4T9:27:3Z</time></trkpt>
<trkpt lat="47.2956471" lon="4.0361490"><ele></ele><time>2022-6-4T9:27:6Z</time></trkpt>
<trkpt lat="47.2958278" lon="4.0359337"><ele></ele><time>2022-6-4T9:27:9Z</time></trkpt>
<trkpt lat="47.2959890" lon="4.0358043"><ele></ele><time>2022-6-4T9:27:12Z</time></trkpt>
<trkpt lat="47.2960699" lon="4.0355618"><ele></ele><time>2022-6-4T9:27:15Z</time></trkpt>
<trkpt lat="47.2961304" lon="4.0352389"><ele></ele><time>2022-6-4T9:27:18Z</time></trkpt>
<trkpt lat="47.2962137" lon="4.0349660"><ele></ele><time>2022-6-4T9:27:21Z</time></trkpt>
<trkpt lat="47.2962389" lon="4.0346608"><ele></ele><time>2022-6-4T9:27:24Z</time></trkpt>
<trkpt lat="47.2962019" lon="4.0343695"><ele></ele><time>2022-6-4T9:27:27Z</time></trkpt>
<trkpt lat="47.2962187" lon="4.0340985"><ele></ele><time>2022-6-4T9:27:30Z</time></trkpt>
<trkpt lat="47.2961534" lon="4.0338058"><ele></ele><time>2022-6-4T9:27:33Z</time></trkpt>
<trkpt lat="47.2960421" lon="4.0335173"><ele></ele><time>2022-6-4T9:27:36Z</time></trkpt>
<trkpt lat="47.2959529" lon="4.0332626"><ele></ele><time>2022-6-4T9:27:39Z</time></trkpt>
<trkpt lat="47.2958246" lon="4.0330276"><ele></ele><time>2022-6-4T9:27:42Z</time></trkpt>
<trkpt lat="47.2956854" lon="4.0328292"><ele></ele><time>2022-6-4T9:27:45Z</time></trkpt>
<trkpt lat="47.2956332" lon="4.0325499"><ele></ele><time>2022-6-4T9:27:48Z</time></trkpt>
<trkpt lat="47.2956025" lon="4.0322627"><ele></ele><time>2022-6-4T9:27:51Z</time></trkpt>
<trkpt lat="47.2956206" lon="4.0319548"><ele></ele><time>2022-6-4T9:27:54Z</time></trkpt>
<trkpt lat="47.2957652" lon="4.0317510"><ele></ele><time>2022-6-4T9:27:57Z</time></trkpt>
<trkpt lat="47.2959169" lon="4.0315932"><ele></ele><time>2022-6-4T9:28:0Z</time></trkpt>
<trkpt lat="47.2960809" lon="4.0314123"><ele></ele><time>2022-6-4T9:28:3Z</time></trkpt>
<trkpt lat="47.2962699" lon="4.0312875"><ele></ele><time>2022-6-4T9:28:6Z</time></trkpt>
<trkpt lat="47.2964628" lon="4.0311922"><ele></ele><time>2022-6-4T9:28:9Z</time></trkpt>
<trkpt lat="47.2962843" lon="4.0310125"><ele></ele><time>2022-6-4T9:28:12Z</time></trkpt>
<trkpt lat="47.2960703" lon="4.0309997"><ele></ele><time>2022-6-4T9:28:15Z</time></trkpt>
<trkpt lat="47.2958391" lon="4.0310594"><ele></ele><time>2022-6-4T9:28:18Z</time></trkpt>
<trkpt lat="47.2956390" lon="4.0311472"><ele></ele><time>2022-6-4T9:28:21Z</time></trkpt>
<trkpt lat="47.2954433" lon="4.0312798"><ele></ele><time>2022-6-4T9:28:24Z</time></trkpt>
<trkpt lat="47.2952904" lon="4.0315008"><ele></ele><time>2022-6-4T9:28:27Z</time></trkpt>
<trkpt lat="47.2951510" lon="4.0317852"><ele></ele><time>2022-6-4T9:28:30Z</time></trkpt>
<trkpt lat="47.2950312" lon="4.0321204"><ele></ele><time>2022-6-4T9:28:33Z</time></trkpt>
<trkpt lat="47.2949288" lon="4.0324300"><ele></ele><time>2022-6-4T9:28:36Z</time></trkpt>
<trkpt lat="47.2947841" lon="4.0326367"><ele></ele><time>2022-6-4T9:28:39Z</time></trkpt>
<trkpt lat="47.2946020" lon="4.0326240"><ele></ele><time>2022-6-4T9:28:42Z</time></trkpt>
<trkpt lat="47.2945061" lon="4.0323850"><ele></ele><time>2022-6-4T9:28:45Z</time></trkpt>
<trkpt lat="47.2944397" lon="4.0321272"><ele></ele><time>2022-6-4T9:28:48Z</time></trkpt>
<trkpt lat="47.2943655" lon="4.0318391"><ele></ele><time>2022-6-4T9:28:51Z</time></trkpt>
<trkpt lat="47.2942674" lon="4.0315850"><ele></ele><time>2022-6-4T9:28:54Z</time></trkpt>
<trkpt lat="47.2941921" lon="4.0313042"><ele></ele><time>2022-6-4T9:28:57Z</time></trkpt>
<trkpt lat="47.2941115" lon="4.0310547"><ele></ele><time>2022-6-4T9:29:0Z</time></trkpt>
<trkpt lat="47.2940482" lon="4.0307736"><ele></ele><time>2022-6-4T9:29:3Z</time></trkpt>
<trkpt lat="47.2940435" lon="4.0304776"><ele></ele><time>2022-6-4T9:29:6Z</time></trkpt>
<trkpt lat="47.2940178" lon="4.0301645"><ele></ele><time>2022-6-4T9:29:9Z</time></trkpt>
<trkpt lat="47.2940246" lon="4.0298761"><ele></ele><time>2022-6-4T9:29:12Z</time></trkpt>
<trkpt lat="47.2939811" lon="4.0296171"><ele></ele><time>2022-6-4T9:29:15Z</time></trkpt>
<trkpt lat="47.2940419" lon="4.0293034"><ele></ele><time>2022-6-4T9:29:18Z</time></trkpt>
<trkpt lat="47.2941362" lon="4.0290644"><ele></ele><time>2022-6-4T9:29:21Z</time></trkpt>
<trkpt lat="47.2942656" lon="4.0287892"><ele></ele><time>2022-6-4T9:29:24Z</time></trkpt>
<trkpt lat="47.2944456" lon="4.0286350"><ele></ele><time>2022-6-4T9:29:27Z</time></trkpt>
<trkpt lat="47.2946012" lon="4.0284544"><ele></ele><time>2022-6-4T9:29:30Z</time></trkpt>
<trkpt lat="47.2947218" lon="4.0282093"><ele></ele><time>2022-6-4T9:29:33Z</time></trkpt>
<trkpt lat="47.2949006" lon="4.0280654"><ele></ele><time>2022-6-4T9:29:36Z</time></trkpt>
<trkpt lat="47.2950116" lon="4.0278098"><ele></ele><time>2022-6-4T9:29:39Z</time></trkpt>
<trkpt lat="47.2951008" lon="4.0275548"><ele></ele><time>2022-6-4T9:29:42Z</time></trkpt>
<trkpt lat="47.2952107" lon="4.0273038"><ele></ele><time>2022-6-4T9:29:45Z</time></trkpt>
<trkpt lat="47.2953003" lon="4.0270418"><ele></ele><time>2022-6-4T9:29:48Z</time></trkpt>
<trkpt lat="47.2953500" lon="4.0267736"><ele></ele><time>2022-6-4T9:29:51Z</time></trkpt>
<trkpt lat="47.2953550" lon="4.0264705"><ele></ele><time>2022-6-4T9:29:54Z</time></trkpt>
<trkpt lat="47.2953119" lon="4.0261846"><ele></ele><time>2022-6-4T9:29:57Z</time></trkpt>
<trkpt lat="47.2952413" lon="4.0259285"><ele></ele><time>2022-6-4T9:30:0Z</time></trkpt>
<trkpt lat="47.2950929" lon="4.0257159"><ele></ele><time>2022-6-4T9:30:3Z</time></trkpt>
<trkpt lat="47.2949520" lon="4.0255197"><ele></ele><time>2022-6-4T9:30:6Z</time></trkpt>
<trkpt lat="47.2947984" lon="4.0253473"><ele></ele><time>2022-6-4T9:30:9Z</time></trkpt>
<trkpt lat="47.2946876" lon="4.0251200"><ele></ele><time>2022-6-4T9:30:12Z</time></trkpt>
<trkpt lat="47.2945685" lon="4.0249024"><ele></ele><time>2022-6-4T9:30:15Z</time></trkpt>
<trkpt lat="47.2944408" lon="4.0246860"><ele></ele><time>2022-6-4T9:30:18Z</time></trkpt>
<trkpt lat="47.2942798" lon="4.0245311"><ele></ele><time>2022-6-4T9:30:21Z</time></trkpt>
<trkpt lat="47.2941423" lon="4.0243473"><ele></ele><time>2022-6-4T9:30:24Z</time></trkpt>
<trkpt lat="47.2940086" lon="4.0241349"><ele></ele><time>2022-6-4T9:30:27Z</time></trkpt>
<trkpt lat="47.2939470" lon="4.0238712"><ele></ele><time>2022-6-4T9:30:30Z</time></trkpt>
<trkpt lat="47.2938513" lon="4.0236046"><ele></ele><time>2022-6-4T9:30:33Z</time></trkpt>
<trkpt lat="47.2937769" lon="4.0233297"><ele></ele><time>2022-6-4T9:30:36Z</time></trkpt>
<trkpt lat="47.2937273" lon="4.0230730"><ele></ele><time>2022-6-4T9:30:39Z</time></trkpt>
<trkpt lat="47.2936384" lon="4.0228259"><ele></ele><time>2022-6-4T9:30:42Z</time></trkpt>
<trkpt lat="47.2935154" lon="4.0225897"><ele></ele><time>2022-6-4T9:30:45Z</time></trkpt>
<trkpt lat="47.2933785" lon="4.0224132"><ele></ele><time>2022-6-4T9:30:48Z</time></trkpt>
<trkpt lat="47.2931818" lon="4.0223393"><ele></ele><time>2022-6-4T9:30:51Z</time></trkpt>
<trkpt lat="47.2929985" lon="4.0222564"><ele></ele><time>2022-6-4T9:30:54Z</time></trkpt>
<trkpt lat="47.2929098" lon="4.0220116"><ele></ele><time>2022-6-4T9:30:57Z</time></trkpt>
<trkpt lat="47.2927826" lon="4.0217942"><ele></ele><time>2022-6-4T9:31:0Z</time></trkpt>
<trkpt lat="47.2926318" lon="4.0220018"><ele></ele><time>2022-6-4T9:31:3Z</time></trkpt>
<trkpt lat="47.2924950" lon="4.0221994"><ele></ele><time>2022-6-4T9:31:6Z</time></trkpt>
<trkpt lat="47.2923516" lon="4.0223937"><ele></ele><time>2022-6-4T9:31:9Z</time></trkpt>
<trkpt lat="47.2921900" lon="4.0225170"><ele></ele><time>2022-6-4T9:31:12Z</time></trkpt>
<trkpt lat="47.2920034" lon="4.0225618"><ele></ele><time>2022-6-4T9:31:15Z</time></trkpt>
<trkpt lat="47.2918004" lon="4.0226340"><ele></ele><time>2022-6-4T9:31:18Z</time></trkpt>
<trkpt lat="47.2916026" lon="4.0225637"><ele></ele><time>2022-6-4T9:31:21Z</time></trkpt>
<trkpt lat="47.2914263" lon="4.0224654"><ele></ele><time>2022-6-4T9:31:24Z</time></trkpt>
<trkpt lat="47.2912600" lon="4.0223259"><ele></ele><time>2022-6-4T9:31:27Z</time></trkpt>
<trkpt lat="47.2910847" lon="4.0222080"><ele></ele><time>2022-6-4T9:31:30Z</time></trkpt>
<trkpt lat="47.2909065" lon="4.0220998"><ele></ele><time>2022-6-4T9:31:33Z</time></trkpt>
<trkpt lat="47.2907294" lon="4.0220339"><ele></ele><time>2022-6-4T9:31:36Z</time></trkpt>
<trkpt lat="47.2908085" lon="4.0217610"><ele></ele><time>2022-6-4T9:31:39Z</time></trkpt>
<trkpt lat="47.2908803" lon="4.0214668"><ele></ele><time>2022-6-4T9:31:42Z</time></trkpt>
<trkpt lat="47.2909345" lon="4.0211803"><ele></ele><time>2022-6-4T9:31:45Z</time></trkpt>
<trkpt lat="47.2909941" lon="4.0209063"><ele></ele><time>2022-6-4T9:31:48Z</time></trkpt>
<trkpt lat="47.2910523" lon="4.0205886"><ele></ele><time>2022-6-4T9:31:51Z</time></trkpt>
<trkpt lat="47.2910524" lon="4.0202418"><ele></ele><time>2022-6-4T9:31:54Z</time></trkpt>
<trkpt lat="47.2911107" lon="4.0199290"><ele></ele><time>2022-6-4T9:31:57Z</time></trkpt>
<trkpt lat="47.2912910" lon="4.0196876"><ele></ele><time>2022-6-4T9:32:0Z</time></trkpt>
<trkpt lat="47.2914660" lon="4.0194467"><ele></ele><time>2022-6-4T9:32:3Z</time></trkpt>
<trkpt lat="47.2916694" lon="4.0192571"><ele></ele><time>2022-6-4T9:32:6Z</time></trkpt>
<trkpt lat="47.2918617" lon="4.0191353"><ele></ele><time>2022-6-4T9:32:9Z</time></trkpt>
<trkpt lat="47.2920463" lon="4.0190680"><ele></ele><time>2022-6-4T9:32:12Z</time></trkpt>
<trkpt lat="47.2922840" lon="4.0190428"><ele></ele><time>2022-6-4T9:32:15Z</time></trkpt>
<trkpt lat="47.2924709" lon="4.0191142"><ele></ele><time>2022-6-4T9:32:18Z</time></trkpt>
<trkpt lat="47.2926868" lon="4.0191655"><ele></ele><time>2022-6-4T9:32:21Z</time></trkpt>
<trkpt lat="47.2928812" lon="4.0191008"><ele></ele><time>2022-6-4T9:32:24Z</time></trkpt>
<trkpt lat="47.2930929" lon="4.0190491"><ele></ele><time>2022-6-4T9:32:27Z</time></trkpt>
<trkpt lat="47.2932900" lon="4.0189457"><ele></ele><time>2022-6-4T9:32:30Z</time></trkpt>
<trkpt lat="47.2934607" lon="4.0187942"><ele></ele><time>2022-6-4T9:32:33Z</time></trkpt>
<trkpt lat="47.2936373" lon="4.0186661"><ele></ele><time>2022-6-4T9:32:36Z</time></trkpt>
<trkpt lat="47.2937961" lon="4.0185061"><ele></ele><time>2022-6-4T9:32:39Z</time></trkpt>
<trkpt lat="47.2939715" lon="4.0183696"><ele></ele><time>2022-6-4T9:32:42Z</time></trkpt>
<trkpt lat="47.2941436" lon="4.0182727"><ele></ele><time>2022-6-4T9:32:45Z</time></trkpt>
<trkpt lat="47.2943508" lon="4.0181586"><ele></ele><time>2022-6-4T9:32:48Z</time></trkpt>
<trkpt lat="47.2945306" lon="4.0179874"><ele></ele><time>2022-6-4T9:32:51Z</time></trkpt>
<trkpt lat="47.2947820" lon="4.0179173"><ele></ele><time>2022-6-4T9:32:54Z</time></trkpt>
<trkpt lat="47.2950275" lon="4.0178562"><ele></ele><time>2022-6-4T9:32:57Z</time></trkpt>
<trkpt lat="47.2952128" lon="4.0178168"><ele></ele><time>2022-6-4T9:33:0Z</time></trkpt>
<trkpt lat="47.2954142" lon="4.0177754"><ele></ele><time>2022-6-4T9:33:3Z</time></trkpt>
<trkpt lat="47.2955676" lon="4.0176336"><ele></ele><time>2022-6-4T9:33:6Z</time></trkpt>
<trkpt lat="47.2956823" lon="4.0174105"><ele></ele><time>2022-6-4T9:33:9Z</time></trkpt>
<trkpt lat="47.2958547" lon="4.0173308"><ele></ele><time>2022-6-4T9:33:12Z</time></trkpt>
<trkpt lat="47.2960294" lon="4.0172665"><ele></ele><time>2022-6-4T9:33:15Z</time></trkpt>
<trkpt lat="47.2962089" lon="4.0171948"><ele></ele><time>2022-6-4T9:33:18Z</time></trkpt>
<trkpt lat="47.2964086" lon="4.0171158"><ele></ele><time>2022-6-4T9:33:21Z</time></trkpt>
<trkpt lat="47.2966052" lon="4.0170500"><ele></ele><time>2022-6-4T9:33:24Z</time></trkpt>
<trkpt lat="47.2967960" lon="4.0169385"><ele></ele><time>2022-6-4T9:33:27Z</time></trkpt>
<trkpt lat="47.2969932" lon="4.0168681"><ele></ele><time>2022-6-4T9:33:30Z</time></trkpt>
<trkpt lat="47.2972169" lon="4.0168565"><ele></ele><time>2022-6-4T9:33:33Z</time></trkpt>
<trkpt lat="47.2974066" lon="4.0168582"><ele></ele><time>2022-6-4T9:33:36Z</time></trkpt>
<trkpt lat="47.2975916" lon="4.0168612"><ele></ele><time>2022-6-4T9:33:39Z</time></trkpt>
<trkpt lat="47.2977832" lon="4.0168833"><ele></ele><time>2022-6-4T9:33:42Z</time></trkpt>
<trkpt lat="47.2979849" lon="4.0168628"><ele></ele><time>2022-6-4T9:33:45Z</time></trkpt>
<trkpt lat="47.2981814" lon="4.0168703"><ele></ele><time>2022-6-4T9:33:48Z</time></trkpt>
<trkpt lat="47.2983661" lon="4.0168124"><ele></ele><time>2022-6-4T9:33:51Z</time></trkpt>
<trkpt lat="47.2985547" lon="4.0168068"><ele></ele><time>2022-6-4T9:33:54Z</time></trkpt>
<trkpt lat="47.2987392" lon="4.0168445"><ele></ele><time>2022-6-4T9:33:57Z</time></trkpt>
<trkpt lat="47.2989408" lon="4.0168001"><ele></ele><time>2022-6-4T9:34:0Z</time></trkpt>
<trkpt lat="47.2991168" lon="4.0167219"><ele></ele><time>2022-6-4T9:34:3Z</time></trkpt>
<trkpt lat="47.2992896" lon="4.0165966"><ele></ele><time>2022-6-4T9:34:6Z</time></trkpt>
<trkpt lat="47.2994278" lon="4.0164179"><ele></ele><time>2022-6-4T9:34:9Z</time></trkpt>
<trkpt lat="47.2995643" lon="4.0162345"><ele></ele><time>2022-6-4T9:34:12Z</time></trkpt>
<trkpt lat="47.2997182" lon="4.0160933"><ele></ele><time>2022-6-4T9:34:15Z</time></trkpt>
<trkpt lat="47.2998671" lon="4.0159369"><ele></ele><time>2022-6-4T9:34:18Z</time></trkpt>
<trkpt lat="47.3000078" lon="4.0157233"><ele></ele><time>2022-6-4T9:34:21Z</time></trkpt>
<trkpt lat="47.3001632" lon="4.0155544"><ele></ele><time>2022-6-4T9:34:24Z</time></trkpt>
<trkpt lat="47.3002986" lon="4.0153538"><ele></ele><time>2022-6-4T9:34:27Z</time></trkpt>
<trkpt lat="47.3003268" lon="4.0150496"><ele></ele><time>2022-6-4T9:34:30Z</time></trkpt>
<trkpt lat="47.3002305" lon="4.0148171"><ele></ele><time>2022-6-4T9:34:33Z</time></trkpt>
<trkpt lat="47.3000341" lon="4.0147344"><ele></ele><time>2022-6-4T9:34:36Z</time></trkpt>
<trkpt lat="47.2998242" lon="4.0146955"><ele></ele><time>2022-6-4T9:34:39Z</time></trkpt>
<trkpt lat="47.2996283" lon="4.0146819"><ele></ele><time>2022-6-4T9:34:42Z</time></trkpt>
<trkpt lat="47.2994430" lon="4.0146184"><ele></ele><time>2022-6-4T9:34:45Z</time></trkpt>
<trkpt lat="47.2992714" lon="4.0145045"><ele></ele><time>2022-6-4T9:34:48Z</time></trkpt>
<trkpt lat="47.2991029" lon="4.0143808"><ele></ele><time>2022-6-4T9:34:51Z</time></trkpt>
<trkpt lat="47.2989309" lon="4.0142596"><ele></ele><time>2022-6-4T9:34:54Z</time></trkpt>
<trkpt lat="47.2987664" lon="4.0140997"><ele></ele><time>2022-6-4T9:34:57Z</time></trkpt>
<trkpt lat="47.2985931" lon="4.0139867"><ele></ele><time>2022-6-4T9:35:0Z</time></trkpt>
<trkpt lat="47.2984140" lon="4.0138237"><ele></ele><time>2022-6-4T9:35:3Z</time></trkpt>
<trkpt lat="47.2982455" lon="4.0137041"><ele></ele><time>2022-6-4T9:35:6Z</time></trkpt>
<trkpt lat="47.2984100" lon="4.0138175"><ele></ele><time>2022-6-4T9:35:9Z</time></trkpt>
<trkpt lat="47.2985657" lon="4.0139807"><ele></ele><time>2022-6-4T9:35:12Z</time></trkpt>
<trkpt lat="47.2987423" lon="4.0141193"><ele></ele><time>2022-6-4T9:35:15Z</time></trkpt>
<trkpt lat="47.2989287" lon="4.0142767"><ele></ele><time>2022-6-4T9:35:18Z</time></trkpt>
<trkpt lat="47.2991202" lon="4.0143728"><ele></ele><time>2022-6-4T9:35:21Z</time></trkpt>
<trkpt lat="47.2993079" lon="4.0144232"><ele></ele><time>2022-6-4T9:35:24Z</time></trkpt>
<trkpt lat="47.2994625" lon="4.0146183"><ele></ele><time>2022-6-4T9:35:27Z</time></trkpt>
<trkpt lat="47.2996453" lon="4.0146484"><ele></ele><time>2022-6-4T9:35:30Z</time></trkpt>
<trkpt lat="47.2998500" lon="4.0146662"><ele></ele><time>2022-6-4T9:35:33Z</time></trkpt>
<trkpt lat="47.3000673" lon="4.0147689"><ele></ele><time>2022-6-4T9:35:36Z</time></trkpt>
<trkpt lat="47.3002870" lon="4.0147645"><ele></ele><time>2022-6-4T9:35:39Z</time></trkpt>
<trkpt lat="47.3002893" lon="4.0144695"><ele></ele><time>2022-6-4T9:35:42Z</time></trkpt>
<trkpt lat="47.3001562" lon="4.0142741"><ele></ele><time>2022-6-4T9:35:45Z</time></trkpt>
<trkpt lat="47.2999678" lon="4.0140414"><ele></ele><time>2022-6-4T9:35:48Z</time></trkpt>
<trkpt lat="47.2998108" lon="4.0138234"><ele></ele><time>2022-6-4T9:35:51Z</time></trkpt>
<trkpt lat="47.2996697" lon="4.0135061"><ele></ele><time>2022-6-4T9:35:54Z</time></trkpt>
<trkpt lat="47.2995196" lon="4.0132740"><ele></ele><time>2022-6-4T9:35:57Z</time></trkpt>
<trkpt lat="47.2994312" lon="4.0130401"><ele></ele><time>2022-6-4T9:36:0Z</time></trkpt>
<trkpt lat="47.2993474" lon="4.0127925"><ele></ele><time>2022-6-4T9:36:3Z</time></trkpt>
<trkpt lat="47.2992272" lon="4.0125353"><ele></ele><time>2022-6-4T9:36:6Z</time></trkpt>
<trkpt lat="47.2990893" lon="4.0122664"><ele></ele><time>2022-6-4T9:36:9Z</time></trkpt>
<trkpt lat="47.2990295" lon="4.0119922"><ele></ele><time>2022-6-4T9:36:12Z</time></trkpt>
<trkpt lat="47.2989674" lon="4.0116859"><ele></ele><time>2022-6-4T9:36:15Z</time></trkpt>
<trkpt lat="47.2988985" lon="4.0113625"><ele></ele><time>2022-6-4T9:36:18Z</time></trkpt>
<trkpt lat="47.2988187" lon="4.0111168"><ele></ele><time>2022-6-4T9:36:21Z</time></trkpt>
<trkpt lat="47.2987528" lon="4.0108579"><ele></ele><time>2022-6-4T9:36:24Z</time></trkpt>
<trkpt lat="47.2986928" lon="4.0105931"><ele></ele><time>2022-6-4T9:36:27Z</time></trkpt>
<trkpt lat="47.2985974" lon="4.0103049"><ele></ele><time>2022-6-4T9:36:30Z</time></trkpt>
<trkpt lat="47.2985120" lon="4.0100406"><ele></ele><time>2022-6-4T9:36:33Z</time></trkpt>
<trkpt lat="47.2985008" lon="4.0097366"><ele></ele><time>2022-6-4T9:36:36Z</time></trkpt>
<trkpt lat="47.2985220" lon="4.0094694"><ele></ele><time>2022-6-4T9:36:39Z</time></trkpt>
<trkpt lat="47.2985997" lon="4.0092072"><ele></ele><time>2022-6-4T9:36:42Z</time></trkpt>
<trkpt lat="47.2986836" lon="4.0089612"><ele></ele><time>2022-6-4T9:36:45Z</time></trkpt>
<trkpt lat="47.2987384" lon="4.0086967"><ele></ele><time>2022-6-4T9:36:48Z</time></trkpt>
<trkpt lat="47.2987929" lon="4.0083903"><ele></ele><time>2022-6-4T9:36:51Z</time></trkpt>
<trkpt lat="47.2988103" lon="4.0081115"><ele></ele><time>2022-6-4T9:36:54Z</time></trkpt>
<trkpt lat="47.2988695" lon="4.0078117"><ele></ele><time>2022-6-4T9:36:57Z</time></trkpt>
<trkpt lat="47.2988846" lon="4.0075041"><ele></ele><time>2022-6-4T9:37:0Z</time></trkpt>
<trkpt lat="47.2988915" lon="4.0072017"><ele></ele><time>2022-6-4T9:37:3Z</time></trkpt>
<trkpt lat="47.2989073" lon="4.0068549"><ele></ele><time>2022-6-4T9:37:6Z</time></trkpt>
<trkpt lat="47.2990528" lon="4.0066352"><ele></ele><time>2022-6-4T9:37:9Z</time></trkpt>
<trkpt lat="47.2991469" lon="4.0063793"><ele></ele><time>2022-6-4T9:37:12Z</time></trkpt>
<trkpt lat="47.2993445" lon="4.0063475"><ele></ele><time>2022-6-4T9:37:15Z</time></trkpt>
<trkpt lat="47.2995600" lon="4.0063299"><ele></ele><time>2022-6-4T9:37:18Z</time></trkpt>
<trkpt lat="47.2997530" lon="4.0062485"><ele></ele><time>2022-6-4T9:37:21Z</time></trkpt>
<trkpt lat="47.2999095" lon="4.0061050"><ele></ele><time>2022-6-4T9:37:24Z</time></trkpt>
<trkpt lat="47.3000572" lon="4.0058964"><ele></ele><time>2022-6-4T9:37:27Z</time></trkpt>
<trkpt lat="47.3001877" lon="4.0056494"><ele></ele><time>2022-6-4T9:37:30Z</time></trkpt>
<trkpt lat="47.3002981" lon="4.0053982"><ele></ele><time>2022-6-4T9:37:33Z</time></trkpt>
<trkpt lat="47.3003775" lon="4.0051127"><ele></ele><time>2022-6-4T9:37:36Z</time></trkpt>
<trkpt lat="47.3005232" lon="4.0048584"><ele></ele><time>2022-6-4T9:37:39Z</time></trkpt>
<trkpt lat="47.3006571" lon="4.0046490"><ele></ele><time>2022-6-4T9:37:42Z</time></trkpt>
<trkpt lat="47.3008029" lon="4.0044537"><ele></ele><time>2022-6-4T9:37:45Z</time></trkpt>
<trkpt lat="47.3009525" lon="4.0042248"><ele></ele><time>2022-6-4T9:37:48Z</time></trkpt>
<trkpt lat="47.3010751" lon="4.0040065"><ele></ele><time>2022-6-4T9:37:51Z</time></trkpt>
<trkpt lat="47.3012490" lon="4.0038233"><ele></ele><time>2022-6-4T9:37:54Z</time></trkpt>
<trkpt lat="47.3014113" lon="4.0036364"><ele></ele><time>2022-6-4T9:37:57Z</time></trkpt>
<trkpt lat="47.3015299" lon="4.0034057"><ele></ele><time>2022-6-4T9:38:0Z</time></trkpt>
<trkpt lat="47.3016333" lon="4.0031655"><ele></ele><time>2022-6-4T9:38:3Z</time></trkpt>
<trkpt lat="47.3017169" lon="4.0029008"><ele></ele><time>2022-6-4T9:38:6Z</time></trkpt>
<trkpt lat="47.3018445" lon="4.0026476"><ele></ele><time>2022-6-4T9:38:9Z</time></trkpt>
<trkpt lat="47.3019783" lon="4.0024163"><ele></ele><time>2022-6-4T9:38:12Z</time></trkpt>
<trkpt lat="47.3021084" lon="4.0022285"><ele></ele><time>2022-6-4T9:38:15Z</time></trkpt>
<trkpt lat="47.3022625" lon="4.0020547"><ele></ele><time>2022-6-4T9:38:18Z</time></trkpt>
<trkpt lat="47.3024212" lon="4.0018705"><ele></ele><time>2022-6-4T9:38:21Z</time></trkpt>
<trkpt lat="47.3025611" lon="4.0016914"><ele></ele><time>2022-6-4T9:38:24Z</time></trkpt>
<trkpt lat="47.3027427" lon="4.0015664"><ele></ele><time>2022-6-4T9:38:27Z</time></trkpt>
<trkpt lat="47.3029155" lon="4.0014184"><ele></ele><time>2022-6-4T9:38:30Z</time></trkpt>
<trkpt lat="47.3030786" lon="4.0013045"><ele></ele><time>2022-6-4T9:38:33Z</time></trkpt>
<trkpt lat="47.3032269" lon="4.0011485"><ele></ele><time>2022-6-4T9:38:36Z</time></trkpt>
<trkpt lat="47.3033813" lon="4.0009603"><ele></ele><time>2022-6-4T9:38:39Z</time></trkpt>
<trkpt lat="47.3035463" lon="4.0007927"><ele></ele><time>2022-6-4T9:38:42Z</time></trkpt>
<trkpt lat="47.3036909" lon="4.0006144"><ele></ele><time>2022-6-4T9:38:45Z</time></trkpt>
<trkpt lat="47.3038665" lon="4.0004671"><ele></ele><time>2022-6-4T9:38:48Z</time></trkpt>
<trkpt lat="47.3040546" lon="4.0003426"><ele></ele><time>2022-6-4T9:38:51Z</time></trkpt>
<trkpt lat="47.3042284" lon="4.0001977"><ele></ele><time>2022-6-4T9:38:54Z</time></trkpt>
<trkpt lat="47.3044490" lon="4.0001419"><ele></ele><time>2022-6-4T9:38:57Z</time></trkpt>
<trkpt lat="47.3046385" lon="4.0001508"><ele></ele><time>2022-6-4T9:39:0Z</time></trkpt>
<trkpt lat="47.3048453" lon="4.0001746"><ele></ele><time>2022-6-4T9:39:3Z</time></trkpt>
<trkpt lat="47.3050343" lon="4.0001543"><ele></ele><time>2022-6-4T9:39:6Z</time></trkpt>
<trkpt lat="47.3052523" lon="4.0000498"><ele></ele><time>2022-6-4T9:39:9Z</time></trkpt>
<trkpt lat="47.3054663" lon="4.0000127"><ele></ele><time>2022-6-4T9:39:12Z</time></trkpt>
<trkpt lat="47.3056597" lon="4.0000419"><ele></ele><time>2022-6-4T9:39:15Z</time></trkpt>
<trkpt lat="47.3058533" lon="4.0001559"><ele></ele><time>2022-6-4T9:39:18Z</time></trkpt>
<trkpt lat="47.3060500" lon="4.0001132"><ele></ele><time>2022-6-4T9:39:21Z</time></trkpt>
<trkpt lat="47.3062421" lon="4.0000694"><ele></ele><time>2022-6-4T9:39:24Z</time></trkpt>
<trkpt lat="47.3064139" lon="3.9999507"><ele></ele><time>2022-6-4T9:39:27Z</time></trkpt>
<trkpt lat="47.3065798" lon="3.9998455"><ele></ele><time>2022-6-4T9:39:30Z</time></trkpt>
<trkpt lat="47.3067608" lon="3.9997611"><ele></ele><time>2022-6-4T9:39:33Z</time></trkpt>
<trkpt lat="47.3069414" lon="3.9996458"><ele></ele><time>2022-6-4T9:39:36Z</time></trkpt>
<trkpt lat="47.3071039" lon="3.9995059"><ele></ele><time>2022-6-4T9:39:39Z</time></trkpt>
<trkpt lat="47.3072777" lon="3.9993649"><ele></ele><time>2022-6-4T9:39:42Z</time></trkpt>
<trkpt lat="47.3074776" lon="3.9992723"><ele></ele><time>2022-6-4T9:39:45Z</time></trkpt>
<trkpt lat="47.3076508" lon="3.9991822"><ele></ele><time>2022-6-4T9:39:48Z</time></trkpt>
<trkpt lat="47.3078026" lon="3.9990212"><ele></ele><time>2022-6-4T9:39:51Z</time></trkpt>
<trkpt lat="47.3079211" lon="3.9987684"><ele></ele><time>2022-6-4T9:39:54Z</time></trkpt>
<trkpt lat="47.3080314" lon="3.9984810"><ele></ele><time>2022-6-4T9:39:57Z</time></trkpt>
<trkpt lat="47.3081324" lon="3.9982273"><ele></ele><time>2022-6-4T9:40:0Z</time></trkpt>
<trkpt lat="47.3082270" lon="3.9979073"><ele></ele><time>2022-6-4T9:40:3Z</time></trkpt>
<trkpt lat="47.3082772" lon="3.9976317"><ele></ele><time>2022-6-4T9:40:6Z</time></trkpt>
<trkpt lat="47.3083418" lon="3.9973517"><ele></ele><time>2022-6-4T9:40:9Z</time></trkpt>
<trkpt lat="47.3083812" lon="3.9970541"><ele></ele><time>2022-6-4T9:40:12Z</time></trkpt>
<trkpt lat="47.3084302" lon="3.9967665"><ele></ele><time>2022-6-4T9:40:15Z</time></trkpt>
<trkpt lat="47.3085079" lon="3.9964793"><ele></ele><time>2022-6-4T9:40:18Z</time></trkpt>
<trkpt lat="47.3085639" lon="3.9961896"><ele></ele><time>2022-6-4T9:40:21Z</time></trkpt>
<trkpt lat="47.3086169" lon="3.9959051"><ele></ele><time>2022-6-4T9:40:24Z</time></trkpt>
<trkpt lat="47.3086754" lon="3.9956207"><ele></ele><time>2022-6-4T9:40:27Z</time></trkpt>
<trkpt lat="47.3087465" lon="3.9953603"><ele></ele><time>2022-6-4T9:40:30Z</time></trkpt>
<trkpt lat="47.3088306" lon="3.9950571"><ele></ele><time>2022-6-4T9:40:33Z</time></trkpt>
<trkpt lat="47.3088950" lon="3.9948046"><ele></ele><time>2022-6-4T9:40:36Z</time></trkpt>
<trkpt lat="47.3089449" lon="3.9945238"><ele></ele><time>2022-6-4T9:40:39Z</time></trkpt>
<trkpt lat="47.3089922" lon="3.9942604"><ele></ele><time>2022-6-4T9:40:42Z</time></trkpt>
<trkpt lat="47.3090355" lon="3.9939758"><ele></ele><time>2022-6-4T9:40:45Z</time></trkpt>
<trkpt lat="47.3090682" lon="3.9937063"><ele></ele><time>2022-6-4T9:40:48Z</time></trkpt>
<trkpt lat="47.3090917" lon="3.9933981"><ele></ele><time>2022-6-4T9:40:51Z</time></trkpt>
<trkpt lat="47.3091160" lon="3.9931060"><ele></ele><time>2022-6-4T9:40:54Z</time></trkpt>
<trkpt lat="47.3092151" lon="3.9928768"><ele></ele><time>2022-6-4T9:40:57Z</time></trkpt>
<trkpt lat="47.3093575" lon="3.9926644"><ele></ele><time>2022-6-4T9:41:0Z</time></trkpt>
<trkpt lat="47.3095230" lon="3.9925308"><ele></ele><time>2022-6-4T9:41:3Z</time></trkpt>
<trkpt lat="47.3096981" lon="3.9924553"><ele></ele><time>2022-6-4T9:41:6Z</time></trkpt>
<trkpt lat="47.3098732" lon="3.9923781"><ele></ele><time>2022-6-4T9:41:9Z</time></trkpt>
<trkpt lat="47.3100014" lon="3.9921800"><ele></ele><time>2022-6-4T9:41:12Z</time></trkpt>
<trkpt lat="47.3100532" lon="3.9919251"><ele></ele><time>2022-6-4T9:41:15Z</time></trkpt>
<trkpt lat="47.3101040" lon="3.9916458"><ele></ele><time>2022-6-4T9:41:18Z</time></trkpt>
<trkpt lat="47.3100919" lon="3.9913550"><ele></ele><time>2022-6-4T9:41:21Z</time></trkpt>
<trkpt lat="47.3100340" lon="3.9910806"><ele></ele><time>2022-6-4T9:41:24Z</time></trkpt>
<trkpt lat="47.3099955" lon="3.9908043"><ele></ele><time>2022-6-4T9:41:27Z</time></trkpt>
<trkpt lat="47.3101390" lon="3.9906305"><ele></ele><time>2022-6-4T9:41:30Z</time></trkpt>
<trkpt lat="47.3101751" lon="3.9903553"><ele></ele><time>2022-6-4T9:41:33Z</time></trkpt>
<trkpt lat="47.3102307" lon="3.9900782"><ele></ele><time>2022-6-4T9:41:36Z</time></trkpt>
<trkpt lat="47.3102764" lon="3.9898082"><ele></ele><time>2022-6-4T9:41:39Z</time></trkpt>
<trkpt lat="47.3102972" lon="3.9895376"><ele></ele><time>2022-6-4T9:41:42Z</time></trkpt>
<trkpt lat="47.3103190" lon="3.9892542"><ele></ele><time>2022-6-4T9:41:45Z</time></trkpt>
<trkpt lat="47.3103080" lon="3.9889855"><ele></ele><time>2022-6-4T9:41:48Z</time></trkpt>
<trkpt lat="47.3103779" lon="3.9886934"><ele></ele><time>2022-6-4T9:41:51Z</time></trkpt>
<trkpt lat="47.3104854" lon="3.9884707"><ele></ele><time>2022-6-4T9:41:54Z</time></trkpt>
<trkpt lat="47.3105846" lon="3.9882465"><ele></ele><time>2022-6-4T9:41:57Z</time></trkpt>
<trkpt lat="47.3106725" lon="3.9880055"><ele></ele><time>2022-6-4T9:42:0Z</time></trkpt>
<trkpt lat="47.3107365" lon="3.9877216"><ele></ele><time>2022-6-4T9:42:3Z</time></trkpt>
<trkpt lat="47.3107782" lon="3.9874291"><ele></ele><time>2022-6-4T9:42:6Z</time></trkpt>
<trkpt lat="47.3108055" lon="3.9871614"><ele></ele><time>2022-6-4T9:42:9Z</time></trkpt>
<trkpt lat="47.3108332" lon="3.9868822"><ele></ele><time>2022-6-4T9:42:12Z</time></trkpt>
<trkpt lat="47.3109693" lon="3.9866494"><ele></ele><time>2022-6-4T9:42:15Z</time></trkpt>
<trkpt lat="47.3111077" lon="3.9864636"><ele></ele><time>2022-6-4T9:42:18Z</time></trkpt>
<trkpt lat="47.3111773" lon="3.9861898"><ele></ele><time>2022-6-4T9:42:21Z</time></trkpt>
<trkpt lat="47.3111092" lon="3.9858964"><ele></ele><time>2022-6-4T9:42:24Z</time></trkpt>
<trkpt lat="47.3110557" lon="3.9856185"><ele></ele><time>2022-6-4T9:42:27Z</time></trkpt>
<trkpt lat="47.3110328" lon="3.9853441"><ele></ele><time>2022-6-4T9:42:30Z</time></trkpt>
<trkpt lat="47.3110309" lon="3.9850278"><ele></ele><time>2022-6-4T9:42:33Z</time></trkpt>
<trkpt lat="47.3110395" lon="3.9847301"><ele></ele><time>2022-6-4T9:42:36Z</time></trkpt>
<trkpt lat="47.3110582" lon="3.9844496"><ele></ele><time>2022-6-4T9:42:39Z</time></trkpt>
<trkpt lat="47.3110411" lon="3.9841173"><ele></ele><time>2022-6-4T9:42:42Z</time></trkpt>
<trkpt lat="47.3109987" lon="3.9838451"><ele></ele><time>2022-6-4T9:42:45Z</time></trkpt>
<trkpt lat="47.3109336" lon="3.9835565"><ele></ele><time>2022-6-4T9:42:48Z</time></trkpt>
<trkpt lat="47.3108722" lon="3.9832628"><ele></ele><time>2022-6-4T9:42:51Z</time></trkpt>
<trkpt lat="47.3108390" lon="3.9829624"><ele></ele><time>2022-6-4T9:42:54Z</time></trkpt>
<trkpt lat="47.3107861" lon="3.9826936"><ele></ele><time>2022-6-4T9:42:57Z</time></trkpt>
<trkpt lat="47.3107063" lon="3.9824168"><ele></ele><time>2022-6-4T9:43:0Z</time></trkpt>
<trkpt lat="47.3106065" lon="3.9821671"><ele></ele><time>2022-6-4T9:43:3Z</time></trkpt>
<trkpt lat="47.3104885" lon="3.9819061"><ele></ele><time>2022-6-4T9:43:6Z</time></trkpt>
<trkpt lat="47.3103923" lon="3.9816641"><ele></ele><time>2022-6-4T9:43:9Z</time></trkpt>
<trkpt lat="47.3103038" lon="3.9814255"><ele></ele><time>2022-6-4T9:43:12Z</time></trkpt>
<trkpt lat="47.3101772" lon="3.9812311"><ele></ele><time>2022-6-4T9:43:15Z</time></trkpt>
<trkpt lat="47.3100674" lon="3.9809846"><ele></ele><time>2022-6-4T9:43:18Z</time></trkpt>
<trkpt lat="47.3099425" lon="3.9807797"><ele></ele><time>2022-6-4T9:43:21Z</time></trkpt>
<trkpt lat="47.3096858" lon="3.9805723"><ele></ele><time>2022-6-4T9:43:24Z</time></trkpt>
<trkpt lat="47.3095126" lon="3.9804733"><ele></ele><time>2022-6-4T9:43:27Z</time></trkpt>
<trkpt lat="47.3093396" lon="3.9803583"><ele></ele><time>2022-6-4T9:43:30Z</time></trkpt>
<trkpt lat="47.3091303" lon="3.9803169"><ele></ele><time>2022-6-4T9:43:33Z</time></trkpt>
<trkpt lat="47.3089428" lon="3.9802589"><ele></ele><time>2022-6-4T9:43:36Z</time></trkpt>
<trkpt lat="47.3087401" lon="3.9802919"><ele></ele><time>2022-6-4T9:43:39Z</time></trkpt>
<trkpt lat="47.3085274" lon="3.9803928"><ele></ele><time>2022-6-4T9:43:42Z</time></trkpt>
<trkpt lat="47.3083239" lon="3.9804200"><ele></ele><time>2022-6-4T9:43:45Z</time></trkpt>
<trkpt lat="47.3081177" lon="3.9803530"><ele></ele><time>2022-6-4T9:43:48Z</time></trkpt>
<trkpt lat="47.3079370" lon="3.9803573"><ele></ele><time>2022-6-4T9:43:51Z</time></trkpt>
<trkpt lat="47.3077473" lon="3.9803980"><ele></ele><time>2022-6-4T9:43:54Z</time></trkpt>
<trkpt lat="47.3075904" lon="3.9805287"><ele></ele><time>2022-6-4T9:43:57Z</time></trkpt>
<trkpt lat="47.3075740" lon="3.9808170"><ele></ele><time>2022-6-4T9:44:0Z</time></trkpt>
<trkpt lat="47.3074983" lon="3.9810754"><ele></ele><time>2022-6-4T9:44:3Z</time></trkpt>
<trkpt lat="47.3074576" lon="3.9813651"><ele></ele><time>2022-6-4T9:44:6Z</time></trkpt>
<trkpt lat="47.3073854" lon="3.9816208"><ele></ele><time>2022-6-4T9:44:9Z</time></trkpt>
<trkpt lat="47.3072773" lon="3.9818439"><ele></ele><time>2022-6-4T9:44:12Z</time></trkpt>
<trkpt lat="47.3072190" lon="3.9820982"><ele></ele><time>2022-6-4T9:44:15Z</time></trkpt>
<trkpt lat="47.3071616" lon="3.9823681"><ele></ele><time>2022-6-4T9:44:18Z</time></trkpt>
<trkpt lat="47.3071727" lon="3.9826360"><ele></ele><time>2022-6-4T9:44:21Z</time></trkpt>
<trkpt lat="47.3071696" lon="3.9829276"><ele></ele><time>2022-6-4T9:44:24Z</time></trkpt>
<trkpt lat="47.3071450" lon="3.9832089"><ele></ele><time>2022-6-4T9:44:27Z</time></trkpt>
<trkpt lat="47.3070467" lon="3.9834351"><ele></ele><time>2022-6-4T9:44:30Z</time></trkpt>
<trkpt lat="47.3069739" lon="3.9836804"><ele></ele><time>2022-6-4T9:44:33Z</time></trkpt>
<trkpt lat="47.3068263" lon="3.9838665"><ele></ele><time>2022-6-4T9:44:36Z</time></trkpt>
<trkpt lat="47.3066574" lon="3.9840530"><ele></ele><time>2022-6-4T9:44:39Z</time></trkpt>
<trkpt lat="47.3065211" lon="3.9842457"><ele></ele><time>2022-6-4T9:44:42Z</time></trkpt>
<trkpt lat="47.3063758" lon="3.9844468"><ele></ele><time>2022-6-4T9:44:45Z</time></trkpt>
<trkpt lat="47.3062325" lon="3.9846784"><ele></ele><time>2022-6-4T9:44:48Z</time></trkpt>
<trkpt lat="47.3061200" lon="3.9848894"><ele></ele><time>2022-6-4T9:44:51Z</time></trkpt>
<trkpt lat="47.3060447" lon="3.9851440"><ele></ele><time>2022-6-4T9:44:54Z</time></trkpt>
<trkpt lat="47.3060032" lon="3.9854361"><ele></ele><time>2022-6-4T9:44:57Z</time></trkpt>
<trkpt lat="47.3059709" lon="3.9856987"><ele></ele><time>2022-6-4T9:45:0Z</time></trkpt>
<trkpt lat="47.3059985" lon="3.9859700"><ele></ele><time>2022-6-4T9:45:3Z</time></trkpt>
<trkpt lat="47.3060990" lon="3.9861903"><ele></ele><time>2022-6-4T9:45:6Z</time></trkpt>
<trkpt lat="47.3061782" lon="3.9864318"><ele></ele><time>2022-6-4T9:45:9Z</time></trkpt>
<trkpt lat="47.3062764" lon="3.9866765"><ele></ele><time>2022-6-4T9:45:12Z</time></trkpt>
<trkpt lat="47.3063876" lon="3.9869259"><ele></ele><time>2022-6-4T9:45:15Z</time></trkpt>
<trkpt lat="47.3065180" lon="3.9871209"><ele></ele><time>2022-6-4T9:45:18Z</time></trkpt>
<trkpt lat="47.3066061" lon="3.9873784"><ele></ele><time>2022-6-4T9:45:21Z</time></trkpt>
<trkpt lat="47.3067087" lon="3.9875970"><ele></ele><time>2022-6-4T9:45:24Z</time></trkpt>
<trkpt lat="47.3065185" lon="3.9876325"><ele></ele><time>2022-6-4T9:45:27Z</time></trkpt>
<trkpt lat="47.3063271" lon="3.9875445"><ele></ele><time>2022-6-4T9:45:30Z</time></trkpt>
<trkpt lat="47.3061302" lon="3.9875132"><ele></ele><time>2022-6-4T9:45:33Z</time></trkpt>
<trkpt lat="47.3059424" lon="3.9874526"><ele></ele><time>2022-6-4T9:45:36Z</time></trkpt>
<trkpt lat="47.3057230" lon="3.9875129"><ele></ele><time>2022-6-4T9:45:39Z</time></trkpt>
<trkpt lat="47.3055189" lon="3.9876587"><ele></ele><time>2022-6-4T9:45:42Z</time></trkpt>
<trkpt lat="47.3052639" lon="3.9878322"><ele></ele><time>2022-6-4T9:45:45Z</time></trkpt>
<trkpt lat="47.3050983" lon="3.9879419"><ele></ele><time>2022-6-4T9:45:48Z</time></trkpt>
<trkpt lat="47.3049377" lon="3.9881378"><ele></ele><time>2022-6-4T9:45:51Z</time></trkpt>
<trkpt lat="47.3047761" lon="3.9883242"><ele></ele><time>2022-6-4T9:45:54Z</time></trkpt>
<trkpt lat="47.3047017" lon="3.9885974"><ele></ele><time>2022-6-4T9:45:57Z</time></trkpt>
<trkpt lat="47.3046143" lon="3.9888485"><ele></ele><time>2022-6-4T9:46:0Z</time></trkpt>
<trkpt lat="47.3045265" lon="3.9891146"><ele></ele><time>2022-6-4T9:46:3Z</time></trkpt>
<trkpt lat="47.3044646" lon="3.9894211"><ele></ele><time>2022-6-4T9:46:6Z</time></trkpt>
<trkpt lat="47.3043932" lon="3.9896917"><ele></ele><time>2022-6-4T9:46:9Z</time></trkpt>
<trkpt lat="47.3042326" lon="3.9899065"><ele></ele><time>2022-6-4T9:46:12Z</time></trkpt>
<trkpt lat="47.3040556" lon="3.9900368"><ele></ele><time>2022-6-4T9:46:15Z</time></trkpt>
<trkpt lat="47.3038444" lon="3.9902530"><ele></ele><time>2022-6-4T9:46:18Z</time></trkpt>
<trkpt lat="47.3036753" lon="3.9903467"><ele></ele><time>2022-6-4T9:46:21Z</time></trkpt>
<trkpt lat="47.3034329" lon="3.9904955"><ele></ele><time>2022-6-4T9:46:24Z</time></trkpt>
<trkpt lat="47.3033474" lon="3.9907445"><ele></ele><time>2022-6-4T9:46:27Z</time></trkpt>
<trkpt lat="47.3033616" lon="3.9910353"><ele></ele><time>2022-6-4T9:46:30Z</time></trkpt>
<trkpt lat="47.3031869" lon="3.9911566"><ele></ele><time>2022-6-4T9:46:33Z</time></trkpt>
<trkpt lat="47.3030145" lon="3.9910044"><ele></ele><time>2022-6-4T9:46:36Z</time></trkpt>
<trkpt lat="47.3028594" lon="3.9908411"><ele></ele><time>2022-6-4T9:46:39Z</time></trkpt>
<trkpt lat="47.3027727" lon="3.9905715"><ele></ele><time>2022-6-4T9:46:42Z</time></trkpt>
<trkpt lat="47.3025947" lon="3.9904232"><ele></ele><time>2022-6-4T9:46:45Z</time></trkpt>
<trkpt lat="47.3024351" lon="3.9905513"><ele></ele><time>2022-6-4T9:46:48Z</time></trkpt>
<trkpt lat="47.3023560" lon="3.9908037"><ele></ele><time>2022-6-4T9:46:51Z</time></trkpt>
<trkpt lat="47.3022381" lon="3.9910092"><ele></ele><time>2022-6-4T9:46:54Z</time></trkpt>
<trkpt lat="47.3020523" lon="3.9910801"><ele></ele><time>2022-6-4T9:46:57Z</time></trkpt>
<trkpt lat="47.3018591" lon="3.9910953"><ele></ele><time>2022-6-4T9:47:0Z</time></trkpt>
<trkpt lat="47.3016876" lon="3.9909726"><ele></ele><time>2022-6-4T9:47:3Z</time></trkpt>
<trkpt lat="47.3014953" lon="3.9908885"><ele></ele><time>2022-6-4T9:47:6Z</time></trkpt>
<trkpt lat="47.3013207" lon="3.9907812"><ele></ele><time>2022-6-4T9:47:9Z</time></trkpt>
<trkpt lat="47.3012573" lon="3.9905254"><ele></ele><time>2022-6-4T9:47:12Z</time></trkpt>
<trkpt lat="47.3011017" lon="3.9903737"><ele></ele><time>2022-6-4T9:47:15Z</time></trkpt>
<trkpt lat="47.3009737" lon="3.9901775"><ele></ele><time>2022-6-4T9:47:18Z</time></trkpt>
<trkpt lat="47.3008283" lon="3.9900160"><ele></ele><time>2022-6-4T9:47:21Z</time></trkpt>
<trkpt lat="47.3006763" lon="3.9898685"><ele></ele><time>2022-6-4T9:47:24Z</time></trkpt>
<trkpt lat="47.3004879" lon="3.9898013"><ele></ele><time>2022-6-4T9:47:27Z</time></trkpt>
<trkpt lat="47.3002940" lon="3.9898573"><ele></ele><time>2022-6-4T9:47:30Z</time></trkpt>
<trkpt lat="47.3001240" lon="3.9899531"><ele></ele><time>2022-6-4T9:47:33Z</time></trkpt>
<trkpt lat="47.2999589" lon="3.9900825"><ele></ele><time>2022-6-4T9:47:36Z</time></trkpt>
<trkpt lat="47.2997868" lon="3.9902299"><ele></ele><time>2022-6-4T9:47:39Z</time></trkpt>
<trkpt lat="47.2995897" lon="3.9903536"><ele></ele><time>2022-6-4T9:47:42Z</time></trkpt>
<trkpt lat="47.2993891" lon="3.9903628"><ele></ele><time>2022-6-4T9:47:45Z</time></trkpt>
<trkpt lat="47.2992015" lon="3.9903514"><ele></ele><time>2022-6-4T9:47:48Z</time></trkpt>
<trkpt lat="47.2989960" lon="3.9903115"><ele></ele><time>2022-6-4T9:47:51Z</time></trkpt>
<trkpt lat="47.2988002" lon="3.9902752"><ele></ele><time>2022-6-4T9:47:54Z</time></trkpt>
<trkpt lat="47.2986485" lon="3.9904358"><ele></ele><time>2022-6-4T9:47:57Z</time></trkpt>
<trkpt lat="47.2984324" lon="3.9904787"><ele></ele><time>2022-6-4T9:48:0Z</time></trkpt>
<trkpt lat="47.2982120" lon="3.9904957"><ele></ele><time>2022-6-4T9:48:3Z</time></trkpt>
<trkpt lat="47.2978383" lon="3.9905916"><ele></ele><time>2022-6-4T9:48:6Z</time></trkpt>
<trkpt lat="47.2976163" lon="3.9905767"><ele></ele><time>2022-6-4T9:48:9Z</time></trkpt>
<trkpt lat="47.2973988" lon="3.9905636"><ele></ele><time>2022-6-4T9:48:12Z</time></trkpt>
<trkpt lat="47.2972192" lon="3.9906278"><ele></ele><time>2022-6-4T9:48:15Z</time></trkpt>
<trkpt lat="47.2970424" lon="3.9906983"><ele></ele><time>2022-6-4T9:48:18Z</time></trkpt>
<trkpt lat="47.2968567" lon="3.9907799"><ele></ele><time>2022-6-4T9:48:21Z</time></trkpt>
<trkpt lat="47.2966705" lon="3.9908033"><ele></ele><time>2022-6-4T9:48:24Z</time></trkpt>
<trkpt lat="47.2965537" lon="3.9910237"><ele></ele><time>2022-6-4T9:48:27Z</time></trkpt>
<trkpt lat="47.2964572" lon="3.9912518"><ele></ele><time>2022-6-4T9:48:30Z</time></trkpt>
<trkpt lat="47.2964216" lon="3.9915124"><ele></ele><time>2022-6-4T9:48:33Z</time></trkpt>
<trkpt lat="47.2963131" lon="3.9917303"><ele></ele><time>2022-6-4T9:48:36Z</time></trkpt>
<trkpt lat="47.2961699" lon="3.9919226"><ele></ele><time>2022-6-4T9:48:39Z</time></trkpt>
<trkpt lat="47.2960052" lon="3.9920737"><ele></ele><time>2022-6-4T9:48:42Z</time></trkpt>
<trkpt lat="47.2958346" lon="3.9921937"><ele></ele><time>2022-6-4T9:48:45Z</time></trkpt>
<trkpt lat="47.2956596" lon="3.9923100"><ele></ele><time>2022-6-4T9:48:48Z</time></trkpt>
<trkpt lat="47.2954769" lon="3.9924256"><ele></ele><time>2022-6-4T9:48:51Z</time></trkpt>
<trkpt lat="47.2953012" lon="3.9925860"><ele></ele><time>2022-6-4T9:48:54Z</time></trkpt>
<trkpt lat="47.2951361" lon="3.9927400"><ele></ele><time>2022-6-4T9:48:57Z</time></trkpt>
<trkpt lat="47.2949543" lon="3.9927739"><ele></ele><time>2022-6-4T9:49:0Z</time></trkpt>
<trkpt lat="47.2947664" lon="3.9927098"><ele></ele><time>2022-6-4T9:49:3Z</time></trkpt>
<trkpt lat="47.2945611" lon="3.9926464"><ele></ele><time>2022-6-4T9:49:6Z</time></trkpt>
<trkpt lat="47.2943744" lon="3.9926290"><ele></ele><time>2022-6-4T9:49:9Z</time></trkpt>
<trkpt lat="47.2941682" lon="3.9927057"><ele></ele><time>2022-6-4T9:49:12Z</time></trkpt>
<trkpt lat="47.2939970" lon="3.9927968"><ele></ele><time>2022-6-4T9:49:15Z</time></trkpt>
<trkpt lat="47.2938069" lon="3.9928922"><ele></ele><time>2022-6-4T9:49:18Z</time></trkpt>
<trkpt lat="47.2936296" lon="3.9929849"><ele></ele><time>2022-6-4T9:49:21Z</time></trkpt>
<trkpt lat="47.2934587" lon="3.9930851"><ele></ele><time>2022-6-4T9:49:24Z</time></trkpt>
<trkpt lat="47.2933059" lon="3.9932432"><ele></ele><time>2022-6-4T9:49:27Z</time></trkpt>
<trkpt lat="47.2931355" lon="3.9933427"><ele></ele><time>2022-6-4T9:49:30Z</time></trkpt>
<trkpt lat="47.2929510" lon="3.9934892"><ele></ele><time>2022-6-4T9:49:33Z</time></trkpt>
<trkpt lat="47.2927960" lon="3.9936290"><ele></ele><time>2022-6-4T9:49:36Z</time></trkpt>
<trkpt lat="47.2926079" lon="3.9937949"><ele></ele><time>2022-6-4T9:49:39Z</time></trkpt>
<trkpt lat="47.2924653" lon="3.9939827"><ele></ele><time>2022-6-4T9:49:42Z</time></trkpt>
<trkpt lat="47.2923345" lon="3.9942243"><ele></ele><time>2022-6-4T9:49:45Z</time></trkpt>
<trkpt lat="47.2922677" lon="3.9945000"><ele></ele><time>2022-6-4T9:49:48Z</time></trkpt>
<trkpt lat="47.2922003" lon="3.9947471"><ele></ele><time>2022-6-4T9:49:51Z</time></trkpt>
<trkpt lat="47.2921388" lon="3.9950067"><ele></ele><time>2022-6-4T9:49:54Z</time></trkpt>
<trkpt lat="47.2920962" lon="3.9952832"><ele></ele><time>2022-6-4T9:49:57Z</time></trkpt>
<trkpt lat="47.2920128" lon="3.9955419"><ele></ele><time>2022-6-4T9:50:0Z</time></trkpt>
<trkpt lat="47.2917692" lon="3.9955120"><ele></ele><time>2022-6-4T9:50:3Z</time></trkpt>
<trkpt lat="47.2915802" lon="3.9953545"><ele></ele><time>2022-6-4T9:50:6Z</time></trkpt>
<trkpt lat="47.2914122" lon="3.9951987"><ele></ele><time>2022-6-4T9:50:9Z</time></trkpt>
<trkpt lat="47.2912324" lon="3.9951802"><ele></ele><time>2022-6-4T9:50:12Z</time></trkpt>
<trkpt lat="47.2910459" lon="3.9951430"><ele></ele><time>2022-6-4T9:50:15Z</time></trkpt>
<trkpt lat="47.2908619" lon="3.9950924"><ele></ele><time>2022-6-4T9:50:18Z</time></trkpt>
<trkpt lat="47.2906586" lon="3.9950893"><ele></ele><time>2022-6-4T9:50:21Z</time></trkpt>
<trkpt lat="47.2904499" lon="3.9951090"><ele></ele><time>2022-6-4T9:50:24Z</time></trkpt>
<trkpt lat="47.2902588" lon="3.9951217"><ele></ele><time>2022-6-4T9:50:27Z</time></trkpt>
<trkpt lat="47.2900679" lon="3.9951586"><ele></ele><time>2022-6-4T9:50:30Z</time></trkpt>
<trkpt lat="47.2898850" lon="3.9951938"><ele></ele><time>2022-6-4T9:50:33Z</time></trkpt>
<trkpt lat="47.2896833" lon="3.9952355"><ele></ele><time>2022-6-4T9:50:36Z</time></trkpt>
<trkpt lat="47.2894919" lon="3.9952350"><ele></ele><time>2022-6-4T9:50:39Z</time></trkpt>
<trkpt lat="47.2892874" lon="3.9951989"><ele></ele><time>2022-6-4T9:50:42Z</time></trkpt>
<trkpt lat="47.2890915" lon="3.9951954"><ele></ele><time>2022-6-4T9:50:45Z</time></trkpt>
<trkpt lat="47.2889104" lon="3.9952130"><ele></ele><time>2022-6-4T9:50:48Z</time></trkpt>
<trkpt lat="47.2887109" lon="3.9952505"><ele></ele><time>2022-6-4T9:50:51Z</time></trkpt>
<trkpt lat="47.2885467" lon="3.9953589"><ele></ele><time>2022-6-4T9:50:54Z</time></trkpt>
<trkpt lat="47.2883642" lon="3.9954445"><ele></ele><time>2022-6-4T9:50:57Z</time></trkpt>
<trkpt lat="47.2881495" lon="3.9954284"><ele></ele><time>2022-6-4T9:51:0Z</time></trkpt>
<trkpt lat="47.2879615" lon="3.9953905"><ele></ele><time>2022-6-4T9:51:3Z</time></trkpt>
<trkpt lat="47.2877783" lon="3.9954001"><ele></ele><time>2022-6-4T9:51:6Z</time></trkpt>
<trkpt lat="47.2875732" lon="3.9954051"><ele></ele><time>2022-6-4T9:51:9Z</time></trkpt>
<trkpt lat="47.2874031" lon="3.9952561"><ele></ele><time>2022-6-4T9:51:12Z</time></trkpt>
<trkpt lat="47.2873099" lon="3.9950155"><ele></ele><time>2022-6-4T9:51:15Z</time></trkpt>
<trkpt lat="47.2872700" lon="3.9947253"><ele></ele><time>2022-6-4T9:51:18Z</time></trkpt>
<trkpt lat="47.2871773" lon="3.9944626"><ele></ele><time>2022-6-4T9:51:21Z</time></trkpt>
<trkpt lat="47.2870690" lon="3.9942194"><ele></ele><time>2022-6-4T9:51:24Z</time></trkpt>
<trkpt lat="47.2869648" lon="3.9939781"><ele></ele><time>2022-6-4T9:51:27Z</time></trkpt>
<trkpt lat="47.2868790" lon="3.9937339"><ele></ele><time>2022-6-4T9:51:30Z</time></trkpt>
<trkpt lat="47.2867640" lon="3.9935024"><ele></ele><time>2022-6-4T9:51:33Z</time></trkpt>
<trkpt lat="47.2866128" lon="3.9933298"><ele></ele><time>2022-6-4T9:51:36Z</time></trkpt>
<trkpt lat="47.2864619" lon="3.9931586"><ele></ele><time>2022-6-4T9:51:39Z</time></trkpt>
<trkpt lat="47.2863208" lon="3.9929797"><ele></ele><time>2022-6-4T9:51:42Z</time></trkpt>
<trkpt lat="47.2861266" lon="3.9928035"><ele></ele><time>2022-6-4T9:51:45Z</time></trkpt>
<trkpt lat="47.2859829" lon="3.9926374"><ele></ele><time>2022-6-4T9:51:48Z</time></trkpt>
<trkpt lat="47.2858327" lon="3.9924360"><ele></ele><time>2022-6-4T9:51:51Z</time></trkpt>
<trkpt lat="47.2856529" lon="3.9922640"><ele></ele><time>2022-6-4T9:51:54Z</time></trkpt>
<trkpt lat="47.2854775" lon="3.9921165"><ele></ele><time>2022-6-4T9:51:57Z</time></trkpt>
<trkpt lat="47.2853093" lon="3.9919837"><ele></ele><time>2022-6-4T9:52:0Z</time></trkpt>
<trkpt lat="47.2851270" lon="3.9917964"><ele></ele><time>2022-6-4T9:52:3Z</time></trkpt>
<trkpt lat="47.2849645" lon="3.9916543"><ele></ele><time>2022-6-4T9:52:6Z</time></trkpt>
<trkpt lat="47.2847717" lon="3.9914874"><ele></ele><time>2022-6-4T9:52:9Z</time></trkpt>
<trkpt lat="47.2845987" lon="3.9913450"><ele></ele><time>2022-6-4T9:52:12Z</time></trkpt>
<trkpt lat="47.2844706" lon="3.9911283"><ele></ele><time>2022-6-4T9:52:15Z</time></trkpt>
<trkpt lat="47.2842850" lon="3.9909702"><ele></ele><time>2022-6-4T9:52:18Z</time></trkpt>
<trkpt lat="47.2840837" lon="3.9908770"><ele></ele><time>2022-6-4T9:52:21Z</time></trkpt>
<trkpt lat="47.2838917" lon="3.9908278"><ele></ele><time>2022-6-4T9:52:24Z</time></trkpt>
<trkpt lat="47.2837015" lon="3.9908037"><ele></ele><time>2022-6-4T9:52:27Z</time></trkpt>
<trkpt lat="47.2834872" lon="3.9907500"><ele></ele><time>2022-6-4T9:52:30Z</time></trkpt>
<trkpt lat="47.2832380" lon="3.9908322"><ele></ele><time>2022-6-4T9:52:33Z</time></trkpt>
<trkpt lat="47.2830628" lon="3.9909156"><ele></ele><time>2022-6-4T9:52:36Z</time></trkpt>
<trkpt lat="47.2828721" lon="3.9909970"><ele></ele><time>2022-6-4T9:52:39Z</time></trkpt>
<trkpt lat="47.2826973" lon="3.9911106"><ele></ele><time>2022-6-4T9:52:42Z</time></trkpt>
<trkpt lat="47.2825056" lon="3.9910496"><ele></ele><time>2022-6-4T9:52:45Z</time></trkpt>
<trkpt lat="47.2823050" lon="3.9909713"><ele></ele><time>2022-6-4T9:52:48Z</time></trkpt>
<trkpt lat="47.2822008" lon="3.9912114"><ele></ele><time>2022-6-4T9:52:51Z</time></trkpt>
<trkpt lat="47.2821837" lon="3.9914899"><ele></ele><time>2022-6-4T9:52:54Z</time></trkpt>
<trkpt lat="47.2822422" lon="3.9912357"><ele></ele><time>2022-6-4T9:52:57Z</time></trkpt>
<trkpt lat="47.2821674" lon="3.9909861"><ele></ele><time>2022-6-4T9:53:0Z</time></trkpt>
<trkpt lat="47.2820013" lon="3.9910889"><ele></ele><time>2022-6-4T9:53:3Z</time></trkpt>
<trkpt lat="47.2818996" lon="3.9913459"><ele></ele><time>2022-6-4T9:53:6Z</time></trkpt>
<trkpt lat="47.2818406" lon="3.9916349"><ele></ele><time>2022-6-4T9:53:9Z</time></trkpt>
<trkpt lat="47.2817902" lon="3.9919305"><ele></ele><time>2022-6-4T9:53:12Z</time></trkpt>
<trkpt lat="47.2817368" lon="3.9921987"><ele></ele><time>2022-6-4T9:53:15Z</time></trkpt>
<trkpt lat="47.2816832" lon="3.9924603"><ele></ele><time>2022-6-4T9:53:18Z</time></trkpt>
<trkpt lat="47.2816294" lon="3.9927475"><ele></ele><time>2022-6-4T9:53:21Z</time></trkpt>
<trkpt lat="47.2815243" lon="3.9929729"><ele></ele><time>2022-6-4T9:53:24Z</time></trkpt>
<trkpt lat="47.2813497" lon="3.9929005"><ele></ele><time>2022-6-4T9:53:27Z</time></trkpt>
<trkpt lat="47.2811633" lon="3.9927779"><ele></ele><time>2022-6-4T9:53:30Z</time></trkpt>
<trkpt lat="47.2809922" lon="3.9926829"><ele></ele><time>2022-6-4T9:53:33Z</time></trkpt>
<trkpt lat="47.2807863" lon="3.9926169"><ele></ele><time>2022-6-4T9:53:36Z</time></trkpt>
<trkpt lat="47.2805960" lon="3.9927156"><ele></ele><time>2022-6-4T9:53:39Z</time></trkpt>
<trkpt lat="47.2803938" lon="3.9927908"><ele></ele><time>2022-6-4T9:53:42Z</time></trkpt>
<trkpt lat="47.2802138" lon="3.9928926"><ele></ele><time>2022-6-4T9:53:45Z</time></trkpt>
<trkpt lat="47.2800292" lon="3.9929763"><ele></ele><time>2022-6-4T9:53:48Z</time></trkpt>
<trkpt lat="47.2798455" lon="3.9930780"><ele></ele><time>2022-6-4T9:53:51Z</time></trkpt>
<trkpt lat="47.2796690" lon="3.9931880"><ele></ele><time>2022-6-4T9:53:54Z</time></trkpt>
<trkpt lat="47.2795042" lon="3.9933157"><ele></ele><time>2022-6-4T9:53:57Z</time></trkpt>
<trkpt lat="47.2793444" lon="3.9934774"><ele></ele><time>2022-6-4T9:54:0Z</time></trkpt>
<trkpt lat="47.2791956" lon="3.9936674"><ele></ele><time>2022-6-4T9:54:3Z</time></trkpt>
<trkpt lat="47.2790946" lon="3.9938892"><ele></ele><time>2022-6-4T9:54:6Z</time></trkpt>
<trkpt lat="47.2789666" lon="3.9940801"><ele></ele><time>2022-6-4T9:54:9Z</time></trkpt>
<trkpt lat="47.2787823" lon="3.9940497"><ele></ele><time>2022-6-4T9:54:12Z</time></trkpt>
<trkpt lat="47.2785973" lon="3.9939420"><ele></ele><time>2022-6-4T9:54:15Z</time></trkpt>
<trkpt lat="47.2784224" lon="3.9938617"><ele></ele><time>2022-6-4T9:54:18Z</time></trkpt>
<trkpt lat="47.2782548" lon="3.9937159"><ele></ele><time>2022-6-4T9:54:21Z</time></trkpt>
<trkpt lat="47.2780963" lon="3.9935577"><ele></ele><time>2022-6-4T9:54:24Z</time></trkpt>
<trkpt lat="47.2779309" lon="3.9934400"><ele></ele><time>2022-6-4T9:54:27Z</time></trkpt>
<trkpt lat="47.2777505" lon="3.9933245"><ele></ele><time>2022-6-4T9:54:30Z</time></trkpt>
<trkpt lat="47.2775520" lon="3.9932443"><ele></ele><time>2022-6-4T9:54:33Z</time></trkpt>
<trkpt lat="47.2773754" lon="3.9931310"><ele></ele><time>2022-6-4T9:54:36Z</time></trkpt>
<trkpt lat="47.2771929" lon="3.9930493"><ele></ele><time>2022-6-4T9:54:39Z</time></trkpt>
<trkpt lat="47.2770054" lon="3.9930069"><ele></ele><time>2022-6-4T9:54:42Z</time></trkpt>
<trkpt lat="47.2768302" lon="3.9929128"><ele></ele><time>2022-6-4T9:54:45Z</time></trkpt>
<trkpt lat="47.2766467" lon="3.9928441"><ele></ele><time>2022-6-4T9:54:48Z</time></trkpt>
<trkpt lat="47.2764562" lon="3.9927877"><ele></ele><time>2022-6-4T9:54:51Z</time></trkpt>
<trkpt lat="47.2762804" lon="3.9927114"><ele></ele><time>2022-6-4T9:54:54Z</time></trkpt>
<trkpt lat="47.2760973" lon="3.9926605"><ele></ele><time>2022-6-4T9:54:57Z</time></trkpt>
<trkpt lat="47.2759019" lon="3.9926142"><ele></ele><time>2022-6-4T9:55:0Z</time></trkpt>
<trkpt lat="47.2757199" lon="3.9925824"><ele></ele><time>2022-6-4T9:55:3Z</time></trkpt>
<trkpt lat="47.2755138" lon="3.9925773"><ele></ele><time>2022-6-4T9:55:6Z</time></trkpt>
<trkpt lat="47.2753201" lon="3.9925313"><ele></ele><time>2022-6-4T9:55:9Z</time></trkpt>
<trkpt lat="47.2751355" lon="3.9925601"><ele></ele><time>2022-6-4T9:55:12Z</time></trkpt>
<trkpt lat="47.2749352" lon="3.9926229"><ele></ele><time>2022-6-4T9:55:15Z</time></trkpt>
<trkpt lat="47.2747375" lon="3.9926719"><ele></ele><time>2022-6-4T9:55:18Z</time></trkpt>
<trkpt lat="47.2745486" lon="3.9925947"><ele></ele><time>2022-6-4T9:55:21Z</time></trkpt>
<trkpt lat="47.2743921" lon="3.9924332"><ele></ele><time>2022-6-4T9:55:24Z</time></trkpt>
<trkpt lat="47.2742080" lon="3.9923015"><ele></ele><time>2022-6-4T9:55:27Z</time></trkpt>
<trkpt lat="47.2740383" lon="3.9921759"><ele></ele><time>2022-6-4T9:55:30Z</time></trkpt>
<trkpt lat="47.2738537" lon="3.9922424"><ele></ele><time>2022-6-4T9:55:33Z</time></trkpt>
<trkpt lat="47.2736700" lon="3.9922775"><ele></ele><time>2022-6-4T9:55:36Z</time></trkpt>
<trkpt lat="47.2734781" lon="3.9922943"><ele></ele><time>2022-6-4T9:55:39Z</time></trkpt>
<trkpt lat="47.2732772" lon="3.9922376"><ele></ele><time>2022-6-4T9:55:42Z</time></trkpt>
<trkpt lat="47.2730885" lon="3.9921696"><ele></ele><time>2022-6-4T9:55:45Z</time></trkpt>
<trkpt lat="47.2729062" lon="3.9921924"><ele></ele><time>2022-6-4T9:55:48Z</time></trkpt>
<trkpt lat="47.2727205" lon="3.9922855"><ele></ele><time>2022-6-4T9:55:51Z</time></trkpt>
<trkpt lat="47.2725165" lon="3.9923826"><ele></ele><time>2022-6-4T9:55:54Z</time></trkpt>
<trkpt lat="47.2723375" lon="3.9925081"><ele></ele><time>2022-6-4T9:55:57Z</time></trkpt>
<trkpt lat="47.2721571" lon="3.9926495"><ele></ele><time>2022-6-4T9:56:0Z</time></trkpt>
<trkpt lat="47.2719725" lon="3.9927150"><ele></ele><time>2022-6-4T9:56:3Z</time></trkpt>
<trkpt lat="47.2717903" lon="3.9928477"><ele></ele><time>2022-6-4T9:56:6Z</time></trkpt>
<trkpt lat="47.2716094" lon="3.9929706"><ele></ele><time>2022-6-4T9:56:9Z</time></trkpt>
<trkpt lat="47.2713788" lon="3.9931147"><ele></ele><time>2022-6-4T9:56:12Z</time></trkpt>
<trkpt lat="47.2712209" lon="3.9932667"><ele></ele><time>2022-6-4T9:56:15Z</time></trkpt>
<trkpt lat="47.2710050" lon="3.9933704"><ele></ele><time>2022-6-4T9:56:18Z</time></trkpt>
<trkpt lat="47.2708033" lon="3.9933976"><ele></ele><time>2022-6-4T9:56:21Z</time></trkpt>
<trkpt lat="47.2705687" lon="3.9934230"><ele></ele><time>2022-6-4T9:56:24Z</time></trkpt>
<trkpt lat="47.2703705" lon="3.9934045"><ele></ele><time>2022-6-4T9:56:27Z</time></trkpt>
<trkpt lat="47.2701681" lon="3.9933534"><ele></ele><time>2022-6-4T9:56:30Z</time></trkpt>
<trkpt lat="47.2699484" lon="3.9933568"><ele></ele><time>2022-6-4T9:56:33Z</time></trkpt>
<trkpt lat="47.2697210" lon="3.9933082"><ele></ele><time>2022-6-4T9:56:36Z</time></trkpt>
<trkpt lat="47.2694939" lon="3.9932560"><ele></ele><time>2022-6-4T9:56:39Z</time></trkpt>
<trkpt lat="47.2693187" lon="3.9931575"><ele></ele><time>2022-6-4T9:56:42Z</time></trkpt>
<trkpt lat="47.2691012" lon="3.9930130"><ele></ele><time>2022-6-4T9:56:45Z</time></trkpt>
<trkpt lat="47.2688755" lon="3.9928961"><ele></ele><time>2022-6-4T9:56:48Z</time></trkpt>
<trkpt lat="47.2686734" lon="3.9927532"><ele></ele><time>2022-6-4T9:56:51Z</time></trkpt>
<trkpt lat="47.2684727" lon="3.9926293"><ele></ele><time>2022-6-4T9:56:54Z</time></trkpt>
<trkpt lat="47.2682973" lon="3.9924862"><ele></ele><time>2022-6-4T9:56:57Z</time></trkpt>
<trkpt lat="47.2680903" lon="3.9924951"><ele></ele><time>2022-6-4T9:57:0Z</time></trkpt>
<trkpt lat="47.2678505" lon="3.9925406"><ele></ele><time>2022-6-4T9:57:3Z</time></trkpt>
<trkpt lat="47.2675987" lon="3.9926041"><ele></ele><time>2022-6-4T9:57:6Z</time></trkpt>
<trkpt lat="47.2673438" lon="3.9927024"><ele></ele><time>2022-6-4T9:57:9Z</time></trkpt>
<trkpt lat="47.2670955" lon="3.9927819"><ele></ele><time>2022-6-4T9:57:12Z</time></trkpt>
<trkpt lat="47.2668231" lon="3.9928831"><ele></ele><time>2022-6-4T9:57:15Z</time></trkpt>
<trkpt lat="47.2666295" lon="3.9929312"><ele></ele><time>2022-6-4T9:57:18Z</time></trkpt>
<trkpt lat="47.2664273" lon="3.9929703"><ele></ele><time>2022-6-4T9:57:21Z</time></trkpt>
<trkpt lat="47.2661658" lon="3.9930107"><ele></ele><time>2022-6-4T9:57:24Z</time></trkpt>
<trkpt lat="47.2659765" lon="3.9929462"><ele></ele><time>2022-6-4T9:57:27Z</time></trkpt>
<trkpt lat="47.2658071" lon="3.9928409"><ele></ele><time>2022-6-4T9:57:30Z</time></trkpt>
<trkpt lat="47.2656356" lon="3.9927233"><ele></ele><time>2022-6-4T9:57:33Z</time></trkpt>
<trkpt lat="47.2654720" lon="3.9926026"><ele></ele><time>2022-6-4T9:57:36Z</time></trkpt>
<trkpt lat="47.2652752" lon="3.9924487"><ele></ele><time>2022-6-4T9:57:39Z</time></trkpt>
<trkpt lat="47.2651038" lon="3.9923276"><ele></ele><time>2022-6-4T9:57:42Z</time></trkpt>
<trkpt lat="47.2648963" lon="3.9922291"><ele></ele><time>2022-6-4T9:57:45Z</time></trkpt>
<trkpt lat="47.2646911" lon="3.9922391"><ele></ele><time>2022-6-4T9:57:48Z</time></trkpt>
<trkpt lat="47.2645055" lon="3.9922088"><ele></ele><time>2022-6-4T9:57:51Z</time></trkpt>
<trkpt lat="47.2643266" lon="3.9921513"><ele></ele><time>2022-6-4T9:57:54Z</time></trkpt>
<trkpt lat="47.2641545" lon="3.9920410"><ele></ele><time>2022-6-4T9:57:57Z</time></trkpt>
<trkpt lat="47.2639801" lon="3.9919678"><ele></ele><time>2022-6-4T9:58:0Z</time></trkpt>
<trkpt lat="47.2637983" lon="3.9919248"><ele></ele><time>2022-6-4T9:58:3Z</time></trkpt>
<trkpt lat="47.2635923" lon="3.9919296"><ele></ele><time>2022-6-4T9:58:6Z</time></trkpt>
<trkpt lat="47.2633950" lon="3.9919812"><ele></ele><time>2022-6-4T9:58:9Z</time></trkpt>
<trkpt lat="47.2632124" lon="3.9920997"><ele></ele><time>2022-6-4T9:58:12Z</time></trkpt>
<trkpt lat="47.2630504" lon="3.9922216"><ele></ele><time>2022-6-4T9:58:15Z</time></trkpt>
<trkpt lat="47.2628877" lon="3.9923556"><ele></ele><time>2022-6-4T9:58:18Z</time></trkpt>
<trkpt lat="47.2626955" lon="3.9923553"><ele></ele><time>2022-6-4T9:58:21Z</time></trkpt>
<trkpt lat="47.2624976" lon="3.9923545"><ele></ele><time>2022-6-4T9:58:24Z</time></trkpt>
<trkpt lat="47.2623342" lon="3.9922340"><ele></ele><time>2022-6-4T9:58:27Z</time></trkpt>
<trkpt lat="47.2621693" lon="3.9920760"><ele></ele><time>2022-6-4T9:58:30Z</time></trkpt>
<trkpt lat="47.2619919" lon="3.9920014"><ele></ele><time>2022-6-4T9:58:33Z</time></trkpt>
<trkpt lat="47.2617928" lon="3.9919281"><ele></ele><time>2022-6-4T9:58:36Z</time></trkpt>
<trkpt lat="47.2615857" lon="3.9918753"><ele></ele><time>2022-6-4T9:58:39Z</time></trkpt>
<trkpt lat="47.2614005" lon="3.9918276"><ele></ele><time>2022-6-4T9:58:42Z</time></trkpt>
<trkpt lat="47.2612171" lon="3.9918438"><ele></ele><time>2022-6-4T9:58:45Z</time></trkpt>
<trkpt lat="47.2610181" lon="3.9919122"><ele></ele><time>2022-6-4T9:58:48Z</time></trkpt>
<trkpt lat="47.2608556" lon="3.9920488"><ele></ele><time>2022-6-4T9:58:51Z</time></trkpt>
<trkpt lat="47.2606958" lon="3.9922033"><ele></ele><time>2022-6-4T9:58:54Z</time></trkpt>
<trkpt lat="47.2605367" lon="3.9923409"><ele></ele><time>2022-6-4T9:58:57Z</time></trkpt>
<trkpt lat="47.2603511" lon="3.9924631"><ele></ele><time>2022-6-4T9:59:0Z</time></trkpt>
<trkpt lat="47.2601589" lon="3.9925484"><ele></ele><time>2022-6-4T9:59:3Z</time></trkpt>
<trkpt lat="47.2599927" lon="3.9926791"><ele></ele><time>2022-6-4T9:59:6Z</time></trkpt>
<trkpt lat="47.2598271" lon="3.9928166"><ele></ele><time>2022-6-4T9:59:9Z</time></trkpt>
<trkpt lat="47.2596595" lon="3.9929218"><ele></ele><time>2022-6-4T9:59:12Z</time></trkpt>
<trkpt lat="47.2594690" lon="3.9930150"><ele></ele><time>2022-6-4T9:59:15Z</time></trkpt>
<trkpt lat="47.2593042" lon="3.9931407"><ele></ele><time>2022-6-4T9:59:18Z</time></trkpt>
<trkpt lat="47.2591212" lon="3.9931393"><ele></ele><time>2022-6-4T9:59:21Z</time></trkpt>
<trkpt lat="47.2589446" lon="3.9930668"><ele></ele><time>2022-6-4T9:59:24Z</time></trkpt>
<trkpt lat="47.2587690" lon="3.9929939"><ele></ele><time>2022-6-4T9:59:27Z</time></trkpt>
<trkpt lat="47.2585751" lon="3.9929377"><ele></ele><time>2022-6-4T9:59:30Z</time></trkpt>
<trkpt lat="47.2583907" lon="3.9929371"><ele></ele><time>2022-6-4T9:59:33Z</time></trkpt>
<trkpt lat="47.2582068" lon="3.9929724"><ele></ele><time>2022-6-4T9:59:36Z</time></trkpt>
<trkpt lat="47.2580283" lon="3.9930283"><ele></ele><time>2022-6-4T9:59:39Z</time></trkpt>
<trkpt lat="47.2578350" lon="3.9929930"><ele></ele><time>2022-6-4T9:59:42Z</time></trkpt>
<trkpt lat="47.2576525" lon="3.9928888"><ele></ele><time>2022-6-4T9:59:45Z</time></trkpt>
<trkpt lat="47.2574668" lon="3.9928115"><ele></ele><time>2022-6-4T9:59:48Z</time></trkpt>
<trkpt lat="47.2572960" lon="3.9926889"><ele></ele><time>2022-6-4T9:59:51Z</time></trkpt>
<trkpt lat="47.2571917" lon="3.9924541"><ele></ele><time>2022-6-4T9:59:54Z</time></trkpt>
<trkpt lat="47.2571125" lon="3.9922115"><ele></ele><time>2022-6-4T9:59:57Z</time></trkpt>
<trkpt lat="47.2570333" lon="3.9919383"><ele></ele><time>2022-6-4T10:0:0Z</time></trkpt>
<trkpt lat="47.2569576" lon="3.9916628"><ele></ele><time>2022-6-4T10:0:3Z</time></trkpt>
<trkpt lat="47.2568549" lon="3.9914095"><ele></ele><time>2022-6-4T10:0:6Z</time></trkpt>
<trkpt lat="47.2567470" lon="3.9911911"><ele></ele><time>2022-6-4T10:0:9Z</time></trkpt>
<trkpt lat="47.2565690" lon="3.9910407"><ele></ele><time>2022-6-4T10:0:12Z</time></trkpt>
<trkpt lat="47.2563975" lon="3.9909337"><ele></ele><time>2022-6-4T10:0:15Z</time></trkpt>
<trkpt lat="47.2561970" lon="3.9908952"><ele></ele><time>2022-6-4T10:0:18Z</time></trkpt>
<trkpt lat="47.2559869" lon="3.9909087"><ele></ele><time>2022-6-4T10:0:21Z</time></trkpt>
<trkpt lat="47.2557893" lon="3.9909788"><ele></ele><time>2022-6-4T10:0:24Z</time></trkpt>
<trkpt lat="47.2555836" lon="3.9910461"><ele></ele><time>2022-6-4T10:0:27Z</time></trkpt>
<trkpt lat="47.2553851" lon="3.9911524"><ele></ele><time>2022-6-4T10:0:30Z</time></trkpt>
<trkpt lat="47.2552025" lon="3.9912342"><ele></ele><time>2022-6-4T10:0:33Z</time></trkpt>
<trkpt lat="47.2550071" lon="3.9913463"><ele></ele><time>2022-6-4T10:0:36Z</time></trkpt>
<trkpt lat="47.2548572" lon="3.9914958"><ele></ele><time>2022-6-4T10:0:39Z</time></trkpt>
<trkpt lat="47.2546936" lon="3.9916633"><ele></ele><time>2022-6-4T10:0:42Z</time></trkpt>
<trkpt lat="47.2545282" lon="3.9917755"><ele></ele><time>2022-6-4T10:0:45Z</time></trkpt>
<trkpt lat="47.2543876" lon="3.9919586"><ele></ele><time>2022-6-4T10:0:48Z</time></trkpt>
<trkpt lat="47.2542517" lon="3.9921556"><ele></ele><time>2022-6-4T10:0:51Z</time></trkpt>
<trkpt lat="47.2541362" lon="3.9923591"><ele></ele><time>2022-6-4T10:0:54Z</time></trkpt>
<trkpt lat="47.2540072" lon="3.9925974"><ele></ele><time>2022-6-4T10:0:57Z</time></trkpt>
<trkpt lat="47.2538713" lon="3.9928131"><ele></ele><time>2022-6-4T10:1:0Z</time></trkpt>
<trkpt lat="47.2537538" lon="3.9930198"><ele></ele><time>2022-6-4T10:1:3Z</time></trkpt>
<trkpt lat="47.2536256" lon="3.9932418"><ele></ele><time>2022-6-4T10:1:6Z</time></trkpt>
<trkpt lat="47.2534788" lon="3.9934043"><ele></ele><time>2022-6-4T10:1:9Z</time></trkpt>
<trkpt lat="47.2535538" lon="3.9937007"><ele></ele><time>2022-6-4T10:1:12Z</time></trkpt>
<trkpt lat="47.2536123" lon="3.9939912"><ele></ele><time>2022-6-4T10:1:15Z</time></trkpt>
<trkpt lat="47.2536875" lon="3.9943173"><ele></ele><time>2022-6-4T10:1:18Z</time></trkpt>
<trkpt lat="47.2537082" lon="3.9946008"><ele></ele><time>2022-6-4T10:1:21Z</time></trkpt>
<trkpt lat="47.2537072" lon="3.9949261"><ele></ele><time>2022-6-4T10:1:24Z</time></trkpt>
<trkpt lat="47.2537416" lon="3.9952223"><ele></ele><time>2022-6-4T10:1:27Z</time></trkpt>
<trkpt lat="47.2538232" lon="3.9954822"><ele></ele><time>2022-6-4T10:1:30Z</time></trkpt>
<trkpt lat="47.2539352" lon="3.9957131"><ele></ele><time>2022-6-4T10:1:33Z</time></trkpt>
<trkpt lat="47.2540594" lon="3.9959529"><ele></ele><time>2022-6-4T10:1:36Z</time></trkpt>
<trkpt lat="47.2541920" lon="3.9961635"><ele></ele><time>2022-6-4T10:1:39Z</time></trkpt>
<trkpt lat="47.2543282" lon="3.9963623"><ele></ele><time>2022-6-4T10:1:42Z</time></trkpt>
<trkpt lat="47.2544801" lon="3.9965898"><ele></ele><time>2022-6-4T10:1:45Z</time></trkpt>
<trkpt lat="47.2546377" lon="3.9967942"><ele></ele><time>2022-6-4T10:1:48Z</time></trkpt>
<trkpt lat="47.2547945" lon="3.9970029"><ele></ele><time>2022-6-4T10:1:51Z</time></trkpt>
<trkpt lat="47.2549257" lon="3.9972102"><ele></ele><time>2022-6-4T10:1:54Z</time></trkpt>
<trkpt lat="47.2550512" lon="3.9974483"><ele></ele><time>2022-6-4T10:1:57Z</time></trkpt>
<trkpt lat="47.2551881" lon="3.9976478"><ele></ele><time>2022-6-4T10:2:0Z</time></trkpt>
<trkpt lat="47.2553204" lon="3.9978828"><ele></ele><time>2022-6-4T10:2:3Z</time></trkpt>
<trkpt lat="47.2554307" lon="3.9981218"><ele></ele><time>2022-6-4T10:2:6Z</time></trkpt>
<trkpt lat="47.2555468" lon="3.9983792"><ele></ele><time>2022-6-4T10:2:9Z</time></trkpt>
<trkpt lat="47.2556561" lon="3.9985939"><ele></ele><time>2022-6-4T10:2:12Z</time></trkpt>
<trkpt lat="47.2557551" lon="3.9988313"><ele></ele><time>2022-6-4T10:2:15Z</time></trkpt>
<trkpt lat="47.2558913" lon="3.9990409"><ele></ele><time>2022-6-4T10:2:18Z</time></trkpt>
<trkpt lat="47.2560076" lon="3.9993229"><ele></ele><time>2022-6-4T10:2:21Z</time></trkpt>
<trkpt lat="47.2560920" lon="3.9996114"><ele></ele><time>2022-6-4T10:2:24Z</time></trkpt>
<trkpt lat="47.2561561" lon="3.9998931"><ele></ele><time>2022-6-4T10:2:27Z</time></trkpt>
<trkpt lat="47.2562268" lon="4.0001838"><ele></ele><time>2022-6-4T10:2:30Z</time></trkpt>
<trkpt lat="47.2562947" lon="4.0004773"><ele></ele><time>2022-6-4T10:2:33Z</time></trkpt>
<trkpt lat="47.2563717" lon="4.0007926"><ele></ele><time>2022-6-4T10:2:36Z</time></trkpt>
<trkpt lat="47.2564350" lon="4.0010844"><ele></ele><time>2022-6-4T10:2:39Z</time></trkpt>
<trkpt lat="47.2564557" lon="4.0013713"><ele></ele><time>2022-6-4T10:2:42Z</time></trkpt>
<trkpt lat="47.2564024" lon="4.0016287"><ele></ele><time>2022-6-4T10:2:45Z</time></trkpt>
<trkpt lat="47.2563456" lon="4.0019584"><ele></ele><time>2022-6-4T10:2:48Z</time></trkpt>
<trkpt lat="47.2562822" lon="4.0022131"><ele></ele><time>2022-6-4T10:2:51Z</time></trkpt>
<trkpt lat="47.2563540" lon="4.0024853"><ele></ele><time>2022-6-4T10:2:54Z</time></trkpt>
<trkpt lat="47.2564481" lon="4.0027218"><ele></ele><time>2022-6-4T10:2:57Z</time></trkpt>
<trkpt lat="47.2565777" lon="4.0029589"><ele></ele><time>2022-6-4T10:3:0Z</time></trkpt>
<trkpt lat="47.2567580" lon="4.0030432"><ele></ele><time>2022-6-4T10:3:3Z</time></trkpt>
<trkpt lat="47.2569511" lon="4.0031370"><ele></ele><time>2022-6-4T10:3:6Z</time></trkpt>
<trkpt lat="47.2571396" lon="4.0031997"><ele></ele><time>2022-6-4T10:3:9Z</time></trkpt>
<trkpt lat="47.2573353" lon="4.0032871"><ele></ele><time>2022-6-4T10:3:12Z</time></trkpt>
<trkpt lat="47.2574925" lon="4.0034219"><ele></ele><time>2022-6-4T10:3:15Z</time></trkpt>
<trkpt lat="47.2576432" lon="4.0036131"><ele></ele><time>2022-6-4T10:3:18Z</time></trkpt>
<trkpt lat="47.2577920" lon="4.0038008"><ele></ele><time>2022-6-4T10:3:21Z</time></trkpt>
<trkpt lat="47.2579387" lon="4.0039618"><ele></ele><time>2022-6-4T10:3:24Z</time></trkpt>
<trkpt lat="47.2580865" lon="4.0041614"><ele></ele><time>2022-6-4T10:3:27Z</time></trkpt>
<trkpt lat="47.2582080" lon="4.0043761"><ele></ele><time>2022-6-4T10:3:30Z</time></trkpt>
<trkpt lat="47.2583089" lon="4.0046089"><ele></ele><time>2022-6-4T10:3:33Z</time></trkpt>
<trkpt lat="47.2583841" lon="4.0048760"><ele></ele><time>2022-6-4T10:3:36Z</time></trkpt>
<trkpt lat="47.2584466" lon="4.0051435"><ele></ele><time>2022-6-4T10:3:39Z</time></trkpt>
<trkpt lat="47.2585287" lon="4.0054165"><ele></ele><time>2022-6-4T10:3:42Z</time></trkpt>
<trkpt lat="47.2585966" lon="4.0057049"><ele></ele><time>2022-6-4T10:3:45Z</time></trkpt>
<trkpt lat="47.2586317" lon="4.0059832"><ele></ele><time>2022-6-4T10:3:48Z</time></trkpt>
<trkpt lat="47.2586678" lon="4.0062689"><ele></ele><time>2022-6-4T10:3:51Z</time></trkpt>
<trkpt lat="47.2587830" lon="4.0064749"><ele></ele><time>2022-6-4T10:3:54Z</time></trkpt>
<trkpt lat="47.2589653" lon="4.0065551"><ele></ele><time>2022-6-4T10:3:57Z</time></trkpt>
<trkpt lat="47.2591603" lon="4.0066881"><ele></ele><time>2022-6-4T10:4:0Z</time></trkpt>
<trkpt lat="47.2593244" lon="4.0068192"><ele></ele><time>2022-6-4T10:4:3Z</time></trkpt>
<trkpt lat="47.2594843" lon="4.0070105"><ele></ele><time>2022-6-4T10:4:6Z</time></trkpt>
<trkpt lat="47.2596014" lon="4.0072622"><ele></ele><time>2022-6-4T10:4:9Z</time></trkpt>
<trkpt lat="47.2597310" lon="4.0074695"><ele></ele><time>2022-6-4T10:4:12Z</time></trkpt>
<trkpt lat="47.2598498" lon="4.0077137"><ele></ele><time>2022-6-4T10:4:15Z</time></trkpt>
<trkpt lat="47.2599549" lon="4.0079373"><ele></ele><time>2022-6-4T10:4:18Z</time></trkpt>
<trkpt lat="47.2600736" lon="4.0081834"><ele></ele><time>2022-6-4T10:4:21Z</time></trkpt>
<trkpt lat="47.2601826" lon="4.0083951"><ele></ele><time>2022-6-4T10:4:24Z</time></trkpt>
<trkpt lat="47.2602917" lon="4.0086240"><ele></ele><time>2022-6-4T10:4:27Z</time></trkpt>
<trkpt lat="47.2603789" lon="4.0088827"><ele></ele><time>2022-6-4T10:4:30Z</time></trkpt>
<trkpt lat="47.2604527" lon="4.0091358"><ele></ele><time>2022-6-4T10:4:33Z</time></trkpt>
<trkpt lat="47.2605627" lon="4.0093485"><ele></ele><time>2022-6-4T10:4:36Z</time></trkpt>
<trkpt lat="47.2606751" lon="4.0096000"><ele></ele><time>2022-6-4T10:4:39Z</time></trkpt>
<trkpt lat="47.2607638" lon="4.0098525"><ele></ele><time>2022-6-4T10:4:42Z</time></trkpt>
<trkpt lat="47.2608592" lon="4.0101220"><ele></ele><time>2022-6-4T10:4:45Z</time></trkpt>
<trkpt lat="47.2609654" lon="4.0103617"><ele></ele><time>2022-6-4T10:4:48Z</time></trkpt>
<trkpt lat="47.2610744" lon="4.0106059"><ele></ele><time>2022-6-4T10:4:51Z</time></trkpt>
<trkpt lat="47.2611920" lon="4.0108130"><ele></ele><time>2022-6-4T10:4:54Z</time></trkpt>
<trkpt lat="47.2613033" lon="4.0110319"><ele></ele><time>2022-6-4T10:4:57Z</time></trkpt>
<trkpt lat="47.2614013" lon="4.0112596"><ele></ele><time>2022-6-4T10:5:0Z</time></trkpt>
<trkpt lat="47.2615331" lon="4.0114853"><ele></ele><time>2022-6-4T10:5:3Z</time></trkpt>
<trkpt lat="47.2615943" lon="4.0117402"><ele></ele><time>2022-6-4T10:5:6Z</time></trkpt>
<trkpt lat="47.2616901" lon="4.0119803"><ele></ele><time>2022-6-4T10:5:9Z</time></trkpt>
<trkpt lat="47.2617792" lon="4.0122454"><ele></ele><time>2022-6-4T10:5:12Z</time></trkpt>
<trkpt lat="47.2618458" lon="4.0125069"><ele></ele><time>2022-6-4T10:5:15Z</time></trkpt>
<trkpt lat="47.2619065" lon="4.0128086"><ele></ele><time>2022-6-4T10:5:18Z</time></trkpt>
<trkpt lat="47.2620203" lon="4.0130433"><ele></ele><time>2022-6-4T10:5:21Z</time></trkpt>
<trkpt lat="47.2621544" lon="4.0132464"><ele></ele><time>2022-6-4T10:5:24Z</time></trkpt>
<trkpt lat="47.2623001" lon="4.0134222"><ele></ele><time>2022-6-4T10:5:27Z</time></trkpt>
<trkpt lat="47.2624594" lon="4.0136348"><ele></ele><time>2022-6-4T10:5:30Z</time></trkpt>
<trkpt lat="47.2626147" lon="4.0138921"><ele></ele><time>2022-6-4T10:5:33Z</time></trkpt>
<trkpt lat="47.2627437" lon="4.0141437"><ele></ele><time>2022-6-4T10:5:36Z</time></trkpt>
<trkpt lat="47.2628500" lon="4.0143996"><ele></ele><time>2022-6-4T10:5:39Z</time></trkpt>
<trkpt lat="47.2629760" lon="4.0146424"><ele></ele><time>2022-6-4T10:5:42Z</time></trkpt>
<trkpt lat="47.2630888" lon="4.0148972"><ele></ele><time>2022-6-4T10:5:45Z</time></trkpt>
<trkpt lat="47.2632342" lon="4.0151496"><ele></ele><time>2022-6-4T10:5:48Z</time></trkpt>
<trkpt lat="47.2633677" lon="4.0153658"><ele></ele><time>2022-6-4T10:5:51Z</time></trkpt>
<trkpt lat="47.2635308" lon="4.0155647"><ele></ele><time>2022-6-4T10:5:54Z</time></trkpt>
<trkpt lat="47.2637030" lon="4.0157421"><ele></ele><time>2022-6-4T10:5:57Z</time></trkpt>
<trkpt lat="47.2638583" lon="4.0159155"><ele></ele><time>2022-6-4T10:6:0Z</time></trkpt>
<trkpt lat="47.2640171" lon="4.0160528"><ele></ele><time>2022-6-4T10:6:3Z</time></trkpt>
<trkpt lat="47.2641807" lon="4.0162563"><ele></ele><time>2022-6-4T10:6:6Z</time></trkpt>
<trkpt lat="47.2643192" lon="4.0164460"><ele></ele><time>2022-6-4T10:6:9Z</time></trkpt>
<trkpt lat="47.2644543" lon="4.0166469"><ele></ele><time>2022-6-4T10:6:12Z</time></trkpt>
<trkpt lat="47.2645619" lon="4.0168865"><ele></ele><time>2022-6-4T10:6:15Z</time></trkpt>
<trkpt lat="47.2647011" lon="4.0170892"><ele></ele><time>2022-6-4T10:6:18Z</time></trkpt>
<trkpt lat="47.2649136" lon="4.0172098"><ele></ele><time>2022-6-4T10:6:21Z</time></trkpt>
<trkpt lat="47.2651041" lon="4.0173645"><ele></ele><time>2022-6-4T10:6:24Z</time></trkpt>
<trkpt lat="47.2652703" lon="4.0175391"><ele></ele><time>2022-6-4T10:6:27Z</time></trkpt>
<trkpt lat="47.2654192" lon="4.0177244"><ele></ele><time>2022-6-4T10:6:30Z</time></trkpt>
<trkpt lat="47.2654899" lon="4.0180286"><ele></ele><time>2022-6-4T10:6:33Z</time></trkpt>
<trkpt lat="47.2655159" lon="4.0183953"><ele></ele><time>2022-6-4T10:6:36Z</time></trkpt>
<trkpt lat="47.2655017" lon="4.0187576"><ele></ele><time>2022-6-4T10:6:39Z</time></trkpt>
<trkpt lat="47.2654907" lon="4.0190923"><ele></ele><time>2022-6-4T10:6:42Z</time></trkpt>
<trkpt lat="47.2654863" lon="4.0194138"><ele></ele><time>2022-6-4T10:6:45Z</time></trkpt>
<trkpt lat="47.2655554" lon="4.0197023"><ele></ele><time>2022-6-4T10:6:48Z</time></trkpt>
<trkpt lat="47.2656470" lon="4.0199784"><ele></ele><time>2022-6-4T10:6:51Z</time></trkpt>
<trkpt lat="47.2657047" lon="4.0202773"><ele></ele><time>2022-6-4T10:6:54Z</time></trkpt>
<trkpt lat="47.2658495" lon="4.0205055"><ele></ele><time>2022-6-4T10:6:57Z</time></trkpt>
<trkpt lat="47.2659982" lon="4.0206872"><ele></ele><time>2022-6-4T10:7:0Z</time></trkpt>
<trkpt lat="47.2661316" lon="4.0209553"><ele></ele><time>2022-6-4T10:7:3Z</time></trkpt>
<trkpt lat="47.2662712" lon="4.0212570"><ele></ele><time>2022-6-4T10:7:6Z</time></trkpt>
<trkpt lat="47.2663394" lon="4.0215242"><ele></ele><time>2022-6-4T10:7:9Z</time></trkpt>
<trkpt lat="47.2664527" lon="4.0218680"><ele></ele><time>2022-6-4T10:7:12Z</time></trkpt>
<trkpt lat="47.2665270" lon="4.0221235"><ele></ele><time>2022-6-4T10:7:15Z</time></trkpt>
<trkpt lat="47.2666154" lon="4.0224212"><ele></ele><time>2022-6-4T10:7:18Z</time></trkpt>
<trkpt lat="47.2666981" lon="4.0226826"><ele></ele><time>2022-6-4T10:7:21Z</time></trkpt>
<trkpt lat="47.2667981" lon="4.0229521"><ele></ele><time>2022-6-4T10:7:24Z</time></trkpt>
<trkpt lat="47.2669244" lon="4.0231839"><ele></ele><time>2022-6-4T10:7:27Z</time></trkpt>
<trkpt lat="47.2670190" lon="4.0234256"><ele></ele><time>2022-6-4T10:7:30Z</time></trkpt>
<trkpt lat="47.2670884" lon="4.0237008"><ele></ele><time>2022-6-4T10:7:33Z</time></trkpt>
<trkpt lat="47.2671600" lon="4.0239951"><ele></ele><time>2022-6-4T10:7:36Z</time></trkpt>
<trkpt lat="47.2672794" lon="4.0242367"><ele></ele><time>2022-6-4T10:7:39Z</time></trkpt>
<trkpt lat="47.2674135" lon="4.0244951"><ele></ele><time>2022-6-4T10:7:42Z</time></trkpt>
<trkpt lat="47.2674801" lon="4.0247795"><ele></ele><time>2022-6-4T10:7:45Z</time></trkpt>
<trkpt lat="47.2674567" lon="4.0251351"><ele></ele><time>2022-6-4T10:7:48Z</time></trkpt>
<trkpt lat="47.2674303" lon="4.0255046"><ele></ele><time>2022-6-4T10:7:51Z</time></trkpt>
<trkpt lat="47.2674474" lon="4.0258331"><ele></ele><time>2022-6-4T10:7:54Z</time></trkpt>
<trkpt lat="47.2674942" lon="4.0261049"><ele></ele><time>2022-6-4T10:7:57Z</time></trkpt>
<trkpt lat="47.2675945" lon="4.0264004"><ele></ele><time>2022-6-4T10:8:0Z</time></trkpt>
<trkpt lat="47.2677718" lon="4.0266105"><ele></ele><time>2022-6-4T10:8:3Z</time></trkpt>
<trkpt lat="47.2679656" lon="4.0266697"><ele></ele><time>2022-6-4T10:8:6Z</time></trkpt>
<trkpt lat="47.2681817" lon="4.0266978"><ele></ele><time>2022-6-4T10:8:9Z</time></trkpt>
<trkpt lat="47.2683846" lon="4.0267555"><ele></ele><time>2022-6-4T10:8:12Z</time></trkpt>
<trkpt lat="47.2685782" lon="4.0268792"><ele></ele><time>2022-6-4T10:8:15Z</time></trkpt>
<trkpt lat="47.2687077" lon="4.0270664"><ele></ele><time>2022-6-4T10:8:18Z</time></trkpt>
<trkpt lat="47.2687299" lon="4.0273523"><ele></ele><time>2022-6-4T10:8:21Z</time></trkpt>
<trkpt lat="47.2686281" lon="4.0276041"><ele></ele><time>2022-6-4T10:8:24Z</time></trkpt>
<trkpt lat="47.2685025" lon="4.0278252"><ele></ele><time>2022-6-4T10:8:27Z</time></trkpt>
<trkpt lat="47.2684217" lon="4.0280657"><ele></ele><time>2022-6-4T10:8:30Z</time></trkpt>
<trkpt lat="47.2684093" lon="4.0283312"><ele></ele><time>2022-6-4T10:8:33Z</time></trkpt>
<trkpt lat="47.2684967" lon="4.0285707"><ele></ele><time>2022-6-4T10:8:36Z</time></trkpt>
<trkpt lat="47.2686309" lon="4.0287806"><ele></ele><time>2022-6-4T10:8:39Z</time></trkpt>
<trkpt lat="47.2688150" lon="4.0287885"><ele></ele><time>2022-6-4T10:8:42Z</time></trkpt>
<trkpt lat="47.2689964" lon="4.0288198"><ele></ele><time>2022-6-4T10:8:45Z</time></trkpt>
<trkpt lat="47.2692015" lon="4.0288287"><ele></ele><time>2022-6-4T10:8:48Z</time></trkpt>
<trkpt lat="47.2694060" lon="4.0288721"><ele></ele><time>2022-6-4T10:8:51Z</time></trkpt>
<trkpt lat="47.2695930" lon="4.0289307"><ele></ele><time>2022-6-4T10:8:54Z</time></trkpt>
<trkpt lat="47.2697652" lon="4.0290181"><ele></ele><time>2022-6-4T10:8:57Z</time></trkpt>
<trkpt lat="47.2699426" lon="4.0291502"><ele></ele><time>2022-6-4T10:9:0Z</time></trkpt>
<trkpt lat="47.2701176" lon="4.0292544"><ele></ele><time>2022-6-4T10:9:3Z</time></trkpt>
<trkpt lat="47.2702981" lon="4.0293179"><ele></ele><time>2022-6-4T10:9:6Z</time></trkpt>
<trkpt lat="47.2704605" lon="4.0294666"><ele></ele><time>2022-6-4T10:9:9Z</time></trkpt>
<trkpt lat="47.2705815" lon="4.0296886"><ele></ele><time>2022-6-4T10:9:12Z</time></trkpt>
<trkpt lat="47.2706790" lon="4.0299166"><ele></ele><time>2022-6-4T10:9:15Z</time></trkpt>
<trkpt lat="47.2708248" lon="4.0300990"><ele></ele><time>2022-6-4T10:9:18Z</time></trkpt>
<trkpt lat="47.2709747" lon="4.0302644"><ele></ele><time>2022-6-4T10:9:21Z</time></trkpt>
<trkpt lat="47.2711407" lon="4.0304313"><ele></ele><time>2022-6-4T10:9:24Z</time></trkpt>
<trkpt lat="47.2712814" lon="4.0306130"><ele></ele><time>2022-6-4T10:9:27Z</time></trkpt>
<trkpt lat="47.2714297" lon="4.0307907"><ele></ele><time>2022-6-4T10:9:30Z</time></trkpt>
<trkpt lat="47.2716107" lon="4.0309070"><ele></ele><time>2022-6-4T10:9:33Z</time></trkpt>
<trkpt lat="47.2717881" lon="4.0310188"><ele></ele><time>2022-6-4T10:9:36Z</time></trkpt>
<trkpt lat="47.2719805" lon="4.0311465"><ele></ele><time>2022-6-4T10:9:39Z</time></trkpt>
<trkpt lat="47.2721600" lon="4.0312328"><ele></ele><time>2022-6-4T10:9:42Z</time></trkpt>
<trkpt lat="47.2723575" lon="4.0313334"><ele></ele><time>2022-6-4T10:9:45Z</time></trkpt>
<trkpt lat="47.2725785" lon="4.0313988"><ele></ele><time>2022-6-4T10:9:48Z</time></trkpt>
<trkpt lat="47.2727632" lon="4.0314613"><ele></ele><time>2022-6-4T10:9:51Z</time></trkpt>
<trkpt lat="47.2729732" lon="4.0315239"><ele></ele><time>2022-6-4T10:9:54Z</time></trkpt>
<trkpt lat="47.2731515" lon="4.0316316"><ele></ele><time>2022-6-4T10:9:57Z</time></trkpt>
<trkpt lat="47.2732779" lon="4.0318834"><ele></ele><time>2022-6-4T10:10:0Z</time></trkpt>
<trkpt lat="47.2733510" lon="4.0321627"><ele></ele><time>2022-6-4T10:10:3Z</time></trkpt>
<trkpt lat="47.2734008" lon="4.0324639"><ele></ele><time>2022-6-4T10:10:6Z</time></trkpt>
<trkpt lat="47.2734481" lon="4.0327750"><ele></ele><time>2022-6-4T10:10:9Z</time></trkpt>
<trkpt lat="47.2734722" lon="4.0330823"><ele></ele><time>2022-6-4T10:10:12Z</time></trkpt>
<trkpt lat="47.2734859" lon="4.0334265"><ele></ele><time>2022-6-4T10:10:15Z</time></trkpt>
<trkpt lat="47.2734744" lon="4.0338025"><ele></ele><time>2022-6-4T10:10:18Z</time></trkpt>
<trkpt lat="47.2734749" lon="4.0341576"><ele></ele><time>2022-6-4T10:10:21Z</time></trkpt>
<trkpt lat="47.2735623" lon="4.0344109"><ele></ele><time>2022-6-4T10:10:24Z</time></trkpt>
<trkpt lat="47.2737721" lon="4.0344757"><ele></ele><time>2022-6-4T10:10:27Z</time></trkpt>
<trkpt lat="47.2739659" lon="4.0344566"><ele></ele><time>2022-6-4T10:10:30Z</time></trkpt>
<trkpt lat="47.2741476" lon="4.0344703"><ele></ele><time>2022-6-4T10:10:33Z</time></trkpt>
<trkpt lat="47.2742906" lon="4.0346315"><ele></ele><time>2022-6-4T10:10:36Z</time></trkpt>
<trkpt lat="47.2744579" lon="4.0347940"><ele></ele><time>2022-6-4T10:10:39Z</time></trkpt>
<trkpt lat="47.2746048" lon="4.0349669"><ele></ele><time>2022-6-4T10:10:42Z</time></trkpt>
<trkpt lat="47.2747172" lon="4.0351930"><ele></ele><time>2022-6-4T10:10:45Z</time></trkpt>
<trkpt lat="47.2748300" lon="4.0354320"><ele></ele><time>2022-6-4T10:10:48Z</time></trkpt>
<trkpt lat="47.2748917" lon="4.0357288"><ele></ele><time>2022-6-4T10:10:51Z</time></trkpt>
<trkpt lat="47.2749564" lon="4.0360283"><ele></ele><time>2022-6-4T10:10:54Z</time></trkpt>
<trkpt lat="47.2749956" lon="4.0363176"><ele></ele><time>2022-6-4T10:10:57Z</time></trkpt>
<trkpt lat="47.2749750" lon="4.0366113"><ele></ele><time>2022-6-4T10:11:0Z</time></trkpt>
<trkpt lat="47.2748810" lon="4.0368536"><ele></ele><time>2022-6-4T10:11:3Z</time></trkpt>
<trkpt lat="47.2747262" lon="4.0370969"><ele></ele><time>2022-6-4T10:11:6Z</time></trkpt>
<trkpt lat="47.2745602" lon="4.0372829"><ele></ele><time>2022-6-4T10:11:9Z</time></trkpt>
<trkpt lat="47.2743784" lon="4.0374942"><ele></ele><time>2022-6-4T10:11:12Z</time></trkpt>
<trkpt lat="47.2742391" lon="4.0376757"><ele></ele><time>2022-6-4T10:11:15Z</time></trkpt>
<trkpt lat="47.2740939" lon="4.0378349"><ele></ele><time>2022-6-4T10:11:18Z</time></trkpt>
<trkpt lat="47.2738953" lon="4.0379975"><ele></ele><time>2022-6-4T10:11:21Z</time></trkpt>
<trkpt lat="47.2737142" lon="4.0382215"><ele></ele><time>2022-6-4T10:11:24Z</time></trkpt>
<trkpt lat="47.2736666" lon="4.0384943"><ele></ele><time>2022-6-4T10:11:27Z</time></trkpt>
<trkpt lat="47.2736330" lon="4.0388050"><ele></ele><time>2022-6-4T10:11:30Z</time></trkpt>
<trkpt lat="47.2736218" lon="4.0391375"><ele></ele><time>2022-6-4T10:11:33Z</time></trkpt>
<trkpt lat="47.2735897" lon="4.0394259"><ele></ele><time>2022-6-4T10:11:36Z</time></trkpt>
<trkpt lat="47.2734473" lon="4.0396420"><ele></ele><time>2022-6-4T10:11:39Z</time></trkpt>
<trkpt lat="47.2732642" lon="4.0396601"><ele></ele><time>2022-6-4T10:11:42Z</time></trkpt>
<trkpt lat="47.2730712" lon="4.0396561"><ele></ele><time>2022-6-4T10:11:45Z</time></trkpt>
<trkpt lat="47.2728604" lon="4.0395952"><ele></ele><time>2022-6-4T10:11:48Z</time></trkpt>
<trkpt lat="47.2727128" lon="4.0394120"><ele></ele><time>2022-6-4T10:11:51Z</time></trkpt>
<trkpt lat="47.2726700" lon="4.0391223"><ele></ele><time>2022-6-4T10:11:54Z</time></trkpt>
<trkpt lat="47.2726456" lon="4.0388325"><ele></ele><time>2022-6-4T10:11:57Z</time></trkpt>
<trkpt lat="47.2725411" lon="4.0385752"><ele></ele><time>2022-6-4T10:12:0Z</time></trkpt>
<trkpt lat="47.2723474" lon="4.0386549"><ele></ele><time>2022-6-4T10:12:3Z</time></trkpt>
<trkpt lat="47.2721917" lon="4.0388399"><ele></ele><time>2022-6-4T10:12:6Z</time></trkpt>
<trkpt lat="47.2720572" lon="4.0390552"><ele></ele><time>2022-6-4T10:12:9Z</time></trkpt>
<trkpt lat="47.2719049" lon="4.0392738"><ele></ele><time>2022-6-4T10:12:12Z</time></trkpt>
<trkpt lat="47.2718253" lon="4.0395232"><ele></ele><time>2022-6-4T10:12:15Z</time></trkpt>
<trkpt lat="47.2717245" lon="4.0398063"><ele></ele><time>2022-6-4T10:12:18Z</time></trkpt>
<trkpt lat="47.2716193" lon="4.0400412"><ele></ele><time>2022-6-4T10:12:21Z</time></trkpt>
<trkpt lat="47.2714494" lon="4.0401666"><ele></ele><time>2022-6-4T10:12:24Z</time></trkpt>
<trkpt lat="47.2712659" lon="4.0400950"><ele></ele><time>2022-6-4T10:12:27Z</time></trkpt>
<trkpt lat="47.2712067" lon="4.0403815"><ele></ele><time>2022-6-4T10:12:30Z</time></trkpt>
<trkpt lat="47.2712502" lon="4.0406672"><ele></ele><time>2022-6-4T10:12:33Z</time></trkpt>
<trkpt lat="47.2712283" lon="4.0409514"><ele></ele><time>2022-6-4T10:12:36Z</time></trkpt>
<trkpt lat="47.2712787" lon="4.0412221"><ele></ele><time>2022-6-4T10:12:39Z</time></trkpt>
<trkpt lat="47.2712885" lon="4.0415119"><ele></ele><time>2022-6-4T10:12:42Z</time></trkpt>
<trkpt lat="47.2714378" lon="4.0416970"><ele></ele><time>2022-6-4T10:12:45Z</time></trkpt>
<trkpt lat="47.2716249" lon="4.0416786"><ele></ele><time>2022-6-4T10:12:48Z</time></trkpt>
<trkpt lat="47.2718109" lon="4.0416256"><ele></ele><time>2022-6-4T10:12:51Z</time></trkpt>
<trkpt lat="47.2720019" lon="4.0416488"><ele></ele><time>2022-6-4T10:12:54Z</time></trkpt>
<trkpt lat="47.2722145" lon="4.0416346"><ele></ele><time>2022-6-4T10:12:57Z</time></trkpt>
<trkpt lat="47.2724266" lon="4.0416092"><ele></ele><time>2022-6-4T10:13:0Z</time></trkpt>
<trkpt lat="47.2726233" lon="4.0416202"><ele></ele><time>2022-6-4T10:13:3Z</time></trkpt>
<trkpt lat="47.2728582" lon="4.0416320"><ele></ele><time>2022-6-4T10:13:6Z</time></trkpt>
<trkpt lat="47.2730601" lon="4.0416113"><ele></ele><time>2022-6-4T10:13:9Z</time></trkpt>
<trkpt lat="47.2732720" lon="4.0415481"><ele></ele><time>2022-6-4T10:13:12Z</time></trkpt>
<trkpt lat="47.2734509" lon="4.0414949"><ele></ele><time>2022-6-4T10:13:15Z</time></trkpt>
<trkpt lat="47.2736541" lon="4.0415610"><ele></ele><time>2022-6-4T10:13:18Z</time></trkpt>
<trkpt lat="47.2738531" lon="4.0415662"><ele></ele><time>2022-6-4T10:13:21Z</time></trkpt>
<trkpt lat="47.2740404" lon="4.0415670"><ele></ele><time>2022-6-4T10:13:24Z</time></trkpt>
<trkpt lat="47.2742397" lon="4.0416235"><ele></ele><time>2022-6-4T10:13:27Z</time></trkpt>
<trkpt lat="47.2744331" lon="4.0416344"><ele></ele><time>2022-6-4T10:13:30Z</time></trkpt>
<trkpt lat="47.2746892" lon="4.0415915"><ele></ele><time>2022-6-4T10:13:33Z</time></trkpt>
<trkpt lat="47.2748912" lon="4.0415469"><ele></ele><time>2022-6-4T10:13:36Z</time></trkpt>
<trkpt lat="47.2751376" lon="4.0415145"><ele></ele><time>2022-6-4T10:13:39Z</time></trkpt>
<trkpt lat="47.2753583" lon="4.0415351"><ele></ele><time>2022-6-4T10:13:42Z</time></trkpt>
<trkpt lat="47.2755804" lon="4.0414791"><ele></ele><time>2022-6-4T10:13:45Z</time></trkpt>
<trkpt lat="47.2757616" lon="4.0414827"><ele></ele><time>2022-6-4T10:13:48Z</time></trkpt>
<trkpt lat="47.2759705" lon="4.0415158"><ele></ele><time>2022-6-4T10:13:51Z</time></trkpt>
<trkpt lat="47.2761740" lon="4.0415374"><ele></ele><time>2022-6-4T10:13:54Z</time></trkpt>
<trkpt lat="47.2763923" lon="4.0416187"><ele></ele><time>2022-6-4T10:13:57Z</time></trkpt>
<trkpt lat="47.2765730" lon="4.0416038"><ele></ele><time>2022-6-4T10:14:0Z</time></trkpt>
<trkpt lat="47.2767649" lon="4.0415626"><ele></ele><time>2022-6-4T10:14:3Z</time></trkpt>
<trkpt lat="47.2769660" lon="4.0415410"><ele></ele><time>2022-6-4T10:14:6Z</time></trkpt>
<trkpt lat="47.2771689" lon="4.0414566"><ele></ele><time>2022-6-4T10:14:9Z</time></trkpt>
<trkpt lat="47.2773529" lon="4.0413653"><ele></ele><time>2022-6-4T10:14:12Z</time></trkpt>
<trkpt lat="47.2776054" lon="4.0412585"><ele></ele><time>2022-6-4T10:14:15Z</time></trkpt>
<trkpt lat="47.2777900" lon="4.0411520"><ele></ele><time>2022-6-4T10:14:18Z</time></trkpt>
<trkpt lat="47.2779760" lon="4.0410926"><ele></ele><time>2022-6-4T10:14:21Z</time></trkpt>
<trkpt lat="47.2781456" lon="4.0409958"><ele></ele><time>2022-6-4T10:14:24Z</time></trkpt>
<trkpt lat="47.2783069" lon="4.0408126"><ele></ele><time>2022-6-4T10:14:27Z</time></trkpt>
<trkpt lat="47.2784903" lon="4.0407033"><ele></ele><time>2022-6-4T10:14:30Z</time></trkpt>
<trkpt lat="47.2786303" lon="4.0405365"><ele></ele><time>2022-6-4T10:14:33Z</time></trkpt>
<trkpt lat="47.2787670" lon="4.0403527"><ele></ele><time>2022-6-4T10:14:36Z</time></trkpt>
<trkpt lat="47.2789500" lon="4.0402787"><ele></ele><time>2022-6-4T10:14:39Z</time></trkpt>
<trkpt lat="47.2790634" lon="4.0400293"><ele></ele><time>2022-6-4T10:14:42Z</time></trkpt>
<trkpt lat="47.2791783" lon="4.0398146"><ele></ele><time>2022-6-4T10:14:45Z</time></trkpt>
<trkpt lat="47.2793539" lon="4.0397181"><ele></ele><time>2022-6-4T10:14:48Z</time></trkpt>
<trkpt lat="47.2795342" lon="4.0398113"><ele></ele><time>2022-6-4T10:14:51Z</time></trkpt>
<trkpt lat="47.2797014" lon="4.0396970"><ele></ele><time>2022-6-4T10:14:54Z</time></trkpt>
<trkpt lat="47.2798827" lon="4.0396832"><ele></ele><time>2022-6-4T10:14:57Z</time></trkpt>
<trkpt lat="47.2800617" lon="4.0395629"><ele></ele><time>2022-6-4T10:15:0Z</time></trkpt>
<trkpt lat="47.2802336" lon="4.0394386"><ele></ele><time>2022-6-4T10:15:3Z</time></trkpt>
<trkpt lat="47.2804026" lon="4.0393435"><ele></ele><time>2022-6-4T10:15:6Z</time></trkpt>
<trkpt lat="47.2805950" lon="4.0393205"><ele></ele><time>2022-6-4T10:15:9Z</time></trkpt>
<trkpt lat="47.2807654" lon="4.0391859"><ele></ele><time>2022-6-4T10:15:12Z</time></trkpt>
<trkpt lat="47.2809584" lon="4.0392103"><ele></ele><time>2022-6-4T10:15:15Z</time></trkpt>
<trkpt lat="47.2811446" lon="4.0391813"><ele></ele><time>2022-6-4T10:15:18Z</time></trkpt>
<trkpt lat="47.2813580" lon="4.0391496"><ele></ele><time>2022-6-4T10:15:21Z</time></trkpt>
<trkpt lat="47.2815502" lon="4.0391244"><ele></ele><time>2022-6-4T10:15:24Z</time></trkpt>
<trkpt lat="47.2817422" lon="4.0391848"><ele></ele><time>2022-6-4T10:15:27Z</time></trkpt>
<trkpt lat="47.2819279" lon="4.0392017"><ele></ele><time>2022-6-4T10:15:30Z</time></trkpt>
<trkpt lat="47.2821216" lon="4.0393056"><ele></ele><time>2022-6-4T10:15:33Z</time></trkpt>
<trkpt lat="47.2823269" lon="4.0393086"><ele></ele><time>2022-6-4T10:15:36Z</time></trkpt>
<trkpt lat="47.2825326" lon="4.0393468"><ele></ele><time>2022-6-4T10:15:39Z</time></trkpt>
<trkpt lat="47.2827388" lon="4.0394487"><ele></ele><time>2022-6-4T10:15:42Z</time></trkpt>
<trkpt lat="47.2829266" lon="4.0395027"><ele></ele><time>2022-6-4T10:15:45Z</time></trkpt>
<trkpt lat="47.2831410" lon="4.0395167"><ele></ele><time>2022-6-4T10:15:48Z</time></trkpt>
<trkpt lat="47.2833239" lon="4.0395686"><ele></ele><time>2022-6-4T10:15:51Z</time></trkpt>
<trkpt lat="47.2834923" lon="4.0396642"><ele></ele><time>2022-6-4T10:15:54Z</time></trkpt>
<trkpt lat="47.2836668" lon="4.0397541"><ele></ele><time>2022-6-4T10:15:57Z</time></trkpt>
<trkpt lat="47.2838514" lon="4.0398594"><ele></ele><time>2022-6-4T10:16:0Z</time></trkpt>
<trkpt lat="47.2840360" lon="4.0398590"><ele></ele><time>2022-6-4T10:16:3Z</time></trkpt>
<trkpt lat="47.2842030" lon="4.0396980"><ele></ele><time>2022-6-4T10:16:6Z</time></trkpt>
<trkpt lat="47.2843845" lon="4.0396845"><ele></ele><time>2022-6-4T10:16:9Z</time></trkpt>
<trkpt lat="47.2845551" lon="4.0397994"><ele></ele><time>2022-6-4T10:16:12Z</time></trkpt>
<trkpt lat="47.2847073" lon="4.0399478"><ele></ele><time>2022-6-4T10:16:15Z</time></trkpt>
<trkpt lat="47.2848928" lon="4.0400029"><ele></ele><time>2022-6-4T10:16:18Z</time></trkpt>
<trkpt lat="47.2850988" lon="4.0400703"><ele></ele><time>2022-6-4T10:16:21Z</time></trkpt>
<trkpt lat="47.2853217" lon="4.0399935"><ele></ele><time>2022-6-4T10:16:24Z</time></trkpt>
<trkpt lat="47.2855114" lon="4.0399590"><ele></ele><time>2022-6-4T10:16:27Z</time></trkpt>
<trkpt lat="47.2856923" lon="4.0399037"><ele></ele><time>2022-6-4T10:16:30Z</time></trkpt>
<trkpt lat="47.2858862" lon="4.0398577"><ele></ele><time>2022-6-4T10:16:33Z</time></trkpt>
<trkpt lat="47.2861079" lon="4.0398297"><ele></ele><time>2022-6-4T10:16:36Z</time></trkpt>
<trkpt lat="47.2863045" lon="4.0398232"><ele></ele><time>2022-6-4T10:16:39Z</time></trkpt>
<trkpt lat="47.2864889" lon="4.0397619"><ele></ele><time>2022-6-4T10:16:42Z</time></trkpt>
<trkpt lat="47.2866983" lon="4.0397224"><ele></ele><time>2022-6-4T10:16:45Z</time></trkpt>
<trkpt lat="47.2868815" lon="4.0397749"><ele></ele><time>2022-6-4T10:16:48Z</time></trkpt>
<trkpt lat="47.2870902" lon="4.0398152"><ele></ele><time>2022-6-4T10:16:51Z</time></trkpt>
<trkpt lat="47.2873123" lon="4.0397808"><ele></ele><time>2022-6-4T10:16:54Z</time></trkpt>
<trkpt lat="47.2875296" lon="4.0396800"><ele></ele><time>2022-6-4T10:16:57Z</time></trkpt>
<trkpt lat="47.2877268" lon="4.0395693"><ele></ele><time>2022-6-4T10:17:0Z</time></trkpt>
<trkpt lat="47.2879566" lon="4.0394987"><ele></ele><time>2022-6-4T10:17:3Z</time></trkpt>
<trkpt lat="47.2881563" lon="4.0393362"><ele></ele><time>2022-6-4T10:17:6Z</time></trkpt>
<trkpt lat="47.2883527" lon="4.0392141"><ele></ele><time>2022-6-4T10:17:9Z</time></trkpt>
<trkpt lat="47.2885392" lon="4.0390670"><ele></ele><time>2022-6-4T10:17:12Z</time></trkpt>
<trkpt lat="47.2887209" lon="4.0389254"><ele></ele><time>2022-6-4T10:17:15Z</time></trkpt>
<trkpt lat="47.2888767" lon="4.0387506"><ele></ele><time>2022-6-4T10:17:18Z</time></trkpt>
<trkpt lat="47.2890555" lon="4.0385859"><ele></ele><time>2022-6-4T10:17:21Z</time></trkpt>
<trkpt lat="47.2892363" lon="4.0383955"><ele></ele><time>2022-6-4T10:17:24Z</time></trkpt>
<trkpt lat="47.2894209" lon="4.0381666"><ele></ele><time>2022-6-4T10:17:27Z</time></trkpt>
<trkpt lat="47.2895596" lon="4.0379947"><ele></ele><time>2022-6-4T10:17:30Z</time></trkpt>
<trkpt lat="47.2896859" lon="4.0378044"><ele></ele><time>2022-6-4T10:17:33Z</time></trkpt>
<trkpt lat="47.2898122" lon="4.0376123"><ele></ele><time>2022-6-4T10:17:36Z</time></trkpt>
<trkpt lat="47.2899994" lon="4.0373809"><ele></ele><time>2022-6-4T10:17:39Z</time></trkpt>
<trkpt lat="47.2901546" lon="4.0372102"><ele></ele><time>2022-6-4T10:17:42Z</time></trkpt>
<trkpt lat="47.2902850" lon="4.0370175"><ele></ele><time>2022-6-4T10:17:45Z</time></trkpt>
<trkpt lat="47.2904335" lon="4.0368230"><ele></ele><time>2022-6-4T10:17:48Z</time></trkpt>
<trkpt lat="47.2905842" lon="4.0366218"><ele></ele><time>2022-6-4T10:17:51Z</time></trkpt>
<trkpt lat="47.2907730" lon="4.0364603"><ele></ele><time>2022-6-4T10:17:54Z</time></trkpt>
<trkpt lat="47.2909670" lon="4.0363190"><ele></ele><time>2022-6-4T10:17:57Z</time></trkpt>
<trkpt lat="47.2911856" lon="4.0362344"><ele></ele><time>2022-6-4T10:18:0Z</time></trkpt>
<trkpt lat="47.2913933" lon="4.0361561"><ele></ele><time>2022-6-4T10:18:3Z</time></trkpt>
<trkpt lat="47.2915992" lon="4.0360889"><ele></ele><time>2022-6-4T10:18:6Z</time></trkpt>
<trkpt lat="47.2917983" lon="4.0360093"><ele></ele><time>2022-6-4T10:18:9Z</time></trkpt>
<trkpt lat="47.2919822" lon="4.0359202"><ele></ele><time>2022-6-4T10:18:12Z</time></trkpt>
<trkpt lat="47.2921567" lon="4.0358194"><ele></ele><time>2022-6-4T10:18:15Z</time></trkpt>
<trkpt lat="47.2923256" lon="4.0356547"><ele></ele><time>2022-6-4T10:18:18Z</time></trkpt>
<trkpt lat="47.2924920" lon="4.0355011"><ele></ele><time>2022-6-4T10:18:21Z</time></trkpt>
<trkpt lat="47.2926437" lon="4.0353198"><ele></ele><time>2022-6-4T10:18:24Z</time></trkpt>
<trkpt lat="47.2927989" lon="4.0351303"><ele></ele><time>2022-6-4T10:18:27Z</time></trkpt>
<trkpt lat="47.2929540" lon="4.0349333"><ele></ele><time>2022-6-4T10:18:30Z</time></trkpt>
<trkpt lat="47.2931206" lon="4.0347405"><ele></ele><time>2022-6-4T10:18:33Z</time></trkpt>
<trkpt lat="47.2932856" lon="4.0345472"><ele></ele><time>2022-6-4T10:18:36Z</time></trkpt>
<trkpt lat="47.2934570" lon="4.0343464"><ele></ele><time>2022-6-4T10:18:39Z</time></trkpt>
<trkpt lat="47.2936235" lon="4.0341400"><ele></ele><time>2022-6-4T10:18:42Z</time></trkpt>
<trkpt lat="47.2937956" lon="4.0339664"><ele></ele><time>2022-6-4T10:18:45Z</time></trkpt>
<trkpt lat="47.2939607" lon="4.0337776"><ele></ele><time>2022-6-4T10:18:48Z</time></trkpt>
<trkpt lat="47.2941215" lon="4.0335953"><ele></ele><time>2022-6-4T10:18:51Z</time></trkpt>
<trkpt lat="47.2942698" lon="4.0334152"><ele></ele><time>2022-6-4T10:18:54Z</time></trkpt>
<trkpt lat="47.2944092" lon="4.0332436"><ele></ele><time>2022-6-4T10:18:57Z</time></trkpt>
<trkpt lat="47.2945777" lon="4.0330423"><ele></ele><time>2022-6-4T10:19:0Z</time></trkpt>
<trkpt lat="47.2946624" lon="4.0327697"><ele></ele><time>2022-6-4T10:19:3Z</time></trkpt>
<trkpt lat="47.2946886" lon="4.0324826"><ele></ele><time>2022-6-4T10:19:6Z</time></trkpt>
<trkpt lat="47.2946125" lon="4.0322415"><ele></ele><time>2022-6-4T10:19:9Z</time></trkpt>
<trkpt lat="47.2947029" lon="4.0324931"><ele></ele><time>2022-6-4T10:19:12Z</time></trkpt>
<trkpt lat="47.2946209" lon="4.0327480"><ele></ele><time>2022-6-4T10:19:15Z</time></trkpt>
<trkpt lat="47.2945152" lon="4.0330116"><ele></ele><time>2022-6-4T10:19:18Z</time></trkpt>
<trkpt lat="47.2943948" lon="4.0332567"><ele></ele><time>2022-6-4T10:19:21Z</time></trkpt>
<trkpt lat="47.2942558" lon="4.0334489"><ele></ele><time>2022-6-4T10:19:24Z</time></trkpt>
<trkpt lat="47.2941045" lon="4.0336259"><ele></ele><time>2022-6-4T10:19:27Z</time></trkpt>
<trkpt lat="47.2939343" lon="4.0337975"><ele></ele><time>2022-6-4T10:19:30Z</time></trkpt>
<trkpt lat="47.2937840" lon="4.0339634"><ele></ele><time>2022-6-4T10:19:33Z</time></trkpt>
<trkpt lat="47.2936385" lon="4.0341520"><ele></ele><time>2022-6-4T10:19:36Z</time></trkpt>
<trkpt lat="47.2934781" lon="4.0343102"><ele></ele><time>2022-6-4T10:19:39Z</time></trkpt>
<trkpt lat="47.2933280" lon="4.0345078"><ele></ele><time>2022-6-4T10:19:42Z</time></trkpt>
<trkpt lat="47.2931595" lon="4.0346871"><ele></ele><time>2022-6-4T10:19:45Z</time></trkpt>
<trkpt lat="47.2930028" lon="4.0348658"><ele></ele><time>2022-6-4T10:19:48Z</time></trkpt>
<trkpt lat="47.2928524" lon="4.0350511"><ele></ele><time>2022-6-4T10:19:51Z</time></trkpt>
<trkpt lat="47.2927141" lon="4.0352342"><ele></ele><time>2022-6-4T10:19:54Z</time></trkpt>
<trkpt lat="47.2925477" lon="4.0353772"><ele></ele><time>2022-6-4T10:19:57Z</time></trkpt>
<trkpt lat="47.2924430" lon="4.0356206"><ele></ele><time>2022-6-4T10:20:0Z</time></trkpt>
<trkpt lat="47.2924654" lon="4.0359040"><ele></ele><time>2022-6-4T10:20:3Z</time></trkpt>
<trkpt lat="47.2925225" lon="4.0361705"><ele></ele><time>2022-6-4T10:20:6Z</time></trkpt>
<trkpt lat="47.2925794" lon="4.0364466"><ele></ele><time>2022-6-4T10:20:9Z</time></trkpt>
<trkpt lat="47.2926112" lon="4.0367077"><ele></ele><time>2022-6-4T10:20:12Z</time></trkpt>
<trkpt lat="47.2927082" lon="4.0369439"><ele></ele><time>2022-6-4T10:20:15Z</time></trkpt>
<trkpt lat="47.2928201" lon="4.0371561"><ele></ele><time>2022-6-4T10:20:18Z</time></trkpt>
<trkpt lat="47.2929313" lon="4.0373748"><ele></ele><time>2022-6-4T10:20:21Z</time></trkpt>
<trkpt lat="47.2930182" lon="4.0376118"><ele></ele><time>2022-6-4T10:20:24Z</time></trkpt>
<trkpt lat="47.2931037" lon="4.0378488"><ele></ele><time>2022-6-4T10:20:27Z</time></trkpt>
<trkpt lat="47.2932051" lon="4.0380689"><ele></ele><time>2022-6-4T10:20:30Z</time></trkpt>
<trkpt lat="47.2932979" lon="4.0383087"><ele></ele><time>2022-6-4T10:20:33Z</time></trkpt>
<trkpt lat="47.2933855" lon="4.0385410"><ele></ele><time>2022-6-4T10:20:36Z</time></trkpt>
<trkpt lat="47.2935044" lon="4.0387440"><ele></ele><time>2022-6-4T10:20:39Z</time></trkpt>
<trkpt lat="47.2936070" lon="4.0389754"><ele></ele><time>2022-6-4T10:20:42Z</time></trkpt>
<trkpt lat="47.2937089" lon="4.0392056"><ele></ele><time>2022-6-4T10:20:45Z</time></trkpt>
<trkpt lat="47.2938149" lon="4.0394437"><ele></ele><time>2022-6-4T10:20:48Z</time></trkpt>
<trkpt lat="47.2938254" lon="4.0397246"><ele></ele><time>2022-6-4T10:20:51Z</time></trkpt>
<trkpt lat="47.2937775" lon="4.0399997"><ele></ele><time>2022-6-4T10:20:54Z</time></trkpt>
<trkpt lat="47.2936686" lon="4.0402375"><ele></ele><time>2022-6-4T10:20:57Z</time></trkpt>
<trkpt lat="47.2935577" lon="4.0404864"><ele></ele><time>2022-6-4T10:21:0Z</time></trkpt>
<trkpt lat="47.2933921" lon="4.0406363"><ele></ele><time>2022-6-4T10:21:3Z</time></trkpt>
<trkpt lat="47.2932663" lon="4.0408388"><ele></ele><time>2022-6-4T10:21:6Z</time></trkpt>
<trkpt lat="47.2931254" lon="4.0410106"><ele></ele><time>2022-6-4T10:21:9Z</time></trkpt>
<trkpt lat="47.2930013" lon="4.0412164"><ele></ele><time>2022-6-4T10:21:12Z</time></trkpt>
<trkpt lat="47.2929369" lon="4.0414659"><ele></ele><time>2022-6-4T10:21:15Z</time></trkpt>
<trkpt lat="47.2928376" lon="4.0416962"><ele></ele><time>2022-6-4T10:21:18Z</time></trkpt>
<trkpt lat="47.2927551" lon="4.0419717"><ele></ele><time>2022-6-4T10:21:21Z</time></trkpt>
<trkpt lat="47.2926975" lon="4.0422550"><ele></ele><time>2022-6-4T10:21:24Z</time></trkpt>
<trkpt lat="47.2927480" lon="4.0425240"><ele></ele><time>2022-6-4T10:21:27Z</time></trkpt>
<trkpt lat="47.2928309" lon="4.0427713"><ele></ele><time>2022-6-4T10:21:30Z</time></trkpt>
<trkpt lat="47.2928555" lon="4.0430432"><ele></ele><time>2022-6-4T10:21:33Z</time></trkpt>
<trkpt lat="47.2927751" lon="4.0433052"><ele></ele><time>2022-6-4T10:21:36Z</time></trkpt>
<trkpt lat="47.2926732" lon="4.0435541"><ele></ele><time>2022-6-4T10:21:39Z</time></trkpt>
<trkpt lat="47.2925565" lon="4.0437661"><ele></ele><time>2022-6-4T10:21:42Z</time></trkpt>
<trkpt lat="47.2923861" lon="4.0438934"><ele></ele><time>2022-6-4T10:21:45Z</time></trkpt>
<trkpt lat="47.2922146" lon="4.0440077"><ele></ele><time>2022-6-4T10:21:48Z</time></trkpt>
<trkpt lat="47.2920504" lon="4.0441602"><ele></ele><time>2022-6-4T10:21:51Z</time></trkpt>
<trkpt lat="47.2919323" lon="4.0443734"><ele></ele><time>2022-6-4T10:21:54Z</time></trkpt>
<trkpt lat="47.2919108" lon="4.0446512"><ele></ele><time>2022-6-4T10:21:57Z</time></trkpt>
<trkpt lat="47.2920258" lon="4.0448746"><ele></ele><time>2022-6-4T10:22:0Z</time></trkpt>
<trkpt lat="47.2921403" lon="4.0451131"><ele></ele><time>2022-6-4T10:22:3Z</time></trkpt>
<trkpt lat="47.2922831" lon="4.0452992"><ele></ele><time>2022-6-4T10:22:6Z</time></trkpt>
<trkpt lat="47.2923896" lon="4.0455216"><ele></ele><time>2022-6-4T10:22:9Z</time></trkpt>
<trkpt lat="47.2925123" lon="4.0457491"><ele></ele><time>2022-6-4T10:22:12Z</time></trkpt>
<trkpt lat="47.2926111" lon="4.0459912"><ele></ele><time>2022-6-4T10:22:15Z</time></trkpt>
<trkpt lat="47.2927239" lon="4.0462104"><ele></ele><time>2022-6-4T10:22:18Z</time></trkpt>
<trkpt lat="47.2927931" lon="4.0464650"><ele></ele><time>2022-6-4T10:22:21Z</time></trkpt>
<trkpt lat="47.2928383" lon="4.0467255"><ele></ele><time>2022-6-4T10:22:24Z</time></trkpt>
<trkpt lat="47.2928781" lon="4.0470212"><ele></ele><time>2022-6-4T10:22:27Z</time></trkpt>
<trkpt lat="47.2928052" lon="4.0472831"><ele></ele><time>2022-6-4T10:22:30Z</time></trkpt>
<trkpt lat="47.2926601" lon="4.0474549"><ele></ele><time>2022-6-4T10:22:33Z</time></trkpt>
<trkpt lat="47.2925732" lon="4.0477156"><ele></ele><time>2022-6-4T10:22:36Z</time></trkpt>
<trkpt lat="47.2925942" lon="4.0479879"><ele></ele><time>2022-6-4T10:22:39Z</time></trkpt>
<trkpt lat="47.2926936" lon="4.0482273"><ele></ele><time>2022-6-4T10:22:42Z</time></trkpt>
<trkpt lat="47.2928092" lon="4.0484498"><ele></ele><time>2022-6-4T10:22:45Z</time></trkpt>
<trkpt lat="47.2929307" lon="4.0486678"><ele></ele><time>2022-6-4T10:22:48Z</time></trkpt>
<trkpt lat="47.2930516" lon="4.0488972"><ele></ele><time>2022-6-4T10:22:51Z</time></trkpt>
<trkpt lat="47.2931439" lon="4.0491620"><ele></ele><time>2022-6-4T10:22:54Z</time></trkpt>
<trkpt lat="47.2932279" lon="4.0494233"><ele></ele><time>2022-6-4T10:22:57Z</time></trkpt>
<trkpt lat="47.2932790" lon="4.0496983"><ele></ele><time>2022-6-4T10:23:0Z</time></trkpt>
<trkpt lat="47.2932915" lon="4.0499779"><ele></ele><time>2022-6-4T10:23:3Z</time></trkpt>
<trkpt lat="47.2933026" lon="4.0502666"><ele></ele><time>2022-6-4T10:23:6Z</time></trkpt>
<trkpt lat="47.2932628" lon="4.0505442"><ele></ele><time>2022-6-4T10:23:9Z</time></trkpt>
<trkpt lat="47.2931775" lon="4.0508176"><ele></ele><time>2022-6-4T10:23:12Z</time></trkpt>
<trkpt lat="47.2930499" lon="4.0510113"><ele></ele><time>2022-6-4T10:23:15Z</time></trkpt>
<trkpt lat="47.2929055" lon="4.0512082"><ele></ele><time>2022-6-4T10:23:18Z</time></trkpt>
<trkpt lat="47.2927991" lon="4.0514331"><ele></ele><time>2022-6-4T10:23:21Z</time></trkpt>
<trkpt lat="47.2926847" lon="4.0516651"><ele></ele><time>2022-6-4T10:23:24Z</time></trkpt>
<trkpt lat="47.2925637" lon="4.0518770"><ele></ele><time>2022-6-4T10:23:27Z</time></trkpt>
<trkpt lat="47.2924381" lon="4.0520717"><ele></ele><time>2022-6-4T10:23:30Z</time></trkpt>
<trkpt lat="47.2922785" lon="4.0522126"><ele></ele><time>2022-6-4T10:23:33Z</time></trkpt>
<trkpt lat="47.2921088" lon="4.0523101"><ele></ele><time>2022-6-4T10:23:36Z</time></trkpt>
<trkpt lat="47.2919529" lon="4.0524729"><ele></ele><time>2022-6-4T10:23:39Z</time></trkpt>
<trkpt lat="47.2918221" lon="4.0526628"><ele></ele><time>2022-6-4T10:23:42Z</time></trkpt>
<trkpt lat="47.2917634" lon="4.0529215"><ele></ele><time>2022-6-4T10:23:45Z</time></trkpt>
<trkpt lat="47.2916903" lon="4.0531901"><ele></ele><time>2022-6-4T10:23:48Z</time></trkpt>
<trkpt lat="47.2916469" lon="4.0534598"><ele></ele><time>2022-6-4T10:23:51Z</time></trkpt>
<trkpt lat="47.2916937" lon="4.0537160"><ele></ele><time>2022-6-4T10:23:54Z</time></trkpt>
<trkpt lat="47.2917763" lon="4.0539743"><ele></ele><time>2022-6-4T10:23:57Z</time></trkpt>
<trkpt lat="47.2918310" lon="4.0542467"><ele></ele><time>2022-6-4T10:24:0Z</time></trkpt>
<trkpt lat="47.2919049" lon="4.0545044"><ele></ele><time>2022-6-4T10:24:3Z</time></trkpt>
<trkpt lat="47.2919320" lon="4.0547942"><ele></ele><time>2022-6-4T10:24:6Z</time></trkpt>
<trkpt lat="47.2919166" lon="4.0550668"><ele></ele><time>2022-6-4T10:24:9Z</time></trkpt>
<trkpt lat="47.2918624" lon="4.0553306"><ele></ele><time>2022-6-4T10:24:12Z</time></trkpt>
<trkpt lat="47.2917723" lon="4.0555761"><ele></ele><time>2022-6-4T10:24:15Z</time></trkpt>
<trkpt lat="47.2916404" lon="4.0558065"><ele></ele><time>2022-6-4T10:24:18Z</time></trkpt>
<trkpt lat="47.2914805" lon="4.0559735"><ele></ele><time>2022-6-4T10:24:21Z</time></trkpt>
<trkpt lat="47.2913128" lon="4.0560979"><ele></ele><time>2022-6-4T10:24:24Z</time></trkpt>
<trkpt lat="47.2913464" lon="4.0563679"><ele></ele><time>2022-6-4T10:24:27Z</time></trkpt>
<trkpt lat="47.2914658" lon="4.0566224"><ele></ele><time>2022-6-4T10:24:30Z</time></trkpt>
<trkpt lat="47.2916049" lon="4.0568647"><ele></ele><time>2022-6-4T10:24:33Z</time></trkpt>
<trkpt lat="47.2917258" lon="4.0570641"><ele></ele><time>2022-6-4T10:24:36Z</time></trkpt>
<trkpt lat="47.2918430" lon="4.0572932"><ele></ele><time>2022-6-4T10:24:39Z</time></trkpt>
<trkpt lat="47.2919419" lon="4.0575857"><ele></ele><time>2022-6-4T10:24:42Z</time></trkpt>
<trkpt lat="47.2919631" lon="4.0578629"><ele></ele><time>2022-6-4T10:24:45Z</time></trkpt>
<trkpt lat="47.2919259" lon="4.0581761"><ele></ele><time>2022-6-4T10:24:48Z</time></trkpt>
<trkpt lat="47.2918801" lon="4.0585082"><ele></ele><time>2022-6-4T10:24:51Z</time></trkpt>
<trkpt lat="47.2918454" lon="4.0588891"><ele></ele><time>2022-6-4T10:24:54Z</time></trkpt>
<trkpt lat="47.2918133" lon="4.0592816"><ele></ele><time>2022-6-4T10:24:57Z</time></trkpt>
<trkpt lat="47.2917739" lon="4.0595459"><ele></ele><time>2022-6-4T10:25:0Z</time></trkpt>
<trkpt lat="47.2917418" lon="4.0598115"><ele></ele><time>2022-6-4T10:25:3Z</time></trkpt>
<trkpt lat="47.2917516" lon="4.0601471"><ele></ele><time>2022-6-4T10:25:6Z</time></trkpt>
<trkpt lat="47.2919353" lon="4.0603379"><ele></ele><time>2022-6-4T10:25:9Z</time></trkpt>
<trkpt lat="47.2921468" lon="4.0603820"><ele></ele><time>2022-6-4T10:25:12Z</time></trkpt>
<trkpt lat="47.2923586" lon="4.0603019"><ele></ele><time>2022-6-4T10:25:15Z</time></trkpt>
<trkpt lat="47.2925539" lon="4.0601808"><ele></ele><time>2022-6-4T10:25:18Z</time></trkpt>
<trkpt lat="47.2927425" lon="4.0600689"><ele></ele><time>2022-6-4T10:25:21Z</time></trkpt>
<trkpt lat="47.2929427" lon="4.0599594"><ele></ele><time>2022-6-4T10:25:24Z</time></trkpt>
<trkpt lat="47.2931785" lon="4.0599123"><ele></ele><time>2022-6-4T10:25:27Z</time></trkpt>
<trkpt lat="47.2933636" lon="4.0599047"><ele></ele><time>2022-6-4T10:25:30Z</time></trkpt>
<trkpt lat="47.2935602" lon="4.0599063"><ele></ele><time>2022-6-4T10:25:33Z</time></trkpt>
<trkpt lat="47.2937489" lon="4.0598572"><ele></ele><time>2022-6-4T10:25:36Z</time></trkpt>
<trkpt lat="47.2939228" lon="4.0597695"><ele></ele><time>2022-6-4T10:25:39Z</time></trkpt>
<trkpt lat="47.2941048" lon="4.0596889"><ele></ele><time>2022-6-4T10:25:42Z</time></trkpt>
<trkpt lat="47.2942747" lon="4.0595970"><ele></ele><time>2022-6-4T10:25:45Z</time></trkpt>
<trkpt lat="47.2944806" lon="4.0595765"><ele></ele><time>2022-6-4T10:25:48Z</time></trkpt>
<trkpt lat="47.2946639" lon="4.0596405"><ele></ele><time>2022-6-4T10:25:51Z</time></trkpt>
<trkpt lat="47.2948816" lon="4.0597178"><ele></ele><time>2022-6-4T10:25:54Z</time></trkpt>
<trkpt lat="47.2950918" lon="4.0597205"><ele></ele><time>2022-6-4T10:25:57Z</time></trkpt>
<trkpt lat="47.2953052" lon="4.0597669"><ele></ele><time>2022-6-4T10:26:0Z</time></trkpt>
<trkpt lat="47.2954973" lon="4.0598474"><ele></ele><time>2022-6-4T10:26:3Z</time></trkpt>
<trkpt lat="47.2956820" lon="4.0599567"><ele></ele><time>2022-6-4T10:26:6Z</time></trkpt>
<trkpt lat="47.2958612" lon="4.0600940"><ele></ele><time>2022-6-4T10:26:9Z</time></trkpt>
<trkpt lat="47.2959807" lon="4.0602991"><ele></ele><time>2022-6-4T10:26:12Z</time></trkpt>
<trkpt lat="47.2960844" lon="4.0605247"><ele></ele><time>2022-6-4T10:26:15Z</time></trkpt>
<trkpt lat="47.2961763" lon="4.0607831"><ele></ele><time>2022-6-4T10:26:18Z</time></trkpt>
<trkpt lat="47.2962305" lon="4.0610378"><ele></ele><time>2022-6-4T10:26:21Z</time></trkpt>
<trkpt lat="47.2963177" lon="4.0613496"><ele></ele><time>2022-6-4T10:26:24Z</time></trkpt>
<trkpt lat="47.2964328" lon="4.0615957"><ele></ele><time>2022-6-4T10:26:27Z</time></trkpt>
<trkpt lat="47.2965154" lon="4.0618324"><ele></ele><time>2022-6-4T10:26:30Z</time></trkpt>
<trkpt lat="47.2965843" lon="4.0620802"><ele></ele><time>2022-6-4T10:26:33Z</time></trkpt>
<trkpt lat="47.2966789" lon="4.0623391"><ele></ele><time>2022-6-4T10:26:36Z</time></trkpt>
<trkpt lat="47.2967887" lon="4.0625828"><ele></ele><time>2022-6-4T10:26:39Z</time></trkpt>
<trkpt lat="47.2969339" lon="4.0628192"><ele></ele><time>2022-6-4T10:26:42Z</time></trkpt>
<trkpt lat="47.2971280" lon="4.0629454"><ele></ele><time>2022-6-4T10:26:45Z</time></trkpt>
<trkpt lat="47.2973191" lon="4.0629998"><ele></ele><time>2022-6-4T10:26:48Z</time></trkpt>
<trkpt lat="47.2975157" lon="4.0630023"><ele></ele><time>2022-6-4T10:26:51Z</time></trkpt>
<trkpt lat="47.2977030" lon="4.0629733"><ele></ele><time>2022-6-4T10:26:54Z</time></trkpt>
<trkpt lat="47.2978920" lon="4.0629698"><ele></ele><time>2022-6-4T10:26:57Z</time></trkpt>
<trkpt lat="47.2980847" lon="4.0630218"><ele></ele><time>2022-6-4T10:27:0Z</time></trkpt>
<trkpt lat="47.2982563" lon="4.0631126"><ele></ele><time>2022-6-4T10:27:3Z</time></trkpt>
<trkpt lat="47.2984086" lon="4.0632997"><ele></ele><time>2022-6-4T10:27:6Z</time></trkpt>
<trkpt lat="47.2985861" lon="4.0634022"><ele></ele><time>2022-6-4T10:27:9Z</time></trkpt>
<trkpt lat="47.2987761" lon="4.0634339"><ele></ele><time>2022-6-4T10:27:12Z</time></trkpt>
<trkpt lat="47.2989846" lon="4.0635258"><ele></ele><time>2022-6-4T10:27:15Z</time></trkpt>
<trkpt lat="47.2991565" lon="4.0637133"><ele></ele><time>2022-6-4T10:27:18Z</time></trkpt>
<trkpt lat="47.2993151" lon="4.0638755"><ele></ele><time>2022-6-4T10:27:21Z</time></trkpt>
<trkpt lat="47.2994975" lon="4.0640330"><ele></ele><time>2022-6-4T10:27:24Z</time></trkpt>
<trkpt lat="47.2996393" lon="4.0642749"><ele></ele><time>2022-6-4T10:27:27Z</time></trkpt>
<trkpt lat="47.2997287" lon="4.0645600"><ele></ele><time>2022-6-4T10:27:30Z</time></trkpt>
<trkpt lat="47.2997991" lon="4.0648163"><ele></ele><time>2022-6-4T10:27:33Z</time></trkpt>
<trkpt lat="47.2999129" lon="4.0650997"><ele></ele><time>2022-6-4T10:27:36Z</time></trkpt>
<trkpt lat="47.3000202" lon="4.0653247"><ele></ele><time>2022-6-4T10:27:39Z</time></trkpt>
<trkpt lat="47.3001073" lon="4.0655841"><ele></ele><time>2022-6-4T10:27:42Z</time></trkpt>
<trkpt lat="47.3001915" lon="4.0658189"><ele></ele><time>2022-6-4T10:27:45Z</time></trkpt>
<trkpt lat="47.3002432" lon="4.0661080"><ele></ele><time>2022-6-4T10:27:48Z</time></trkpt>
<trkpt lat="47.3002576" lon="4.0664106"><ele></ele><time>2022-6-4T10:27:51Z</time></trkpt>
<trkpt lat="47.3002091" lon="4.0666694"><ele></ele><time>2022-6-4T10:27:54Z</time></trkpt>
<trkpt lat="47.3001453" lon="4.0669586"><ele></ele><time>2022-6-4T10:27:57Z</time></trkpt>
<trkpt lat="47.3001458" lon="4.0672321"><ele></ele><time>2022-6-4T10:28:0Z</time></trkpt>
<trkpt lat="47.3001936" lon="4.0675185"><ele></ele><time>2022-6-4T10:28:3Z</time></trkpt>
<trkpt lat="47.3002142" lon="4.0678156"><ele></ele><time>2022-6-4T10:28:6Z</time></trkpt>
<trkpt lat="47.3002298" lon="4.0680956"><ele></ele><time>2022-6-4T10:28:9Z</time></trkpt>
<trkpt lat="47.3002572" lon="4.0683949"><ele></ele><time>2022-6-4T10:28:12Z</time></trkpt>
<trkpt lat="47.3002723" lon="4.0686976"><ele></ele><time>2022-6-4T10:28:15Z</time></trkpt>
<trkpt lat="47.3002936" lon="4.0689619"><ele></ele><time>2022-6-4T10:28:18Z</time></trkpt>
<trkpt lat="47.3002931" lon="4.0692293"><ele></ele><time>2022-6-4T10:28:21Z</time></trkpt>
<trkpt lat="47.3003496" lon="4.0695144"><ele></ele><time>2022-6-4T10:28:24Z</time></trkpt>
<trkpt lat="47.3004629" lon="4.0697831"><ele></ele><time>2022-6-4T10:28:27Z</time></trkpt>
<trkpt lat="47.3005554" lon="4.0700456"><ele></ele><time>2022-6-4T10:28:30Z</time></trkpt>
<trkpt lat="47.3006550" lon="4.0704109"><ele></ele><time>2022-6-4T10:28:33Z</time></trkpt>
<trkpt lat="47.3006864" lon="4.0707205"><ele></ele><time>2022-6-4T10:28:36Z</time></trkpt>
<trkpt lat="47.3006940" lon="4.0709890"><ele></ele><time>2022-6-4T10:28:39Z</time></trkpt>
<trkpt lat="47.3006652" lon="4.0712834"><ele></ele><time>2022-6-4T10:28:42Z</time></trkpt>
<trkpt lat="47.3006600" lon="4.0715531"><ele></ele><time>2022-6-4T10:28:45Z</time></trkpt>
<trkpt lat="47.3006222" lon="4.0718851"><ele></ele><time>2022-6-4T10:28:48Z</time></trkpt>
<trkpt lat="47.3005753" lon="4.0721783"><ele></ele><time>2022-6-4T10:28:51Z</time></trkpt>
<trkpt lat="47.3006290" lon="4.0724924"><ele></ele><time>2022-6-4T10:28:54Z</time></trkpt>
<trkpt lat="47.3007034" lon="4.0728305"><ele></ele><time>2022-6-4T10:28:57Z</time></trkpt>
<trkpt lat="47.3006861" lon="4.0731229"><ele></ele><time>2022-6-4T10:29:0Z</time></trkpt>
<trkpt lat="47.3006685" lon="4.0734244"><ele></ele><time>2022-6-4T10:29:3Z</time></trkpt>
<trkpt lat="47.3006094" lon="4.0736962"><ele></ele><time>2022-6-4T10:29:6Z</time></trkpt>
<trkpt lat="47.3005424" lon="4.0739725"><ele></ele><time>2022-6-4T10:29:9Z</time></trkpt>
<trkpt lat="47.3004486" lon="4.0742248"><ele></ele><time>2022-6-4T10:29:12Z</time></trkpt>
<trkpt lat="47.3003809" lon="4.0745220"><ele></ele><time>2022-6-4T10:29:15Z</time></trkpt>
<trkpt lat="47.3003660" lon="4.0748215"><ele></ele><time>2022-6-4T10:29:18Z</time></trkpt>
<trkpt lat="47.3003039" lon="4.0751199"><ele></ele><time>2022-6-4T10:29:21Z</time></trkpt>
<trkpt lat="47.3003648" lon="4.0754515"><ele></ele><time>2022-6-4T10:29:24Z</time></trkpt>
<trkpt lat="47.3004616" lon="4.0756812"><ele></ele><time>2022-6-4T10:29:27Z</time></trkpt>
<trkpt lat="47.3005458" lon="4.0759254"><ele></ele><time>2022-6-4T10:29:30Z</time></trkpt>
<trkpt lat="47.3006405" lon="4.0762075"><ele></ele><time>2022-6-4T10:29:33Z</time></trkpt>
<trkpt lat="47.3007468" lon="4.0764441"><ele></ele><time>2022-6-4T10:29:36Z</time></trkpt>
<trkpt lat="47.3008328" lon="4.0766973"><ele></ele><time>2022-6-4T10:29:39Z</time></trkpt>
<trkpt lat="47.3009143" lon="4.0769736"><ele></ele><time>2022-6-4T10:29:42Z</time></trkpt>
<trkpt lat="47.3009365" lon="4.0772555"><ele></ele><time>2022-6-4T10:29:45Z</time></trkpt>
<trkpt lat="47.3010288" lon="4.0775029"><ele></ele><time>2022-6-4T10:29:48Z</time></trkpt>
<trkpt lat="47.3011649" lon="4.0777288"><ele></ele><time>2022-6-4T10:29:51Z</time></trkpt>
<trkpt lat="47.3013122" lon="4.0779322"><ele></ele><time>2022-6-4T10:29:54Z</time></trkpt>
<trkpt lat="47.3013740" lon="4.0781837"><ele></ele><time>2022-6-4T10:29:57Z</time></trkpt>
<trkpt lat="47.3014515" lon="4.0784590"><ele></ele><time>2022-6-4T10:30:0Z</time></trkpt>
<trkpt lat="47.3015457" lon="4.0787521"><ele></ele><time>2022-6-4T10:30:3Z</time></trkpt>
<trkpt lat="47.3016611" lon="4.0789579"><ele></ele><time>2022-6-4T10:30:6Z</time></trkpt>
<trkpt lat="47.3018715" lon="4.0789097"><ele></ele><time>2022-6-4T10:30:9Z</time></trkpt>
<trkpt lat="47.3020826" lon="4.0788135"><ele></ele><time>2022-6-4T10:30:12Z</time></trkpt>
<trkpt lat="47.3022718" lon="4.0787349"><ele></ele><time>2022-6-4T10:30:15Z</time></trkpt>
<trkpt lat="47.3024348" lon="4.0786209"><ele></ele><time>2022-6-4T10:30:18Z</time></trkpt>
<trkpt lat="47.3026655" lon="4.0785761"><ele></ele><time>2022-6-4T10:30:21Z</time></trkpt>
<trkpt lat="47.3028769" lon="4.0785358"><ele></ele><time>2022-6-4T10:30:24Z</time></trkpt>
<trkpt lat="47.3030775" lon="4.0784825"><ele></ele><time>2022-6-4T10:30:27Z</time></trkpt>
<trkpt lat="47.3033059" lon="4.0784456"><ele></ele><time>2022-6-4T10:30:30Z</time></trkpt>
<trkpt lat="47.3035128" lon="4.0784949"><ele></ele><time>2022-6-4T10:30:33Z</time></trkpt>
<trkpt lat="47.3037016" lon="4.0784800"><ele></ele><time>2022-6-4T10:30:36Z</time></trkpt>
<trkpt lat="47.3038992" lon="4.0784499"><ele></ele><time>2022-6-4T10:30:39Z</time></trkpt>
<trkpt lat="47.3040811" lon="4.0784178"><ele></ele><time>2022-6-4T10:30:42Z</time></trkpt>
<trkpt lat="47.3042889" lon="4.0783624"><ele></ele><time>2022-6-4T10:30:45Z</time></trkpt>
<trkpt lat="47.3044709" lon="4.0782930"><ele></ele><time>2022-6-4T10:30:48Z</time></trkpt>
<trkpt lat="47.3046485" lon="4.0782349"><ele></ele><time>2022-6-4T10:30:51Z</time></trkpt>
<trkpt lat="47.3048640" lon="4.0781593"><ele></ele><time>2022-6-4T10:30:54Z</time></trkpt>
<trkpt lat="47.3050446" lon="4.0780685"><ele></ele><time>2022-6-4T10:30:57Z</time></trkpt>
<trkpt lat="47.3052398" lon="4.0779852"><ele></ele><time>2022-6-4T10:31:0Z</time></trkpt>
<trkpt lat="47.3054663" lon="4.0779103"><ele></ele><time>2022-6-4T10:31:3Z</time></trkpt>
<trkpt lat="47.3056529" lon="4.0777589"><ele></ele><time>2022-6-4T10:31:6Z</time></trkpt>
<trkpt lat="47.3058368" lon="4.0777312"><ele></ele><time>2022-6-4T10:31:9Z</time></trkpt>
<trkpt lat="47.3060514" lon="4.0777683"><ele></ele><time>2022-6-4T10:31:12Z</time></trkpt>
<trkpt lat="47.3062534" lon="4.0777976"><ele></ele><time>2022-6-4T10:31:15Z</time></trkpt>
<trkpt lat="47.3064630" lon="4.0777942"><ele></ele><time>2022-6-4T10:31:18Z</time></trkpt>
<trkpt lat="47.3066900" lon="4.0777173"><ele></ele><time>2022-6-4T10:31:21Z</time></trkpt>
<trkpt lat="47.3068775" lon="4.0776854"><ele></ele><time>2022-6-4T10:31:24Z</time></trkpt>
<trkpt lat="47.3070968" lon="4.0776491"><ele></ele><time>2022-6-4T10:31:27Z</time></trkpt>
<trkpt lat="47.3072725" lon="4.0775717"><ele></ele><time>2022-6-4T10:31:30Z</time></trkpt>
<trkpt lat="47.3075123" lon="4.0775829"><ele></ele><time>2022-6-4T10:31:33Z</time></trkpt>
<trkpt lat="47.3077165" lon="4.0776095"><ele></ele><time>2022-6-4T10:31:36Z</time></trkpt>
<trkpt lat="47.3079156" lon="4.0775909"><ele></ele><time>2022-6-4T10:31:39Z</time></trkpt>
<trkpt lat="47.3081227" lon="4.0776059"><ele></ele><time>2022-6-4T10:31:42Z</time></trkpt>
<trkpt lat="47.3083161" lon="4.0776685"><ele></ele><time>2022-6-4T10:31:45Z</time></trkpt>
<trkpt lat="47.3085251" lon="4.0777362"><ele></ele><time>2022-6-4T10:31:48Z</time></trkpt>
<trkpt lat="47.3087055" lon="4.0778103"><ele></ele><time>2022-6-4T10:31:51Z</time></trkpt>
<trkpt lat="47.3088785" lon="4.0778956"><ele></ele><time>2022-6-4T10:31:54Z</time></trkpt>
<trkpt lat="47.3090742" lon="4.0779733"><ele></ele><time>2022-6-4T10:31:57Z</time></trkpt>
<trkpt lat="47.3092969" lon="4.0780467"><ele></ele><time>2022-6-4T10:32:0Z</time></trkpt>
<trkpt lat="47.3094899" lon="4.0780602"><ele></ele><time>2022-6-4T10:32:3Z</time></trkpt>
<trkpt lat="47.3096750" lon="4.0780334"><ele></ele><time>2022-6-4T10:32:6Z</time></trkpt>
<trkpt lat="47.3098686" lon="4.0779692"><ele></ele><time>2022-6-4T10:32:9Z</time></trkpt>
<trkpt lat="47.3100651" lon="4.0779613"><ele></ele><time>2022-6-4T10:32:12Z</time></trkpt>
<trkpt lat="47.3102517" lon="4.0780118"><ele></ele><time>2022-6-4T10:32:15Z</time></trkpt>
<trkpt lat="47.3104318" lon="4.0780973"><ele></ele><time>2022-6-4T10:32:18Z</time></trkpt>
<trkpt lat="47.3106101" lon="4.0781942"><ele></ele><time>2022-6-4T10:32:21Z</time></trkpt>
<trkpt lat="47.3107828" lon="4.0782702"><ele></ele><time>2022-6-4T10:32:24Z</time></trkpt>
<trkpt lat="47.3110016" lon="4.0783905"><ele></ele><time>2022-6-4T10:32:27Z</time></trkpt>
<trkpt lat="47.3111731" lon="4.0784806"><ele></ele><time>2022-6-4T10:32:30Z</time></trkpt>
<trkpt lat="47.3113504" lon="4.0785689"><ele></ele><time>2022-6-4T10:32:33Z</time></trkpt>
<trkpt lat="47.3115678" lon="4.0786549"><ele></ele><time>2022-6-4T10:32:36Z</time></trkpt>
<trkpt lat="47.3118074" lon="4.0787328"><ele></ele><time>2022-6-4T10:32:39Z</time></trkpt>
<trkpt lat="47.3119860" lon="4.0788833"><ele></ele><time>2022-6-4T10:32:42Z</time></trkpt>
<trkpt lat="47.3121700" lon="4.0790587"><ele></ele><time>2022-6-4T10:32:45Z</time></trkpt>
<trkpt lat="47.3123275" lon="4.0792324"><ele></ele><time>2022-6-4T10:32:48Z</time></trkpt>
<trkpt lat="47.3124563" lon="4.0794372"><ele></ele><time>2022-6-4T10:32:51Z</time></trkpt>
<trkpt lat="47.3126295" lon="4.0796075"><ele></ele><time>2022-6-4T10:32:54Z</time></trkpt>
<trkpt lat="47.3127881" lon="4.0797923"><ele></ele><time>2022-6-4T10:32:57Z</time></trkpt>
<trkpt lat="47.3129683" lon="4.0799877"><ele></ele><time>2022-6-4T10:33:0Z</time></trkpt>
<trkpt lat="47.3131339" lon="4.0801702"><ele></ele><time>2022-6-4T10:33:3Z</time></trkpt>
<trkpt lat="47.3132741" lon="4.0803823"><ele></ele><time>2022-6-4T10:33:6Z</time></trkpt>
<trkpt lat="47.3133449" lon="4.0806513"><ele></ele><time>2022-6-4T10:33:9Z</time></trkpt>
<trkpt lat="47.3133642" lon="4.0809322"><ele></ele><time>2022-6-4T10:33:12Z</time></trkpt>
<trkpt lat="47.3133623" lon="4.0812145"><ele></ele><time>2022-6-4T10:33:15Z</time></trkpt>
<trkpt lat="47.3133681" lon="4.0814882"><ele></ele><time>2022-6-4T10:33:18Z</time></trkpt>
<trkpt lat="47.3134130" lon="4.0818140"><ele></ele><time>2022-6-4T10:33:21Z</time></trkpt>
<trkpt lat="47.3134561" lon="4.0821184"><ele></ele><time>2022-6-4T10:33:24Z</time></trkpt>
<trkpt lat="47.3134608" lon="4.0823992"><ele></ele><time>2022-6-4T10:33:27Z</time></trkpt>
<trkpt lat="47.3134322" lon="4.0827229"><ele></ele><time>2022-6-4T10:33:30Z</time></trkpt>
<trkpt lat="47.3134849" lon="4.0830571"><ele></ele><time>2022-6-4T10:33:33Z</time></trkpt>
<trkpt lat="47.3135188" lon="4.0833194"><ele></ele><time>2022-6-4T10:33:36Z</time></trkpt>
<trkpt lat="47.3134840" lon="4.0836006"><ele></ele><time>2022-6-4T10:33:39Z</time></trkpt>
<trkpt lat="47.3133726" lon="4.0838253"><ele></ele><time>2022-6-4T10:33:42Z</time></trkpt>
<trkpt lat="47.3133081" lon="4.0840923"><ele></ele><time>2022-6-4T10:33:45Z</time></trkpt>
<trkpt lat="47.3132280" lon="4.0843504"><ele></ele><time>2022-6-4T10:33:48Z</time></trkpt>
<trkpt lat="47.3131359" lon="4.0846099"><ele></ele><time>2022-6-4T10:33:51Z</time></trkpt>
<trkpt lat="47.3130454" lon="4.0848972"><ele></ele><time>2022-6-4T10:33:54Z</time></trkpt>
<trkpt lat="47.3130436" lon="4.0852263"><ele></ele><time>2022-6-4T10:33:57Z</time></trkpt>
<trkpt lat="47.3130320" lon="4.0855044"><ele></ele><time>2022-6-4T10:34:0Z</time></trkpt>
<trkpt lat="47.3129894" lon="4.0857703"><ele></ele><time>2022-6-4T10:34:3Z</time></trkpt>
<trkpt lat="47.3129639" lon="4.0860635"><ele></ele><time>2022-6-4T10:34:6Z</time></trkpt>
<trkpt lat="47.3129507" lon="4.0863328"><ele></ele><time>2022-6-4T10:34:9Z</time></trkpt>
<trkpt lat="47.3129293" lon="4.0866786"><ele></ele><time>2022-6-4T10:34:12Z</time></trkpt>
<trkpt lat="47.3130193" lon="4.0869733"><ele></ele><time>2022-6-4T10:34:15Z</time></trkpt>
<trkpt lat="47.3131129" lon="4.0872409"><ele></ele><time>2022-6-4T10:34:18Z</time></trkpt>
<trkpt lat="47.3131511" lon="4.0875593"><ele></ele><time>2022-6-4T10:34:21Z</time></trkpt>
<trkpt lat="47.3130801" lon="4.0878479"><ele></ele><time>2022-6-4T10:34:24Z</time></trkpt>
<trkpt lat="47.3129803" lon="4.0881078"><ele></ele><time>2022-6-4T10:34:27Z</time></trkpt>
<trkpt lat="47.3129056" lon="4.0883602"><ele></ele><time>2022-6-4T10:34:30Z</time></trkpt>
<trkpt lat="47.3127663" lon="4.0885931"><ele></ele><time>2022-6-4T10:34:33Z</time></trkpt>
<trkpt lat="47.3126020" lon="4.0887644"><ele></ele><time>2022-6-4T10:34:36Z</time></trkpt>
<trkpt lat="47.3125915" lon="4.0890368"><ele></ele><time>2022-6-4T10:34:39Z</time></trkpt>
<trkpt lat="47.3125740" lon="4.0893339"><ele></ele><time>2022-6-4T10:34:42Z</time></trkpt>
<trkpt lat="47.3126451" lon="4.0896135"><ele></ele><time>2022-6-4T10:34:45Z</time></trkpt>
<trkpt lat="47.3127509" lon="4.0898310"><ele></ele><time>2022-6-4T10:34:48Z</time></trkpt>
<trkpt lat="47.3127161" lon="4.0901145"><ele></ele><time>2022-6-4T10:34:51Z</time></trkpt>
<trkpt lat="47.3125788" lon="4.0903403"><ele></ele><time>2022-6-4T10:34:54Z</time></trkpt>
<trkpt lat="47.3125917" lon="4.0906204"><ele></ele><time>2022-6-4T10:34:57Z</time></trkpt>
<trkpt lat="47.3126645" lon="4.0908793"><ele></ele><time>2022-6-4T10:35:0Z</time></trkpt>
<trkpt lat="47.3127559" lon="4.0911216"><ele></ele><time>2022-6-4T10:35:3Z</time></trkpt>
<trkpt lat="47.3128122" lon="4.0914028"><ele></ele><time>2022-6-4T10:35:6Z</time></trkpt>
<trkpt lat="47.3128110" lon="4.0916938"><ele></ele><time>2022-6-4T10:35:9Z</time></trkpt>
<trkpt lat="47.3128170" lon="4.0919651"><ele></ele><time>2022-6-4T10:35:12Z</time></trkpt>
<trkpt lat="47.3129428" lon="4.0921891"><ele></ele><time>2022-6-4T10:35:15Z</time></trkpt>
<trkpt lat="47.3130651" lon="4.0924233"><ele></ele><time>2022-6-4T10:35:18Z</time></trkpt>
<trkpt lat="47.3132396" lon="4.0926431"><ele></ele><time>2022-6-4T10:35:21Z</time></trkpt>
<trkpt lat="47.3133808" lon="4.0928245"><ele></ele><time>2022-6-4T10:35:24Z</time></trkpt>
<trkpt lat="47.3135642" lon="4.0930442"><ele></ele><time>2022-6-4T10:35:27Z</time></trkpt>
<trkpt lat="47.3136813" lon="4.0932653"><ele></ele><time>2022-6-4T10:35:30Z</time></trkpt>
<trkpt lat="47.3138009" lon="4.0934779"><ele></ele><time>2022-6-4T10:35:33Z</time></trkpt>
<trkpt lat="47.3138999" lon="4.0937031"><ele></ele><time>2022-6-4T10:35:36Z</time></trkpt>
<trkpt lat="47.3140640" lon="4.0939571"><ele></ele><time>2022-6-4T10:35:39Z</time></trkpt>
<trkpt lat="47.3142014" lon="4.0941286"><ele></ele><time>2022-6-4T10:35:42Z</time></trkpt>
<trkpt lat="47.3143721" lon="4.0943050"><ele></ele><time>2022-6-4T10:35:45Z</time></trkpt>
<trkpt lat="47.3145666" lon="4.0944585"><ele></ele><time>2022-6-4T10:35:48Z</time></trkpt>
<trkpt lat="47.3147365" lon="4.0946243"><ele></ele><time>2022-6-4T10:35:51Z</time></trkpt>
<trkpt lat="47.3149454" lon="4.0946555"><ele></ele><time>2022-6-4T10:35:54Z</time></trkpt>
<trkpt lat="47.3151435" lon="4.0946487"><ele></ele><time>2022-6-4T10:35:57Z</time></trkpt>
<trkpt lat="47.3153495" lon="4.0946298"><ele></ele><time>2022-6-4T10:36:0Z</time></trkpt>
<trkpt lat="47.3155613" lon="4.0945918"><ele></ele><time>2022-6-4T10:36:3Z</time></trkpt>
<trkpt lat="47.3157840" lon="4.0945401"><ele></ele><time>2022-6-4T10:36:6Z</time></trkpt>
<trkpt lat="47.3159826" lon="4.0944944"><ele></ele><time>2022-6-4T10:36:9Z</time></trkpt>
<trkpt lat="47.3161920" lon="4.0944338"><ele></ele><time>2022-6-4T10:36:12Z</time></trkpt>
<trkpt lat="47.3164037" lon="4.0943782"><ele></ele><time>2022-6-4T10:36:15Z</time></trkpt>
<trkpt lat="47.3165921" lon="4.0943166"><ele></ele><time>2022-6-4T10:36:18Z</time></trkpt>
<trkpt lat="47.3167790" lon="4.0942427"><ele></ele><time>2022-6-4T10:36:21Z</time></trkpt>
<trkpt lat="47.3169683" lon="4.0943491"><ele></ele><time>2022-6-4T10:36:24Z</time></trkpt>
<trkpt lat="47.3170860" lon="4.0945521"><ele></ele><time>2022-6-4T10:36:27Z</time></trkpt>
<trkpt lat="47.3171458" lon="4.0948454"><ele></ele><time>2022-6-4T10:36:30Z</time></trkpt>
<trkpt lat="47.3171851" lon="4.0951243"><ele></ele><time>2022-6-4T10:36:33Z</time></trkpt>
<trkpt lat="47.3171251" lon="4.0948620"><ele></ele><time>2022-6-4T10:36:36Z</time></trkpt>
<trkpt lat="47.3170650" lon="4.0945902"><ele></ele><time>2022-6-4T10:36:39Z</time></trkpt>
<trkpt lat="47.3169502" lon="4.0943641"><ele></ele><time>2022-6-4T10:36:42Z</time></trkpt>
<trkpt lat="47.3167940" lon="4.0941994"><ele></ele><time>2022-6-4T10:36:45Z</time></trkpt>
<trkpt lat="47.3169756" lon="4.0941891"><ele></ele><time>2022-6-4T10:36:48Z</time></trkpt>
<trkpt lat="47.3171935" lon="4.0942809"><ele></ele><time>2022-6-4T10:36:51Z</time></trkpt>
<trkpt lat="47.3173917" lon="4.0943982"><ele></ele><time>2022-6-4T10:36:54Z</time></trkpt>
<trkpt lat="47.3175716" lon="4.0945339"><ele></ele><time>2022-6-4T10:36:57Z</time></trkpt>
<trkpt lat="47.3177490" lon="4.0946567"><ele></ele><time>2022-6-4T10:37:0Z</time></trkpt>
<trkpt lat="47.3179143" lon="4.0947974"><ele></ele><time>2022-6-4T10:37:3Z</time></trkpt>
<trkpt lat="47.3180315" lon="4.0950689"><ele></ele><time>2022-6-4T10:37:6Z</time></trkpt>
<trkpt lat="47.3179581" lon="4.0953474"><ele></ele><time>2022-6-4T10:37:9Z</time></trkpt>
<trkpt lat="47.3178766" lon="4.0955899"><ele></ele><time>2022-6-4T10:37:12Z</time></trkpt>
<trkpt lat="47.3177820" lon="4.0958260"><ele></ele><time>2022-6-4T10:37:15Z</time></trkpt>
<trkpt lat="47.3176747" lon="4.0960470"><ele></ele><time>2022-6-4T10:37:18Z</time></trkpt>
<trkpt lat="47.3176119" lon="4.0962975"><ele></ele><time>2022-6-4T10:37:21Z</time></trkpt>
<trkpt lat="47.3175924" lon="4.0966168"><ele></ele><time>2022-6-4T10:37:24Z</time></trkpt>
<trkpt lat="47.3176355" lon="4.0968996"><ele></ele><time>2022-6-4T10:37:27Z</time></trkpt>
<trkpt lat="47.3176966" lon="4.0971639"><ele></ele><time>2022-6-4T10:37:30Z</time></trkpt>
<trkpt lat="47.3177820" lon="4.0974305"><ele></ele><time>2022-6-4T10:37:33Z</time></trkpt>
<trkpt lat="47.3179003" lon="4.0976871"><ele></ele><time>2022-6-4T10:37:36Z</time></trkpt>
<trkpt lat="47.3180592" lon="4.0979461"><ele></ele><time>2022-6-4T10:37:39Z</time></trkpt>
<trkpt lat="47.3182026" lon="4.0981846"><ele></ele><time>2022-6-4T10:37:42Z</time></trkpt>
<trkpt lat="47.3182987" lon="4.0984461"><ele></ele><time>2022-6-4T10:37:45Z</time></trkpt>
<trkpt lat="47.3183770" lon="4.0987683"><ele></ele><time>2022-6-4T10:37:48Z</time></trkpt>
<trkpt lat="47.3184092" lon="4.0990916"><ele></ele><time>2022-6-4T10:37:51Z</time></trkpt>
<trkpt lat="47.3184007" lon="4.0993670"><ele></ele><time>2022-6-4T10:37:54Z</time></trkpt>
<trkpt lat="47.3183613" lon="4.0996313"><ele></ele><time>2022-6-4T10:37:57Z</time></trkpt>
<trkpt lat="47.3183056" lon="4.0999297"><ele></ele><time>2022-6-4T10:38:0Z</time></trkpt>
<trkpt lat="47.3182409" lon="4.1001803"><ele></ele><time>2022-6-4T10:38:3Z</time></trkpt>
<trkpt lat="47.3181911" lon="4.1004657"><ele></ele><time>2022-6-4T10:38:6Z</time></trkpt>
<trkpt lat="47.3181292" lon="4.1007204"><ele></ele><time>2022-6-4T10:38:9Z</time></trkpt>
<trkpt lat="47.3180595" lon="4.1010031"><ele></ele><time>2022-6-4T10:38:12Z</time></trkpt>
<trkpt lat="47.3181314" lon="4.1012784"><ele></ele><time>2022-6-4T10:38:15Z</time></trkpt>
<trkpt lat="47.3182888" lon="4.1014476"><ele></ele><time>2022-6-4T10:38:18Z</time></trkpt>
<trkpt lat="47.3184518" lon="4.1016124"><ele></ele><time>2022-6-4T10:38:21Z</time></trkpt>
<trkpt lat="47.3186154" lon="4.1017902"><ele></ele><time>2022-6-4T10:38:24Z</time></trkpt>
<trkpt lat="47.3187918" lon="4.1019679"><ele></ele><time>2022-6-4T10:38:27Z</time></trkpt>
<trkpt lat="47.3189369" lon="4.1021285"><ele></ele><time>2022-6-4T10:38:30Z</time></trkpt>
<trkpt lat="47.3190939" lon="4.1022931"><ele></ele><time>2022-6-4T10:38:33Z</time></trkpt>
<trkpt lat="47.3192582" lon="4.1024576"><ele></ele><time>2022-6-4T10:38:36Z</time></trkpt>
<trkpt lat="47.3194344" lon="4.1026392"><ele></ele><time>2022-6-4T10:38:39Z</time></trkpt>
<trkpt lat="47.3195818" lon="4.1027982"><ele></ele><time>2022-6-4T10:38:42Z</time></trkpt>
<trkpt lat="47.3197382" lon="4.1029606"><ele></ele><time>2022-6-4T10:38:45Z</time></trkpt>
<trkpt lat="47.3199012" lon="4.1031280"><ele></ele><time>2022-6-4T10:38:48Z</time></trkpt>
<trkpt lat="47.3200617" lon="4.1032907"><ele></ele><time>2022-6-4T10:38:51Z</time></trkpt>
<trkpt lat="47.3202305" lon="4.1034636"><ele></ele><time>2022-6-4T10:38:54Z</time></trkpt>
<trkpt lat="47.3204059" lon="4.1036367"><ele></ele><time>2022-6-4T10:38:57Z</time></trkpt>
<trkpt lat="47.3205796" lon="4.1038114"><ele></ele><time>2022-6-4T10:39:0Z</time></trkpt>
<trkpt lat="47.3207482" lon="4.1039877"><ele></ele><time>2022-6-4T10:39:3Z</time></trkpt>
<trkpt lat="47.3209178" lon="4.1041712"><ele></ele><time>2022-6-4T10:39:6Z</time></trkpt>
<trkpt lat="47.3210827" lon="4.1043435"><ele></ele><time>2022-6-4T10:39:9Z</time></trkpt>
<trkpt lat="47.3212600" lon="4.1045230"><ele></ele><time>2022-6-4T10:39:12Z</time></trkpt>
<trkpt lat="47.3214438" lon="4.1047086"><ele></ele><time>2022-6-4T10:39:15Z</time></trkpt>
<trkpt lat="47.3216324" lon="4.1049132"><ele></ele><time>2022-6-4T10:39:18Z</time></trkpt>
<trkpt lat="47.3218196" lon="4.1051067"><ele></ele><time>2022-6-4T10:39:21Z</time></trkpt>
<trkpt lat="47.3219951" lon="4.1053186"><ele></ele><time>2022-6-4T10:39:24Z</time></trkpt>
<trkpt lat="47.3221526" lon="4.1054602"><ele></ele><time>2022-6-4T10:39:27Z</time></trkpt>
<trkpt lat="47.3223218" lon="4.1056379"><ele></ele><time>2022-6-4T10:39:30Z</time></trkpt>
<trkpt lat="47.3224801" lon="4.1058822"><ele></ele><time>2022-6-4T10:39:33Z</time></trkpt>
<trkpt lat="47.3226023" lon="4.1061849"><ele></ele><time>2022-6-4T10:39:36Z</time></trkpt>
<trkpt lat="47.3226847" lon="4.1065331"><ele></ele><time>2022-6-4T10:39:39Z</time></trkpt>
<trkpt lat="47.3227154" lon="4.1069156"><ele></ele><time>2022-6-4T10:39:42Z</time></trkpt>
<trkpt lat="47.3228153" lon="4.1072686"><ele></ele><time>2022-6-4T10:39:45Z</time></trkpt>
<trkpt lat="47.3230479" lon="4.1074360"><ele></ele><time>2022-6-4T10:39:48Z</time></trkpt>
<trkpt lat="47.3232711" lon="4.1075491"><ele></ele><time>2022-6-4T10:39:51Z</time></trkpt>
<trkpt lat="47.3234948" lon="4.1076648"><ele></ele><time>2022-6-4T10:39:54Z</time></trkpt>
<trkpt lat="47.3237067" lon="4.1077814"><ele></ele><time>2022-6-4T10:39:57Z</time></trkpt>
<trkpt lat="47.3239151" lon="4.1078780"><ele></ele><time>2022-6-4T10:40:0Z</time></trkpt>
<trkpt lat="47.3241145" lon="4.1078749"><ele></ele><time>2022-6-4T10:40:3Z</time></trkpt>
<trkpt lat="47.3243309" lon="4.1077590"><ele></ele><time>2022-6-4T10:40:6Z</time></trkpt>
<trkpt lat="47.3244339" lon="4.1074988"><ele></ele><time>2022-6-4T10:40:9Z</time></trkpt>
<trkpt lat="47.3244752" lon="4.1071902"><ele></ele><time>2022-6-4T10:40:12Z</time></trkpt>
<trkpt lat="47.3245006" lon="4.1068989"><ele></ele><time>2022-6-4T10:40:15Z</time></trkpt>
<trkpt lat="47.3245196" lon="4.1066110"><ele></ele><time>2022-6-4T10:40:18Z</time></trkpt>
<trkpt lat="47.3245579" lon="4.1063409"><ele></ele><time>2022-6-4T10:40:21Z</time></trkpt>
<trkpt lat="47.3246389" lon="4.1060356"><ele></ele><time>2022-6-4T10:40:24Z</time></trkpt>
<trkpt lat="47.3247245" lon="4.1057593"><ele></ele><time>2022-6-4T10:40:27Z</time></trkpt>
<trkpt lat="47.3247960" lon="4.1054723"><ele></ele><time>2022-6-4T10:40:30Z</time></trkpt>
<trkpt lat="47.3248533" lon="4.1052013"><ele></ele><time>2022-6-4T10:40:33Z</time></trkpt>
<trkpt lat="47.3249306" lon="4.1048844"><ele></ele><time>2022-6-4T10:40:36Z</time></trkpt>
<trkpt lat="47.3249936" lon="4.1046200"><ele></ele><time>2022-6-4T10:40:39Z</time></trkpt>
<trkpt lat="47.3251038" lon="4.1043643"><ele></ele><time>2022-6-4T10:40:42Z</time></trkpt>
<trkpt lat="47.3252298" lon="4.1041380"><ele></ele><time>2022-6-4T10:40:45Z</time></trkpt>
<trkpt lat="47.3253669" lon="4.1039104"><ele></ele><time>2022-6-4T10:40:48Z</time></trkpt>
<trkpt lat="47.3254879" lon="4.1036969"><ele></ele><time>2022-6-4T10:40:51Z</time></trkpt>
<trkpt lat="47.3256053" lon="4.1033983"><ele></ele><time>2022-6-4T10:40:54Z</time></trkpt>
<trkpt lat="47.3256873" lon="4.1031065"><ele></ele><time>2022-6-4T10:40:57Z</time></trkpt>
<trkpt lat="47.3257823" lon="4.1028217"><ele></ele><time>2022-6-4T10:41:0Z</time></trkpt>
<trkpt lat="47.3259102" lon="4.1025272"><ele></ele><time>2022-6-4T10:41:3Z</time></trkpt>
<trkpt lat="47.3260130" lon="4.1022998"><ele></ele><time>2022-6-4T10:41:6Z</time></trkpt>
<trkpt lat="47.3261199" lon="4.1020787"><ele></ele><time>2022-6-4T10:41:9Z</time></trkpt>
<trkpt lat="47.3262199" lon="4.1018511"><ele></ele><time>2022-6-4T10:41:12Z</time></trkpt>
<trkpt lat="47.3263506" lon="4.1015625"><ele></ele><time>2022-6-4T10:41:15Z</time></trkpt>
<trkpt lat="47.3264624" lon="4.1012688"><ele></ele><time>2022-6-4T10:41:18Z</time></trkpt>
<trkpt lat="47.3265141" lon="4.1009365"><ele></ele><time>2022-6-4T10:41:21Z</time></trkpt>
<trkpt lat="47.3265580" lon="4.1006432"><ele></ele><time>2022-6-4T10:41:24Z</time></trkpt>
<trkpt lat="47.3266014" lon="4.1003798"><ele></ele><time>2022-6-4T10:41:27Z</time></trkpt>
<trkpt lat="47.3266778" lon="4.1001033"><ele></ele><time>2022-6-4T10:41:30Z</time></trkpt>
<trkpt lat="47.3267893" lon="4.0998512"><ele></ele><time>2022-6-4T10:41:33Z</time></trkpt>
<trkpt lat="47.3269180" lon="4.0996044"><ele></ele><time>2022-6-4T10:41:36Z</time></trkpt>
<trkpt lat="47.3270074" lon="4.0993717"><ele></ele><time>2022-6-4T10:41:39Z</time></trkpt>
<trkpt lat="47.3271191" lon="4.0990860"><ele></ele><time>2022-6-4T10:41:42Z</time></trkpt>
<trkpt lat="47.3272421" lon="4.0988004"><ele></ele><time>2022-6-4T10:41:45Z</time></trkpt>
<trkpt lat="47.3273708" lon="4.0985963"><ele></ele><time>2022-6-4T10:41:48Z</time></trkpt>
<trkpt lat="47.3275222" lon="4.0983656"><ele></ele><time>2022-6-4T10:41:51Z</time></trkpt>
<trkpt lat="47.3276849" lon="4.0981362"><ele></ele><time>2022-6-4T10:41:54Z</time></trkpt>
<trkpt lat="47.3278540" lon="4.0978942"><ele></ele><time>2022-6-4T10:41:57Z</time></trkpt>
<trkpt lat="47.3280388" lon="4.0977076"><ele></ele><time>2022-6-4T10:42:0Z</time></trkpt>
<trkpt lat="47.3282368" lon="4.0975722"><ele></ele><time>2022-6-4T10:42:3Z</time></trkpt>
<trkpt lat="47.3284198" lon="4.0974515"><ele></ele><time>2022-6-4T10:42:6Z</time></trkpt>
<trkpt lat="47.3285939" lon="4.0973574"><ele></ele><time>2022-6-4T10:42:9Z</time></trkpt>
<trkpt lat="47.3288267" lon="4.0973551"><ele></ele><time>2022-6-4T10:42:12Z</time></trkpt>
<trkpt lat="47.3288946" lon="4.0970889"><ele></ele><time>2022-6-4T10:42:15Z</time></trkpt>
<trkpt lat="47.3288876" lon="4.0967587"><ele></ele><time>2022-6-4T10:42:18Z</time></trkpt>
<trkpt lat="47.3288536" lon="4.0964124"><ele></ele><time>2022-6-4T10:42:21Z</time></trkpt>
<trkpt lat="47.3288195" lon="4.0961026"><ele></ele><time>2022-6-4T10:42:24Z</time></trkpt>
<trkpt lat="47.3288107" lon="4.0958233"><ele></ele><time>2022-6-4T10:42:27Z</time></trkpt>
<trkpt lat="47.3287951" lon="4.0955134"><ele></ele><time>2022-6-4T10:42:30Z</time></trkpt>
<trkpt lat="47.3287964" lon="4.0952296"><ele></ele><time>2022-6-4T10:42:33Z</time></trkpt>
<trkpt lat="47.3287896" lon="4.0948632"><ele></ele><time>2022-6-4T10:42:36Z</time></trkpt>
<trkpt lat="47.3288044" lon="4.0945327"><ele></ele><time>2022-6-4T10:42:39Z</time></trkpt>
</trkseg></trk></gpx>